<?xml version="1.0" encoding="utf-8"?>
<gpx  creator="GPX Track Cleaner (peter@danninger.eu, 02.08.2023)"
      version="1.1"
      xmlns="http://www.topografix.com/GPX/1/1"
      xmlns:xsi="http://www.w3.org/2001/XMLSchema-instance"
      xsi:schemaLocation="
        http://www.topografix.com/GPX/1/1                   https://www.topografix.com/GPX/1/1/gpx.xsd
        http://www.garmin.com/xmlschemas/GpxExtensions/v3   https://www8.garmin.com/xmlschemas/GpxExtensionsv3.xsd
        "
      xmlns:gpxx="http://www.garmin.com/xmlschemas/GpxExtensions/v3"
      xmlns:gpxtrx="http://www.garmin.com/xmlschemas/GpxExtensions/v3"
>


  <trk>
    <name>Cortina d&apos;Ampezzo Bergsteigen</name>
    <cmt>7.9km weit, 751m rauf, 760m runter</cmt>
    <desc>GPXclean: 1391 Trackpunkte, Original Höhenwerte des Tracks, Höhenkurve geglättet (leicht)</desc>
    <extensions>
      <gpxx:TrackExtension>
        <!--  Black | DarkRed | DarkGreen | DarkYellow | DarkBlue | DarkMagenta | DarkCyan | LightGray |
              DarkGray | Red | Green | Yellow | Blue | Magenta | Cyan | White | Transparent -->
        <gpxx:DisplayColor>Magenta</gpxx:DisplayColor>
      </gpxx:TrackExtension>
    </extensions>
    <trkseg>
      <trkpt lat="46.5203226" lon="12.0189729">
        <ele>2065.5</ele>
        <time>2026-09-01T06:26:08.000Z</time>
      </trkpt>
      <trkpt lat="46.5207765" lon="12.0195743">
        <ele>2066.28</ele>
        <time>2026-09-01T06:26:16.000Z</time>
      </trkpt>
      <trkpt lat="46.521078" lon="12.019477">
        <ele>2067.16</ele>
        <time>2026-09-01T06:26:19.000Z</time>
      </trkpt>
      <trkpt lat="46.521094" lon="12.019477">
        <ele>2067.95</ele>
        <time>2026-09-01T06:26:21.000Z</time>
      </trkpt>
      <trkpt lat="46.521126" lon="12.019499">
        <ele>2068.18</ele>
        <time>2026-09-01T06:26:24.000Z</time>
      </trkpt>
      <trkpt lat="46.521159" lon="12.01951">
        <ele>2068.85</ele>
        <time>2026-09-01T06:26:27.000Z</time>
      </trkpt>
      <trkpt lat="46.521185" lon="12.019542">
        <ele>2069.2</ele>
        <time>2026-09-01T06:26:31.000Z</time>
      </trkpt>
      <trkpt lat="46.521201" lon="12.019542">
        <ele>2070.03</ele>
        <time>2026-09-01T06:26:33.000Z</time>
      </trkpt>
      <trkpt lat="46.521287" lon="12.019574">
        <ele>2070.85</ele>
        <time>2026-09-01T06:26:43.000Z</time>
      </trkpt>
      <trkpt lat="46.521352" lon="12.019638">
        <ele>2071.18</ele>
        <time>2026-09-01T06:26:50.000Z</time>
      </trkpt>
      <trkpt lat="46.521416" lon="12.019671">
        <ele>2072.03</ele>
        <time>2026-09-01T06:26:57.000Z</time>
      </trkpt>
      <trkpt lat="46.521443" lon="12.019756">
        <ele>2072.85</ele>
        <time>2026-09-01T06:27:03.000Z</time>
      </trkpt>
      <trkpt lat="46.521443" lon="12.019789">
        <ele>2073.2</ele>
        <time>2026-09-01T06:27:05.000Z</time>
      </trkpt>
      <trkpt lat="46.521496" lon="12.019767">
        <ele>2074.03</ele>
        <time>2026-09-01T06:27:11.000Z</time>
      </trkpt>
      <trkpt lat="46.521614" lon="12.019789">
        <ele>2074.93</ele>
        <time>2026-09-01T06:27:19.000Z</time>
      </trkpt>
      <trkpt lat="46.521631" lon="12.019799">
        <ele>2075.78</ele>
        <time>2026-09-01T06:27:20.000Z</time>
      </trkpt>
      <trkpt lat="46.521668" lon="12.019799">
        <ele>2076.15</ele>
        <time>2026-09-01T06:27:23.000Z</time>
      </trkpt>
      <trkpt lat="46.521695" lon="12.019821">
        <ele>2076.95</ele>
        <time>2026-09-01T06:27:27.000Z</time>
      </trkpt>
      <trkpt lat="46.521722" lon="12.019832">
        <ele>2077.35</ele>
        <time>2026-09-01T06:27:31.000Z</time>
      </trkpt>
      <trkpt lat="46.521743" lon="12.019864">
        <ele>2078.25</ele>
        <time>2026-09-01T06:27:34.000Z</time>
      </trkpt>
      <trkpt lat="46.521765" lon="12.019907">
        <ele>2079.3</ele>
        <time>2026-09-01T06:27:41.000Z</time>
      </trkpt>
      <trkpt lat="46.521808" lon="12.019971">
        <ele>2080.82</ele>
        <time>2026-09-01T06:27:48.000Z</time>
      </trkpt>
      <trkpt lat="46.521872" lon="12.019971">
        <ele>2081.88</ele>
        <time>2026-09-01T06:27:55.000Z</time>
      </trkpt>
      <trkpt lat="46.521893" lon="12.020014">
        <ele>2082.82</ele>
        <time>2026-09-01T06:28:00.000Z</time>
      </trkpt>
      <trkpt lat="46.521872" lon="12.020089">
        <ele>2083.8</ele>
        <time>2026-09-01T06:28:07.000Z</time>
      </trkpt>
      <trkpt lat="46.521851" lon="12.020143">
        <ele>2084.68</ele>
        <time>2026-09-01T06:28:12.000Z</time>
      </trkpt>
      <trkpt lat="46.521845" lon="12.020175">
        <ele>2085.07</ele>
        <time>2026-09-01T06:28:14.000Z</time>
      </trkpt>
      <trkpt lat="46.521834" lon="12.02025">
        <ele>2085.88</ele>
        <time>2026-09-01T06:28:20.000Z</time>
      </trkpt>
      <trkpt lat="46.521845" lon="12.020282">
        <ele>2086.25</ele>
        <time>2026-09-01T06:28:24.000Z</time>
      </trkpt>
      <trkpt lat="46.521851" lon="12.020347">
        <ele>2087.05</ele>
        <time>2026-09-01T06:28:27.000Z</time>
      </trkpt>
      <trkpt lat="46.521872" lon="12.020432">
        <ele>2087.5</ele>
        <time>2026-09-01T06:28:32.000Z</time>
      </trkpt>
      <trkpt lat="46.521883" lon="12.020443">
        <ele>2088.95</ele>
        <time>2026-09-01T06:28:39.000Z</time>
      </trkpt>
      <trkpt lat="46.521904" lon="12.020497">
        <ele>2090</ele>
        <time>2026-09-01T06:28:44.000Z</time>
      </trkpt>
      <trkpt lat="46.52192" lon="12.020529">
        <ele>2090.95</ele>
        <time>2026-09-01T06:28:49.000Z</time>
      </trkpt>
      <trkpt lat="46.521947" lon="12.020572">
        <ele>2091.93</ele>
        <time>2026-09-01T06:28:55.000Z</time>
      </trkpt>
      <trkpt lat="46.521969" lon="12.020615">
        <ele>2092.9</ele>
        <time>2026-09-01T06:29:01.000Z</time>
      </trkpt>
      <trkpt lat="46.521969" lon="12.020636">
        <ele>2093.9</ele>
        <time>2026-09-01T06:29:07.000Z</time>
      </trkpt>
      <trkpt lat="46.521974" lon="12.020711">
        <ele>2094.8</ele>
        <time>2026-09-01T06:29:12.000Z</time>
      </trkpt>
      <trkpt lat="46.521963" lon="12.020733">
        <ele>2095.2</ele>
        <time>2026-09-01T06:29:14.000Z</time>
      </trkpt>
      <trkpt lat="46.521969" lon="12.020765">
        <ele>2096.1</ele>
        <time>2026-09-01T06:29:20.000Z</time>
      </trkpt>
      <trkpt lat="46.522001" lon="12.020776">
        <ele>2097.07</ele>
        <time>2026-09-01T06:29:25.000Z</time>
      </trkpt>
      <trkpt lat="46.522001" lon="12.020797">
        <ele>2098.05</ele>
        <time>2026-09-01T06:29:31.000Z</time>
      </trkpt>
      <trkpt lat="46.521995" lon="12.02084">
        <ele>2099</ele>
        <time>2026-09-01T06:29:38.000Z</time>
      </trkpt>
      <trkpt lat="46.522033" lon="12.020851">
        <ele>2099.95</ele>
        <time>2026-09-01T06:29:45.000Z</time>
      </trkpt>
      <trkpt lat="46.522028" lon="12.020883">
        <ele>2100.93</ele>
        <time>2026-09-01T06:29:50.000Z</time>
      </trkpt>
      <trkpt lat="46.522033" lon="12.020937">
        <ele>2101.9</ele>
        <time>2026-09-01T06:29:57.000Z</time>
      </trkpt>
      <trkpt lat="46.522049" lon="12.020947">
        <ele>2102.78</ele>
        <time>2026-09-01T06:29:59.000Z</time>
      </trkpt>
      <trkpt lat="46.52207" lon="12.02099">
        <ele>2103.15</ele>
        <time>2026-09-01T06:30:04.000Z</time>
      </trkpt>
      <trkpt lat="46.522087" lon="12.021044">
        <ele>2104.03</ele>
        <time>2026-09-01T06:30:08.000Z</time>
      </trkpt>
      <trkpt lat="46.522081" lon="12.021087">
        <ele>2104.98</ele>
        <time>2026-09-01T06:30:14.000Z</time>
      </trkpt>
      <trkpt lat="46.522124" lon="12.02113">
        <ele>2105.85</ele>
        <time>2026-09-01T06:30:21.000Z</time>
      </trkpt>
      <trkpt lat="46.522129" lon="12.021162">
        <ele>2106.23</ele>
        <time>2026-09-01T06:30:24.000Z</time>
      </trkpt>
      <trkpt lat="46.522146" lon="12.021205">
        <ele>2107.1</ele>
        <time>2026-09-01T06:30:29.000Z</time>
      </trkpt>
      <trkpt lat="46.52214" lon="12.021248">
        <ele>2108.05</ele>
        <time>2026-09-01T06:30:35.000Z</time>
      </trkpt>
      <trkpt lat="46.522162" lon="12.021248">
        <ele>2109</ele>
        <time>2026-09-01T06:30:38.000Z</time>
      </trkpt>
      <trkpt lat="46.522178" lon="12.021258">
        <ele>2109.98</ele>
        <time>2026-09-01T06:30:45.000Z</time>
      </trkpt>
      <trkpt lat="46.522194" lon="12.021269">
        <ele>2110.95</ele>
        <time>2026-09-01T06:30:50.000Z</time>
      </trkpt>
      <trkpt lat="46.522199" lon="12.021301">
        <ele>2111.88</ele>
        <time>2026-09-01T06:30:55.000Z</time>
      </trkpt>
      <trkpt lat="46.522199" lon="12.021334">
        <ele>2112.28</ele>
        <time>2026-09-01T06:30:58.000Z</time>
      </trkpt>
      <trkpt lat="46.522194" lon="12.021398">
        <ele>2113.25</ele>
        <time>2026-09-01T06:31:03.000Z</time>
      </trkpt>
      <trkpt lat="46.522199" lon="12.021473">
        <ele>2114.8</ele>
        <time>2026-09-01T06:31:11.000Z</time>
      </trkpt>
      <trkpt lat="46.522199" lon="12.021505">
        <ele>2115.85</ele>
        <time>2026-09-01T06:31:18.000Z</time>
      </trkpt>
      <trkpt lat="46.522221" lon="12.02157">
        <ele>2116.75</ele>
        <time>2026-09-01T06:31:23.000Z</time>
      </trkpt>
      <trkpt lat="46.522269" lon="12.02157">
        <ele>2117.15</ele>
        <time>2026-09-01T06:31:31.000Z</time>
      </trkpt>
      <trkpt lat="46.52228" lon="12.021548">
        <ele>2118.07</ele>
        <time>2026-09-01T06:31:33.000Z</time>
      </trkpt>
      <trkpt lat="46.522323" lon="12.021505">
        <ele>2119.07</ele>
        <time>2026-09-01T06:31:39.000Z</time>
      </trkpt>
      <trkpt lat="46.522344" lon="12.021495">
        <ele>2120.03</ele>
        <time>2026-09-01T06:31:44.000Z</time>
      </trkpt>
      <trkpt lat="46.522392" lon="12.021462">
        <ele>2120.98</ele>
        <time>2026-09-01T06:31:50.000Z</time>
      </trkpt>
      <trkpt lat="46.522419" lon="12.021441">
        <ele>2121.93</ele>
        <time>2026-09-01T06:31:55.000Z</time>
      </trkpt>
      <trkpt lat="46.52243" lon="12.021419">
        <ele>2122.9</ele>
        <time>2026-09-01T06:31:58.000Z</time>
      </trkpt>
      <trkpt lat="46.522457" lon="12.021355">
        <ele>2123.8</ele>
        <time>2026-09-01T06:32:03.000Z</time>
      </trkpt>
      <trkpt lat="46.522489" lon="12.021323">
        <ele>2124.2</ele>
        <time>2026-09-01T06:32:08.000Z</time>
      </trkpt>
      <trkpt lat="46.522505" lon="12.021334">
        <ele>2125.1</ele>
        <time>2026-09-01T06:32:12.000Z</time>
      </trkpt>
      <trkpt lat="46.52251" lon="12.021387">
        <ele>2126.07</ele>
        <time>2026-09-01T06:32:19.000Z</time>
      </trkpt>
      <trkpt lat="46.522521" lon="12.021387">
        <ele>2127.05</ele>
        <time>2026-09-01T06:32:23.000Z</time>
      </trkpt>
      <trkpt lat="46.522543" lon="12.021387">
        <ele>2128.03</ele>
        <time>2026-09-01T06:32:30.000Z</time>
      </trkpt>
      <trkpt lat="46.522559" lon="12.021398">
        <ele>2129</ele>
        <time>2026-09-01T06:32:35.000Z</time>
      </trkpt>
      <trkpt lat="46.522591" lon="12.021409">
        <ele>2130</ele>
        <time>2026-09-01T06:32:41.000Z</time>
      </trkpt>
      <trkpt lat="46.522607" lon="12.021376">
        <ele>2131</ele>
        <time>2026-09-01T06:32:48.000Z</time>
      </trkpt>
      <trkpt lat="46.522623" lon="12.021387">
        <ele>2131.98</ele>
        <time>2026-09-01T06:32:55.000Z</time>
      </trkpt>
      <trkpt lat="46.522628" lon="12.021387">
        <ele>2132.95</ele>
        <time>2026-09-01T06:32:57.000Z</time>
      </trkpt>
      <trkpt lat="46.52265" lon="12.021376">
        <ele>2133.93</ele>
        <time>2026-09-01T06:33:04.000Z</time>
      </trkpt>
      <trkpt lat="46.52265" lon="12.021334">
        <ele>2134.9</ele>
        <time>2026-09-01T06:33:12.000Z</time>
      </trkpt>
      <trkpt lat="46.522671" lon="12.021258">
        <ele>2135.78</ele>
        <time>2026-09-01T06:33:18.000Z</time>
      </trkpt>
      <trkpt lat="46.522693" lon="12.021258">
        <ele>2136.15</ele>
        <time>2026-09-01T06:33:27.000Z</time>
      </trkpt>
      <trkpt lat="46.522698" lon="12.021291">
        <ele>2137</ele>
        <time>2026-09-01T06:33:30.000Z</time>
      </trkpt>
      <trkpt lat="46.522709" lon="12.021269">
        <ele>2137.93</ele>
        <time>2026-09-01T06:33:37.000Z</time>
      </trkpt>
      <trkpt lat="46.522714" lon="12.02128">
        <ele>2138.75</ele>
        <time>2026-09-01T06:33:39.000Z</time>
      </trkpt>
      <trkpt lat="46.522725" lon="12.021323">
        <ele>2139.07</ele>
        <time>2026-09-01T06:33:43.000Z</time>
      </trkpt>
      <trkpt lat="46.522736" lon="12.021344">
        <ele>2139.8</ele>
        <time>2026-09-01T06:33:47.000Z</time>
      </trkpt>
      <trkpt lat="46.522762" lon="12.021376">
        <ele>2140.13</ele>
        <time>2026-09-01T06:33:51.000Z</time>
      </trkpt>
      <trkpt lat="46.522784" lon="12.021398">
        <ele>2140.88</ele>
        <time>2026-09-01T06:33:54.000Z</time>
      </trkpt>
      <trkpt lat="46.522805" lon="12.021398">
        <ele>2141.2</ele>
        <time>2026-09-01T06:33:59.000Z</time>
      </trkpt>
      <trkpt lat="46.522811" lon="12.021398">
        <ele>2141.95</ele>
        <time>2026-09-01T06:34:01.000Z</time>
      </trkpt>
      <trkpt lat="46.522848" lon="12.021462">
        <ele>2142.3</ele>
        <time>2026-09-01T06:34:08.000Z</time>
      </trkpt>
      <trkpt lat="46.522854" lon="12.021462">
        <ele>2143.15</ele>
        <time>2026-09-01T06:34:09.000Z</time>
      </trkpt>
      <trkpt lat="46.522875" lon="12.021516">
        <ele>2144.07</ele>
        <time>2026-09-01T06:34:15.000Z</time>
      </trkpt>
      <trkpt lat="46.522891" lon="12.02158">
        <ele>2145</ele>
        <time>2026-09-01T06:34:22.000Z</time>
      </trkpt>
      <trkpt lat="46.522934" lon="12.021645">
        <ele>2145.95</ele>
        <time>2026-09-01T06:34:29.000Z</time>
      </trkpt>
      <trkpt lat="46.522945" lon="12.021655">
        <ele>2146.88</ele>
        <time>2026-09-01T06:34:35.000Z</time>
      </trkpt>
      <trkpt lat="46.522972" lon="12.021709">
        <ele>2147.75</ele>
        <time>2026-09-01T06:34:42.000Z</time>
      </trkpt>
      <trkpt lat="46.522982" lon="12.021731">
        <ele>2148.13</ele>
        <time>2026-09-01T06:34:44.000Z</time>
      </trkpt>
      <trkpt lat="46.523015" lon="12.021763">
        <ele>2149</ele>
        <time>2026-09-01T06:34:49.000Z</time>
      </trkpt>
      <trkpt lat="46.523047" lon="12.021752">
        <ele>2149.88</ele>
        <time>2026-09-01T06:34:55.000Z</time>
      </trkpt>
      <trkpt lat="46.523079" lon="12.021741">
        <ele>2150.25</ele>
        <time>2026-09-01T06:34:59.000Z</time>
      </trkpt>
      <trkpt lat="46.5231" lon="12.021731">
        <ele>2151.1</ele>
        <time>2026-09-01T06:35:02.000Z</time>
      </trkpt>
      <trkpt lat="46.523117" lon="12.021741">
        <ele>2152</ele>
        <time>2026-09-01T06:35:04.000Z</time>
      </trkpt>
      <trkpt lat="46.523133" lon="12.021763">
        <ele>2152.9</ele>
        <time>2026-09-01T06:35:10.000Z</time>
      </trkpt>
      <trkpt lat="46.523138" lon="12.021784">
        <ele>2153.8</ele>
        <time>2026-09-01T06:35:16.000Z</time>
      </trkpt>
      <trkpt lat="46.523154" lon="12.021827">
        <ele>2154.6</ele>
        <time>2026-09-01T06:35:21.000Z</time>
      </trkpt>
      <trkpt lat="46.523181" lon="12.021945">
        <ele>2154.85</ele>
        <time>2026-09-01T06:35:28.000Z</time>
      </trkpt>
      <trkpt lat="46.523186" lon="12.022042">
        <ele>2155.03</ele>
        <time>2026-09-01T06:35:34.000Z</time>
      </trkpt>
      <trkpt lat="46.523208" lon="12.022095">
        <ele>2155.28</ele>
        <time>2026-09-01T06:35:39.000Z</time>
      </trkpt>
      <trkpt lat="46.523218" lon="12.022095">
        <ele>2156</ele>
        <time>2026-09-01T06:35:41.000Z</time>
      </trkpt>
      <trkpt lat="46.523229" lon="12.022128">
        <ele>2156.3</ele>
        <time>2026-09-01T06:35:44.000Z</time>
      </trkpt>
      <trkpt lat="46.523235" lon="12.022149">
        <ele>2157.1</ele>
        <time>2026-09-01T06:35:46.000Z</time>
      </trkpt>
      <trkpt lat="46.523256" lon="12.022203">
        <ele>2158</ele>
        <time>2026-09-01T06:35:52.000Z</time>
      </trkpt>
      <trkpt lat="46.523261" lon="12.022256">
        <ele>2158.85</ele>
        <time>2026-09-01T06:35:58.000Z</time>
      </trkpt>
      <trkpt lat="46.523294" lon="12.022331">
        <ele>2159.23</ele>
        <time>2026-09-01T06:36:06.000Z</time>
      </trkpt>
      <trkpt lat="46.523315" lon="12.022385">
        <ele>2160.1</ele>
        <time>2026-09-01T06:36:11.000Z</time>
      </trkpt>
      <trkpt lat="46.523342" lon="12.022428">
        <ele>2161.07</ele>
        <time>2026-09-01T06:36:17.000Z</time>
      </trkpt>
      <trkpt lat="46.523358" lon="12.02246">
        <ele>2162.23</ele>
        <time>2026-09-01T06:36:24.000Z</time>
      </trkpt>
      <trkpt lat="46.523374" lon="12.022471">
        <ele>2163.38</ele>
        <time>2026-09-01T06:36:29.000Z</time>
      </trkpt>
      <trkpt lat="46.52339" lon="12.022492">
        <ele>2164.53</ele>
        <time>2026-09-01T06:36:31.000Z</time>
      </trkpt>
      <trkpt lat="46.523428" lon="12.022535">
        <ele>2165.68</ele>
        <time>2026-09-01T06:36:38.000Z</time>
      </trkpt>
      <trkpt lat="46.523433" lon="12.022546">
        <ele>2167.32</ele>
        <time>2026-09-01T06:36:39.000Z</time>
      </trkpt>
      <trkpt lat="46.523594" lon="12.022664">
        <ele>2172.45</ele>
        <time>2026-09-01T06:38:32.000Z</time>
      </trkpt>
      <trkpt lat="46.523615" lon="12.022664">
        <ele>2174.05</ele>
        <time>2026-09-01T06:39:16.000Z</time>
      </trkpt>
      <trkpt lat="46.523691" lon="12.0229">
        <ele>2175.03</ele>
        <time>2026-09-01T06:39:55.000Z</time>
      </trkpt>
      <trkpt lat="46.523685" lon="12.022943">
        <ele>2175.38</ele>
        <time>2026-09-01T06:39:57.000Z</time>
      </trkpt>
      <trkpt lat="46.523691" lon="12.022975">
        <ele>2175.68</ele>
        <time>2026-09-01T06:39:59.000Z</time>
      </trkpt>
      <trkpt lat="46.523717" lon="12.023072">
        <ele>2175.95</ele>
        <time>2026-09-01T06:40:05.000Z</time>
      </trkpt>
      <trkpt lat="46.523717" lon="12.023104">
        <ele>2176.05</ele>
        <time>2026-09-01T06:40:07.000Z</time>
      </trkpt>
      <trkpt lat="46.523728" lon="12.02319">
        <ele>2176.05</ele>
        <time>2026-09-01T06:40:11.000Z</time>
      </trkpt>
      <trkpt lat="46.523814" lon="12.023554">
        <ele>2175.65</ele>
        <time>2026-09-01T06:40:32.000Z</time>
      </trkpt>
      <trkpt lat="46.523841" lon="12.023715">
        <ele>2176.73</ele>
        <time>2026-09-01T06:40:40.000Z</time>
      </trkpt>
      <trkpt lat="46.523846" lon="12.023748">
        <ele>2176.98</ele>
        <time>2026-09-01T06:40:42.000Z</time>
      </trkpt>
      <trkpt lat="46.523851" lon="12.023801">
        <ele>2177.55</ele>
        <time>2026-09-01T06:40:46.000Z</time>
      </trkpt>
      <trkpt lat="46.523862" lon="12.023855">
        <ele>2177.55</ele>
        <time>2026-09-01T06:40:50.000Z</time>
      </trkpt>
      <trkpt lat="46.523868" lon="12.023876">
        <ele>2176.88</ele>
        <time>2026-09-01T06:40:51.000Z</time>
      </trkpt>
      <trkpt lat="46.523862" lon="12.024016">
        <ele>2176.3</ele>
        <time>2026-09-01T06:40:59.000Z</time>
      </trkpt>
      <trkpt lat="46.523873" lon="12.024037">
        <ele>2176.7</ele>
        <time>2026-09-01T06:41:08.000Z</time>
      </trkpt>
      <trkpt lat="46.523878" lon="12.024112">
        <ele>2176.15</ele>
        <time>2026-09-01T06:41:12.000Z</time>
      </trkpt>
      <trkpt lat="46.523889" lon="12.024177">
        <ele>2175.9</ele>
        <time>2026-09-01T06:41:15.000Z</time>
      </trkpt>
      <trkpt lat="46.523905" lon="12.02423">
        <ele>2175.25</ele>
        <time>2026-09-01T06:41:18.000Z</time>
      </trkpt>
      <trkpt lat="46.523921" lon="12.024273">
        <ele>2175.18</ele>
        <time>2026-09-01T06:41:21.000Z</time>
      </trkpt>
      <trkpt lat="46.523996" lon="12.024381">
        <ele>2175.63</ele>
        <time>2026-09-01T06:41:29.000Z</time>
      </trkpt>
      <trkpt lat="46.524055" lon="12.024413">
        <ele>2174.95</ele>
        <time>2026-09-01T06:41:35.000Z</time>
      </trkpt>
      <trkpt lat="46.524125" lon="12.024477">
        <ele>2174.3</ele>
        <time>2026-09-01T06:41:41.000Z</time>
      </trkpt>
      <trkpt lat="46.524211" lon="12.024541">
        <ele>2174.65</ele>
        <time>2026-09-01T06:42:01.000Z</time>
      </trkpt>
      <trkpt lat="46.524232" lon="12.024649">
        <ele>2174.07</ele>
        <time>2026-09-01T06:42:07.000Z</time>
      </trkpt>
      <trkpt lat="46.524243" lon="12.024681">
        <ele>2173.85</ele>
        <time>2026-09-01T06:42:09.000Z</time>
      </trkpt>
      <trkpt lat="46.524259" lon="12.024778">
        <ele>2173.18</ele>
        <time>2026-09-01T06:42:14.000Z</time>
      </trkpt>
      <trkpt lat="46.524281" lon="12.024863">
        <ele>2173.03</ele>
        <time>2026-09-01T06:42:20.000Z</time>
      </trkpt>
      <trkpt lat="46.524281" lon="12.024896">
        <ele>2172.9</ele>
        <time>2026-09-01T06:42:23.000Z</time>
      </trkpt>
      <trkpt lat="46.524275" lon="12.024896">
        <ele>2172.25</ele>
        <time>2026-09-01T06:42:28.000Z</time>
      </trkpt>
      <trkpt lat="46.524259" lon="12.024842">
        <ele>2172.1</ele>
        <time>2026-09-01T06:42:29.000Z</time>
      </trkpt>
      <trkpt lat="46.52427" lon="12.024885">
        <ele>2172.03</ele>
        <time>2026-09-01T06:42:52.000Z</time>
      </trkpt>
      <trkpt lat="46.524265" lon="12.02496">
        <ele>2171.95</ele>
        <time>2026-09-01T06:42:56.000Z</time>
      </trkpt>
      <trkpt lat="46.524248" lon="12.025024">
        <ele>2171.88</ele>
        <time>2026-09-01T06:43:00.000Z</time>
      </trkpt>
      <trkpt lat="46.524248" lon="12.025067">
        <ele>2171.7</ele>
        <time>2026-09-01T06:43:03.000Z</time>
      </trkpt>
      <trkpt lat="46.524275" lon="12.025153">
        <ele>2171.05</ele>
        <time>2026-09-01T06:43:08.000Z</time>
      </trkpt>
      <trkpt lat="46.524281" lon="12.025185">
        <ele>2170.8</ele>
        <time>2026-09-01T06:43:10.000Z</time>
      </trkpt>
      <trkpt lat="46.524291" lon="12.025282">
        <ele>2170.15</ele>
        <time>2026-09-01T06:43:15.000Z</time>
      </trkpt>
      <trkpt lat="46.524302" lon="12.025314">
        <ele>2169.95</ele>
        <time>2026-09-01T06:43:17.000Z</time>
      </trkpt>
      <trkpt lat="46.524345" lon="12.025389">
        <ele>2169.35</ele>
        <time>2026-09-01T06:43:23.000Z</time>
      </trkpt>
      <trkpt lat="46.524372" lon="12.025432">
        <ele>2169.18</ele>
        <time>2026-09-01T06:43:26.000Z</time>
      </trkpt>
      <trkpt lat="46.524393" lon="12.025475">
        <ele>2168.7</ele>
        <time>2026-09-01T06:43:29.000Z</time>
      </trkpt>
      <trkpt lat="46.524458" lon="12.025529">
        <ele>2169.3</ele>
        <time>2026-09-01T06:43:36.000Z</time>
      </trkpt>
      <trkpt lat="46.52449" lon="12.025507">
        <ele>2170.1</ele>
        <time>2026-09-01T06:43:41.000Z</time>
      </trkpt>
      <trkpt lat="46.524522" lon="12.025486">
        <ele>2170.85</ele>
        <time>2026-09-01T06:43:45.000Z</time>
      </trkpt>
      <trkpt lat="46.524517" lon="12.025453">
        <ele>2171.15</ele>
        <time>2026-09-01T06:43:49.000Z</time>
      </trkpt>
      <trkpt lat="46.524565" lon="12.025389">
        <ele>2171.9</ele>
        <time>2026-09-01T06:44:04.000Z</time>
      </trkpt>
      <trkpt lat="46.524581" lon="12.025368">
        <ele>2172.28</ele>
        <time>2026-09-01T06:44:06.000Z</time>
      </trkpt>
      <trkpt lat="46.524629" lon="12.025378">
        <ele>2173.1</ele>
        <time>2026-09-01T06:44:10.000Z</time>
      </trkpt>
      <trkpt lat="46.524667" lon="12.025389">
        <ele>2173.98</ele>
        <time>2026-09-01T06:44:15.000Z</time>
      </trkpt>
      <trkpt lat="46.524688" lon="12.0254">
        <ele>2174.82</ele>
        <time>2026-09-01T06:44:18.000Z</time>
      </trkpt>
      <trkpt lat="46.524731" lon="12.025453">
        <ele>2175.65</ele>
        <time>2026-09-01T06:44:23.000Z</time>
      </trkpt>
      <trkpt lat="46.524753" lon="12.025475">
        <ele>2176.3</ele>
        <time>2026-09-01T06:44:25.000Z</time>
      </trkpt>
      <trkpt lat="46.524844" lon="12.025539">
        <ele>2175.9</ele>
        <time>2026-09-01T06:44:33.000Z</time>
      </trkpt>
      <trkpt lat="46.524865" lon="12.025582">
        <ele>2175.88</ele>
        <time>2026-09-01T06:44:36.000Z</time>
      </trkpt>
      <trkpt lat="46.524881" lon="12.025647">
        <ele>2175.82</ele>
        <time>2026-09-01T06:44:39.000Z</time>
      </trkpt>
      <trkpt lat="46.524898" lon="12.0257">
        <ele>2175.25</ele>
        <time>2026-09-01T06:44:42.000Z</time>
      </trkpt>
      <trkpt lat="46.524919" lon="12.025743">
        <ele>2175.25</ele>
        <time>2026-09-01T06:44:45.000Z</time>
      </trkpt>
      <trkpt lat="46.524994" lon="12.02584">
        <ele>2175.75</ele>
        <time>2026-09-01T06:44:53.000Z</time>
      </trkpt>
      <trkpt lat="46.525032" lon="12.025904">
        <ele>2175.28</ele>
        <time>2026-09-01T06:45:00.000Z</time>
      </trkpt>
      <trkpt lat="46.525075" lon="12.025958">
        <ele>2175.23</ele>
        <time>2026-09-01T06:45:04.000Z</time>
      </trkpt>
      <trkpt lat="46.525107" lon="12.02599">
        <ele>2175.35</ele>
        <time>2026-09-01T06:45:08.000Z</time>
      </trkpt>
      <trkpt lat="46.52516" lon="12.026065">
        <ele>2176.1</ele>
        <time>2026-09-01T06:45:15.000Z</time>
      </trkpt>
      <trkpt lat="46.525171" lon="12.026086">
        <ele>2176.82</ele>
        <time>2026-09-01T06:45:17.000Z</time>
      </trkpt>
      <trkpt lat="46.525214" lon="12.02614">
        <ele>2176.95</ele>
        <time>2026-09-01T06:45:24.000Z</time>
      </trkpt>
      <trkpt lat="46.525246" lon="12.026129">
        <ele>2177.13</ele>
        <time>2026-09-01T06:45:30.000Z</time>
      </trkpt>
      <trkpt lat="46.525257" lon="12.026129">
        <ele>2177.88</ele>
        <time>2026-09-01T06:45:31.000Z</time>
      </trkpt>
      <trkpt lat="46.5253" lon="12.026183">
        <ele>2178.53</ele>
        <time>2026-09-01T06:45:37.000Z</time>
      </trkpt>
      <trkpt lat="46.525305" lon="12.026226">
        <ele>2178.1</ele>
        <time>2026-09-01T06:45:43.000Z</time>
      </trkpt>
      <trkpt lat="46.5253" lon="12.026301">
        <ele>2178.15</ele>
        <time>2026-09-01T06:45:50.000Z</time>
      </trkpt>
      <trkpt lat="46.525305" lon="12.026333">
        <ele>2178.75</ele>
        <time>2026-09-01T06:45:54.000Z</time>
      </trkpt>
      <trkpt lat="46.525311" lon="12.026365">
        <ele>2178.75</ele>
        <time>2026-09-01T06:45:57.000Z</time>
      </trkpt>
      <trkpt lat="46.525343" lon="12.026365">
        <ele>2178.25</ele>
        <time>2026-09-01T06:46:12.000Z</time>
      </trkpt>
      <trkpt lat="46.525343" lon="12.026441">
        <ele>2178.7</ele>
        <time>2026-09-01T06:46:18.000Z</time>
      </trkpt>
      <trkpt lat="46.525289" lon="12.026526">
        <ele>2178.65</ele>
        <time>2026-09-01T06:46:25.000Z</time>
      </trkpt>
      <trkpt lat="46.525273" lon="12.026569">
        <ele>2177.95</ele>
        <time>2026-09-01T06:46:29.000Z</time>
      </trkpt>
      <trkpt lat="46.525257" lon="12.026601">
        <ele>2177.35</ele>
        <time>2026-09-01T06:46:32.000Z</time>
      </trkpt>
      <trkpt lat="46.525257" lon="12.026666">
        <ele>2177.78</ele>
        <time>2026-09-01T06:46:37.000Z</time>
      </trkpt>
      <trkpt lat="46.525246" lon="12.026719">
        <ele>2177.23</ele>
        <time>2026-09-01T06:46:41.000Z</time>
      </trkpt>
      <trkpt lat="46.525241" lon="12.026741">
        <ele>2176.57</ele>
        <time>2026-09-01T06:46:43.000Z</time>
      </trkpt>
      <trkpt lat="46.525273" lon="12.026795">
        <ele>2176.68</ele>
        <time>2026-09-01T06:46:49.000Z</time>
      </trkpt>
      <trkpt lat="46.525305" lon="12.026837">
        <ele>2177.98</ele>
        <time>2026-09-01T06:46:55.000Z</time>
      </trkpt>
      <trkpt lat="46.525327" lon="12.026848">
        <ele>2178.82</ele>
        <time>2026-09-01T06:47:03.000Z</time>
      </trkpt>
      <trkpt lat="46.525316" lon="12.02687">
        <ele>2179.23</ele>
        <time>2026-09-01T06:47:05.000Z</time>
      </trkpt>
      <trkpt lat="46.525316" lon="12.026902">
        <ele>2179.7</ele>
        <time>2026-09-01T06:47:07.000Z</time>
      </trkpt>
      <trkpt lat="46.525327" lon="12.026902">
        <ele>2180.82</ele>
        <time>2026-09-01T06:47:11.000Z</time>
      </trkpt>
      <trkpt lat="46.525332" lon="12.026902">
        <ele>2182.07</ele>
        <time>2026-09-01T06:47:14.000Z</time>
      </trkpt>
      <trkpt lat="46.525332" lon="12.026923">
        <ele>2183.88</ele>
        <time>2026-09-01T06:47:20.000Z</time>
      </trkpt>
      <trkpt lat="46.525466" lon="12.027138">
        <ele>2189.75</ele>
        <time>2026-09-01T06:48:15.000Z</time>
      </trkpt>
      <trkpt lat="46.525482" lon="12.027138">
        <ele>2192.2</ele>
        <time>2026-09-01T06:48:24.000Z</time>
      </trkpt>
      <trkpt lat="46.525531" lon="12.027052">
        <ele>2194.25</ele>
        <time>2026-09-01T06:48:38.000Z</time>
      </trkpt>
      <trkpt lat="46.525557" lon="12.026998">
        <ele>2196.23</ele>
        <time>2026-09-01T06:48:48.000Z</time>
      </trkpt>
      <trkpt lat="46.525563" lon="12.026966">
        <ele>2197.3</ele>
        <time>2026-09-01T06:48:51.000Z</time>
      </trkpt>
      <trkpt lat="46.525579" lon="12.026934">
        <ele>2198.93</ele>
        <time>2026-09-01T06:48:55.000Z</time>
      </trkpt>
      <trkpt lat="46.52559" lon="12.026966">
        <ele>2200.23</ele>
        <time>2026-09-01T06:56:53.000Z</time>
      </trkpt>
      <trkpt lat="46.525616" lon="12.026934">
        <ele>2204.38</ele>
        <time>2026-09-01T06:58:16.000Z</time>
      </trkpt>
      <trkpt lat="46.525649" lon="12.026998">
        <ele>2208.75</ele>
        <time>2026-09-01T07:01:12.000Z</time>
      </trkpt>
      <trkpt lat="46.52567" lon="12.026977">
        <ele>2215.4</ele>
        <time>2026-09-01T07:02:39.000Z</time>
      </trkpt>
      <trkpt lat="46.52575" lon="12.026945">
        <ele>2222.35</ele>
        <time>2026-09-01T07:05:30.000Z</time>
      </trkpt>
      <trkpt lat="46.525772" lon="12.026913">
        <ele>2225.18</ele>
        <time>2026-09-01T07:07:22.000Z</time>
      </trkpt>
      <trkpt lat="46.525842" lon="12.026837">
        <ele>2231.03</ele>
        <time>2026-09-01T07:08:43.000Z</time>
      </trkpt>
      <trkpt lat="46.525874" lon="12.026816">
        <ele>2237.07</ele>
        <time>2026-09-01T07:11:07.000Z</time>
      </trkpt>
      <trkpt lat="46.525885" lon="12.026816">
        <ele>2239.9</ele>
        <time>2026-09-01T07:11:20.000Z</time>
      </trkpt>
      <trkpt lat="46.525895" lon="12.026816">
        <ele>2242.2</ele>
        <time>2026-09-01T07:11:32.000Z</time>
      </trkpt>
      <trkpt lat="46.525885" lon="12.026816">
        <ele>2243.88</ele>
        <time>2026-09-01T07:12:13.000Z</time>
      </trkpt>
      <trkpt lat="46.525997" lon="12.02687">
        <ele>2250.48</ele>
        <time>2026-09-01T07:15:10.000Z</time>
      </trkpt>
      <trkpt lat="46.526072" lon="12.026966">
        <ele>2261.2</ele>
        <time>2026-09-01T07:16:53.000Z</time>
      </trkpt>
      <trkpt lat="46.526099" lon="12.027095">
        <ele>2272.23</ele>
        <time>2026-09-01T07:18:42.000Z</time>
      </trkpt>
      <trkpt lat="46.526137" lon="12.027213">
        <ele>2281.8</ele>
        <time>2026-09-01T07:20:44.000Z</time>
      </trkpt>
      <trkpt lat="46.526105" lon="12.027256">
        <ele>2288.25</ele>
        <time>2026-09-01T07:25:14.000Z</time>
      </trkpt>
      <trkpt lat="46.526078" lon="12.027267">
        <ele>2292.95</ele>
        <time>2026-09-01T07:26:53.000Z</time>
      </trkpt>
      <trkpt lat="46.526212" lon="12.027374">
        <ele>2301.65</ele>
        <time>2026-09-01T07:28:24.000Z</time>
      </trkpt>
      <trkpt lat="46.526276" lon="12.027428">
        <ele>2308.9</ele>
        <time>2026-09-01T07:29:53.000Z</time>
      </trkpt>
      <trkpt lat="46.526271" lon="12.027546">
        <ele>2314.45</ele>
        <time>2026-09-01T07:30:41.000Z</time>
      </trkpt>
      <trkpt lat="46.526314" lon="12.027546">
        <ele>2322.68</ele>
        <time>2026-09-01T07:33:41.000Z</time>
      </trkpt>
      <trkpt lat="46.526373" lon="12.027621">
        <ele>2332.55</ele>
        <time>2026-09-01T07:35:22.000Z</time>
      </trkpt>
      <trkpt lat="46.52641" lon="12.027653">
        <ele>2338.57</ele>
        <time>2026-09-01T07:36:22.000Z</time>
      </trkpt>
      <trkpt lat="46.526442" lon="12.027814">
        <ele>2346.82</ele>
        <time>2026-09-01T07:38:04.000Z</time>
      </trkpt>
      <trkpt lat="46.526523" lon="12.027867">
        <ele>2354.28</ele>
        <time>2026-09-01T07:39:26.000Z</time>
      </trkpt>
      <trkpt lat="46.526587" lon="12.027889">
        <ele>2359.5</ele>
        <time>2026-09-01T07:41:15.000Z</time>
      </trkpt>
      <trkpt lat="46.526668" lon="12.027889">
        <ele>2369.07</ele>
        <time>2026-09-01T07:43:56.000Z</time>
      </trkpt>
      <trkpt lat="46.526566" lon="12.02805">
        <ele>2376.93</ele>
        <time>2026-09-01T07:47:13.000Z</time>
      </trkpt>
      <trkpt lat="46.526673" lon="12.028168">
        <ele>2385.07</ele>
        <time>2026-09-01T07:49:38.000Z</time>
      </trkpt>
      <trkpt lat="46.52677" lon="12.028125">
        <ele>2386.32</ele>
        <time>2026-09-01T07:50:55.000Z</time>
      </trkpt>
      <trkpt lat="46.526856" lon="12.028157">
        <ele>2390.75</ele>
        <time>2026-09-01T07:51:23.000Z</time>
      </trkpt>
      <trkpt lat="46.526888" lon="12.028157">
        <ele>2393.73</ele>
        <time>2026-09-01T07:51:41.000Z</time>
      </trkpt>
      <trkpt lat="46.526915" lon="12.028125">
        <ele>2393.82</ele>
        <time>2026-09-01T07:52:14.000Z</time>
      </trkpt>
      <trkpt lat="46.526963" lon="12.028093">
        <ele>2392.93</ele>
        <time>2026-09-01T07:52:26.000Z</time>
      </trkpt>
      <trkpt lat="46.526979" lon="12.028103">
        <ele>2392.38</ele>
        <time>2026-09-01T07:52:31.000Z</time>
      </trkpt>
      <trkpt lat="46.527049" lon="12.028211">
        <ele>2392.28</ele>
        <time>2026-09-01T07:52:54.000Z</time>
      </trkpt>
      <trkpt lat="46.527049" lon="12.028254">
        <ele>2393.82</ele>
        <time>2026-09-01T07:53:05.000Z</time>
      </trkpt>
      <trkpt lat="46.527086" lon="12.028286">
        <ele>2395.43</ele>
        <time>2026-09-01T07:53:13.000Z</time>
      </trkpt>
      <trkpt lat="46.527134" lon="12.028329">
        <ele>2397.2</ele>
        <time>2026-09-01T07:53:20.000Z</time>
      </trkpt>
      <trkpt lat="46.527236" lon="12.028372">
        <ele>2402.18</ele>
        <time>2026-09-01T07:53:42.000Z</time>
      </trkpt>
      <trkpt lat="46.527301" lon="12.028393">
        <ele>2407.75</ele>
        <time>2026-09-01T07:54:02.000Z</time>
      </trkpt>
      <trkpt lat="46.527328" lon="12.028479">
        <ele>2415.63</ele>
        <time>2026-09-01T07:54:42.000Z</time>
      </trkpt>
      <trkpt lat="46.527354" lon="12.028554">
        <ele>2432.43</ele>
        <time>2026-09-01T07:58:34.000Z</time>
      </trkpt>
      <trkpt lat="46.527392" lon="12.028576">
        <ele>2447.53</ele>
        <time>2026-09-01T08:00:55.000Z</time>
      </trkpt>
      <trkpt lat="46.527354" lon="12.028694">
        <ele>2462.88</ele>
        <time>2026-09-01T08:03:09.000Z</time>
      </trkpt>
      <trkpt lat="46.527285" lon="12.028983">
        <ele>2480.85</ele>
        <time>2026-09-01T08:06:06.000Z</time>
      </trkpt>
      <trkpt lat="46.52722" lon="12.029101">
        <ele>2484.98</ele>
        <time>2026-09-01T08:12:09.000Z</time>
      </trkpt>
      <trkpt lat="46.527483" lon="12.029144">
        <ele>2487.07</ele>
        <time>2026-09-01T08:21:57.000Z</time>
      </trkpt>
      <trkpt lat="46.527499" lon="12.029123">
        <ele>2488.7</ele>
        <time>2026-09-01T08:21:59.000Z</time>
      </trkpt>
      <trkpt lat="46.527526" lon="12.029123">
        <ele>2490.5</ele>
        <time>2026-09-01T08:22:02.000Z</time>
      </trkpt>
      <trkpt lat="46.527558" lon="12.029133">
        <ele>2491.93</ele>
        <time>2026-09-01T08:22:06.000Z</time>
      </trkpt>
      <trkpt lat="46.52759" lon="12.029123">
        <ele>2492.68</ele>
        <time>2026-09-01T08:22:09.000Z</time>
      </trkpt>
      <trkpt lat="46.527628" lon="12.029091">
        <ele>2492.85</ele>
        <time>2026-09-01T08:22:13.000Z</time>
      </trkpt>
      <trkpt lat="46.527655" lon="12.02908">
        <ele>2493.05</ele>
        <time>2026-09-01T08:22:16.000Z</time>
      </trkpt>
      <trkpt lat="46.527746" lon="12.029058">
        <ele>2493.65</ele>
        <time>2026-09-01T08:22:24.000Z</time>
      </trkpt>
      <trkpt lat="46.527778" lon="12.029037">
        <ele>2493.3</ele>
        <time>2026-09-01T08:22:30.000Z</time>
      </trkpt>
      <trkpt lat="46.527821" lon="12.029015">
        <ele>2493.85</ele>
        <time>2026-09-01T08:22:37.000Z</time>
      </trkpt>
      <trkpt lat="46.527859" lon="12.028994">
        <ele>2494</ele>
        <time>2026-09-01T08:22:42.000Z</time>
      </trkpt>
      <trkpt lat="46.527869" lon="12.029005">
        <ele>2494.5</ele>
        <time>2026-09-01T08:22:45.000Z</time>
      </trkpt>
      <trkpt lat="46.527934" lon="12.029048">
        <ele>2494.03</ele>
        <time>2026-09-01T08:22:53.000Z</time>
      </trkpt>
      <trkpt lat="46.527998" lon="12.029026">
        <ele>2493.98</ele>
        <time>2026-09-01T08:22:59.000Z</time>
      </trkpt>
      <trkpt lat="46.528073" lon="12.029048">
        <ele>2493.93</ele>
        <time>2026-09-01T08:23:07.000Z</time>
      </trkpt>
      <trkpt lat="46.528164" lon="12.029048">
        <ele>2493.32</ele>
        <time>2026-09-01T08:23:15.000Z</time>
      </trkpt>
      <trkpt lat="46.528282" lon="12.02908">
        <ele>2493.3</ele>
        <time>2026-09-01T08:23:25.000Z</time>
      </trkpt>
      <trkpt lat="46.528358" lon="12.029026">
        <ele>2493.88</ele>
        <time>2026-09-01T08:23:33.000Z</time>
      </trkpt>
      <trkpt lat="46.528384" lon="12.029026">
        <ele>2494.4</ele>
        <time>2026-09-01T08:23:37.000Z</time>
      </trkpt>
      <trkpt lat="46.528406" lon="12.029015">
        <ele>2493.78</ele>
        <time>2026-09-01T08:23:39.000Z</time>
      </trkpt>
      <trkpt lat="46.528438" lon="12.029015">
        <ele>2493.05</ele>
        <time>2026-09-01T08:23:41.000Z</time>
      </trkpt>
      <trkpt lat="46.528476" lon="12.029005">
        <ele>2492.82</ele>
        <time>2026-09-01T08:23:44.000Z</time>
      </trkpt>
      <trkpt lat="46.528524" lon="12.028983">
        <ele>2492.18</ele>
        <time>2026-09-01T08:23:48.000Z</time>
      </trkpt>
      <trkpt lat="46.528583" lon="12.02893">
        <ele>2491.98</ele>
        <time>2026-09-01T08:23:56.000Z</time>
      </trkpt>
      <trkpt lat="46.52862" lon="12.028833">
        <ele>2491.73</ele>
        <time>2026-09-01T08:24:03.000Z</time>
      </trkpt>
      <trkpt lat="46.528749" lon="12.028779">
        <ele>2490.9</ele>
        <time>2026-09-01T08:24:15.000Z</time>
      </trkpt>
      <trkpt lat="46.528776" lon="12.028736">
        <ele>2490.1</ele>
        <time>2026-09-01T08:24:19.000Z</time>
      </trkpt>
      <trkpt lat="46.528846" lon="12.028629">
        <ele>2489.75</ele>
        <time>2026-09-01T08:24:28.000Z</time>
      </trkpt>
      <trkpt lat="46.528883" lon="12.028618">
        <ele>2488.93</ele>
        <time>2026-09-01T08:24:36.000Z</time>
      </trkpt>
      <trkpt lat="46.528932" lon="12.028608">
        <ele>2488</ele>
        <time>2026-09-01T08:24:42.000Z</time>
      </trkpt>
      <trkpt lat="46.528937" lon="12.028618">
        <ele>2487.13</ele>
        <time>2026-09-01T08:24:43.000Z</time>
      </trkpt>
      <trkpt lat="46.528964" lon="12.028618">
        <ele>2486.7</ele>
        <time>2026-09-01T08:24:46.000Z</time>
      </trkpt>
      <trkpt lat="46.529007" lon="12.028629">
        <ele>2485.38</ele>
        <time>2026-09-01T08:24:50.000Z</time>
      </trkpt>
      <trkpt lat="46.529028" lon="12.02864">
        <ele>2485</ele>
        <time>2026-09-01T08:24:52.000Z</time>
      </trkpt>
      <trkpt lat="46.529044" lon="12.02864">
        <ele>2484.23</ele>
        <time>2026-09-01T08:24:54.000Z</time>
      </trkpt>
      <trkpt lat="46.529076" lon="12.02864">
        <ele>2483.5</ele>
        <time>2026-09-01T08:24:58.000Z</time>
      </trkpt>
      <trkpt lat="46.529098" lon="12.028651">
        <ele>2483.4</ele>
        <time>2026-09-01T08:25:00.000Z</time>
      </trkpt>
      <trkpt lat="46.529146" lon="12.028694">
        <ele>2483.45</ele>
        <time>2026-09-01T08:25:07.000Z</time>
      </trkpt>
      <trkpt lat="46.5292" lon="12.028726">
        <ele>2484.03</ele>
        <time>2026-09-01T08:25:14.000Z</time>
      </trkpt>
      <trkpt lat="46.529248" lon="12.028715">
        <ele>2484.18</ele>
        <time>2026-09-01T08:25:21.000Z</time>
      </trkpt>
      <trkpt lat="46.529253" lon="12.028726">
        <ele>2484.88</ele>
        <time>2026-09-01T08:25:25.000Z</time>
      </trkpt>
      <trkpt lat="46.529302" lon="12.028726">
        <ele>2485.57</ele>
        <time>2026-09-01T08:25:30.000Z</time>
      </trkpt>
      <trkpt lat="46.529345" lon="12.028651">
        <ele>2485.63</ele>
        <time>2026-09-01T08:25:38.000Z</time>
      </trkpt>
      <trkpt lat="46.52935" lon="12.028597">
        <ele>2485.1</ele>
        <time>2026-09-01T08:25:43.000Z</time>
      </trkpt>
      <trkpt lat="46.529361" lon="12.028554">
        <ele>2485.15</ele>
        <time>2026-09-01T08:25:48.000Z</time>
      </trkpt>
      <trkpt lat="46.529382" lon="12.028468">
        <ele>2485.7</ele>
        <time>2026-09-01T08:25:54.000Z</time>
      </trkpt>
      <trkpt lat="46.529414" lon="12.028404">
        <ele>2485.23</ele>
        <time>2026-09-01T08:25:59.000Z</time>
      </trkpt>
      <trkpt lat="46.529457" lon="12.02834">
        <ele>2485.15</ele>
        <time>2026-09-01T08:26:05.000Z</time>
      </trkpt>
      <trkpt lat="46.529468" lon="12.028318">
        <ele>2485.23</ele>
        <time>2026-09-01T08:26:07.000Z</time>
      </trkpt>
      <trkpt lat="46.529495" lon="12.028286">
        <ele>2485.85</ele>
        <time>2026-09-01T08:26:11.000Z</time>
      </trkpt>
      <trkpt lat="46.529543" lon="12.028243">
        <ele>2485.98</ele>
        <time>2026-09-01T08:26:16.000Z</time>
      </trkpt>
      <trkpt lat="46.529602" lon="12.0282">
        <ele>2486.03</ele>
        <time>2026-09-01T08:26:23.000Z</time>
      </trkpt>
      <trkpt lat="46.529656" lon="12.028146">
        <ele>2486.1</ele>
        <time>2026-09-01T08:26:28.000Z</time>
      </trkpt>
      <trkpt lat="46.529699" lon="12.028071">
        <ele>2486.23</ele>
        <time>2026-09-01T08:26:34.000Z</time>
      </trkpt>
      <trkpt lat="46.52972" lon="12.028028">
        <ele>2486.9</ele>
        <time>2026-09-01T08:26:38.000Z</time>
      </trkpt>
      <trkpt lat="46.529731" lon="12.027964">
        <ele>2487.1</ele>
        <time>2026-09-01T08:26:42.000Z</time>
      </trkpt>
      <trkpt lat="46.529736" lon="12.027943">
        <ele>2487.7</ele>
        <time>2026-09-01T08:26:43.000Z</time>
      </trkpt>
      <trkpt lat="46.529785" lon="12.027889">
        <ele>2487.73</ele>
        <time>2026-09-01T08:26:50.000Z</time>
      </trkpt>
      <trkpt lat="46.529811" lon="12.027867">
        <ele>2487.32</ele>
        <time>2026-09-01T08:26:56.000Z</time>
      </trkpt>
      <trkpt lat="46.529806" lon="12.027867">
        <ele>2488.32</ele>
        <time>2026-09-01T08:27:01.000Z</time>
      </trkpt>
      <trkpt lat="46.529822" lon="12.027846">
        <ele>2487.78</ele>
        <time>2026-09-01T08:27:10.000Z</time>
      </trkpt>
      <trkpt lat="46.529886" lon="12.027792">
        <ele>2487.05</ele>
        <time>2026-09-01T08:27:17.000Z</time>
      </trkpt>
      <trkpt lat="46.529881" lon="12.02776">
        <ele>2486.85</ele>
        <time>2026-09-01T08:27:22.000Z</time>
      </trkpt>
      <trkpt lat="46.52986" lon="12.027717">
        <ele>2486.63</ele>
        <time>2026-09-01T08:27:26.000Z</time>
      </trkpt>
      <trkpt lat="46.529865" lon="12.027717">
        <ele>2485.85</ele>
        <time>2026-09-01T08:27:27.000Z</time>
      </trkpt>
      <trkpt lat="46.529876" lon="12.027685">
        <ele>2484.93</ele>
        <time>2026-09-01T08:27:38.000Z</time>
      </trkpt>
      <trkpt lat="46.529892" lon="12.027642">
        <ele>2484</ele>
        <time>2026-09-01T08:27:41.000Z</time>
      </trkpt>
      <trkpt lat="46.529897" lon="12.027599">
        <ele>2483.07</ele>
        <time>2026-09-01T08:27:44.000Z</time>
      </trkpt>
      <trkpt lat="46.529897" lon="12.027578">
        <ele>2482.23</ele>
        <time>2026-09-01T08:27:49.000Z</time>
      </trkpt>
      <trkpt lat="46.529897" lon="12.027546">
        <ele>2481.85</ele>
        <time>2026-09-01T08:27:55.000Z</time>
      </trkpt>
      <trkpt lat="46.529924" lon="12.027449">
        <ele>2480.95</ele>
        <time>2026-09-01T08:28:03.000Z</time>
      </trkpt>
      <trkpt lat="46.529935" lon="12.027428">
        <ele>2479.98</ele>
        <time>2026-09-01T08:28:05.000Z</time>
      </trkpt>
      <trkpt lat="46.529945" lon="12.027417">
        <ele>2479.1</ele>
        <time>2026-09-01T08:28:07.000Z</time>
      </trkpt>
      <trkpt lat="46.529972" lon="12.027395">
        <ele>2478.73</ele>
        <time>2026-09-01T08:28:13.000Z</time>
      </trkpt>
      <trkpt lat="46.529972" lon="12.027352">
        <ele>2477.8</ele>
        <time>2026-09-01T08:28:17.000Z</time>
      </trkpt>
      <trkpt lat="46.529962" lon="12.027267">
        <ele>2476.3</ele>
        <time>2026-09-01T08:28:23.000Z</time>
      </trkpt>
      <trkpt lat="46.529956" lon="12.027202">
        <ele>2475.4</ele>
        <time>2026-09-01T08:28:28.000Z</time>
      </trkpt>
      <trkpt lat="46.52994" lon="12.02717">
        <ele>2475.1</ele>
        <time>2026-09-01T08:28:35.000Z</time>
      </trkpt>
      <trkpt lat="46.529913" lon="12.027063">
        <ele>2474.38</ele>
        <time>2026-09-01T08:28:40.000Z</time>
      </trkpt>
      <trkpt lat="46.529892" lon="12.026977">
        <ele>2474.15</ele>
        <time>2026-09-01T08:28:45.000Z</time>
      </trkpt>
      <trkpt lat="46.529881" lon="12.026945">
        <ele>2474.03</ele>
        <time>2026-09-01T08:28:46.000Z</time>
      </trkpt>
      <trkpt lat="46.52987" lon="12.026891">
        <ele>2473.98</ele>
        <time>2026-09-01T08:28:50.000Z</time>
      </trkpt>
      <trkpt lat="46.529903" lon="12.026795">
        <ele>2473.88</ele>
        <time>2026-09-01T08:28:57.000Z</time>
      </trkpt>
      <trkpt lat="46.529929" lon="12.026762">
        <ele>2473.25</ele>
        <time>2026-09-01T08:29:00.000Z</time>
      </trkpt>
      <trkpt lat="46.529972" lon="12.026698">
        <ele>2473.18</ele>
        <time>2026-09-01T08:29:05.000Z</time>
      </trkpt>
      <trkpt lat="46.530037" lon="12.026623">
        <ele>2473.25</ele>
        <time>2026-09-01T08:29:13.000Z</time>
      </trkpt>
      <trkpt lat="46.530047" lon="12.026601">
        <ele>2473.82</ele>
        <time>2026-09-01T08:29:15.000Z</time>
      </trkpt>
      <trkpt lat="46.530106" lon="12.026398">
        <ele>2473.82</ele>
        <time>2026-09-01T08:29:30.000Z</time>
      </trkpt>
      <trkpt lat="46.530117" lon="12.026269">
        <ele>2473.35</ele>
        <time>2026-09-01T08:29:39.000Z</time>
      </trkpt>
      <trkpt lat="46.530155" lon="12.02614">
        <ele>2473.9</ele>
        <time>2026-09-01T08:29:48.000Z</time>
      </trkpt>
      <trkpt lat="46.530176" lon="12.026097">
        <ele>2474.03</ele>
        <time>2026-09-01T08:29:51.000Z</time>
      </trkpt>
      <trkpt lat="46.530299" lon="12.025915">
        <ele>2474.07</ele>
        <time>2026-09-01T08:30:09.000Z</time>
      </trkpt>
      <trkpt lat="46.530305" lon="12.025872">
        <ele>2474.18</ele>
        <time>2026-09-01T08:30:12.000Z</time>
      </trkpt>
      <trkpt lat="46.530348" lon="12.025754">
        <ele>2474.8</ele>
        <time>2026-09-01T08:30:19.000Z</time>
      </trkpt>
      <trkpt lat="46.53038" lon="12.025625">
        <ele>2474.93</ele>
        <time>2026-09-01T08:30:27.000Z</time>
      </trkpt>
      <trkpt lat="46.530423" lon="12.025529">
        <ele>2474.95</ele>
        <time>2026-09-01T08:30:34.000Z</time>
      </trkpt>
      <trkpt lat="46.53045" lon="12.025421">
        <ele>2474.95</ele>
        <time>2026-09-01T08:30:41.000Z</time>
      </trkpt>
      <trkpt lat="46.530466" lon="12.025378">
        <ele>2475.03</ele>
        <time>2026-09-01T08:30:44.000Z</time>
      </trkpt>
      <trkpt lat="46.530487" lon="12.025346">
        <ele>2475.53</ele>
        <time>2026-09-01T08:30:48.000Z</time>
      </trkpt>
      <trkpt lat="46.530503" lon="12.025282">
        <ele>2474.98</ele>
        <time>2026-09-01T08:30:54.000Z</time>
      </trkpt>
      <trkpt lat="46.530498" lon="12.025228">
        <ele>2474.75</ele>
        <time>2026-09-01T08:30:58.000Z</time>
      </trkpt>
      <trkpt lat="46.530552" lon="12.025153">
        <ele>2474.1</ele>
        <time>2026-09-01T08:31:04.000Z</time>
      </trkpt>
      <trkpt lat="46.530589" lon="12.025142">
        <ele>2473.95</ele>
        <time>2026-09-01T08:31:07.000Z</time>
      </trkpt>
      <trkpt lat="46.530632" lon="12.025121">
        <ele>2473.8</ele>
        <time>2026-09-01T08:31:11.000Z</time>
      </trkpt>
      <trkpt lat="46.530713" lon="12.025067">
        <ele>2473.03</ele>
        <time>2026-09-01T08:31:18.000Z</time>
      </trkpt>
      <trkpt lat="46.530766" lon="12.025046">
        <ele>2472.28</ele>
        <time>2026-09-01T08:31:23.000Z</time>
      </trkpt>
      <trkpt lat="46.530782" lon="12.025003">
        <ele>2472.1</ele>
        <time>2026-09-01T08:31:26.000Z</time>
      </trkpt>
      <trkpt lat="46.53082" lon="12.024971">
        <ele>2472</ele>
        <time>2026-09-01T08:31:30.000Z</time>
      </trkpt>
      <trkpt lat="46.530847" lon="12.024938">
        <ele>2471.82</ele>
        <time>2026-09-01T08:31:33.000Z</time>
      </trkpt>
      <trkpt lat="46.530906" lon="12.024863">
        <ele>2471.2</ele>
        <time>2026-09-01T08:31:39.000Z</time>
      </trkpt>
      <trkpt lat="46.530986" lon="12.02481">
        <ele>2471.13</ele>
        <time>2026-09-01T08:31:46.000Z</time>
      </trkpt>
      <trkpt lat="46.531067" lon="12.024778">
        <ele>2471.1</ele>
        <time>2026-09-01T08:31:53.000Z</time>
      </trkpt>
      <trkpt lat="46.531115" lon="12.024778">
        <ele>2470.6</ele>
        <time>2026-09-01T08:32:00.000Z</time>
      </trkpt>
      <trkpt lat="46.531152" lon="12.024778">
        <ele>2470.75</ele>
        <time>2026-09-01T08:32:06.000Z</time>
      </trkpt>
      <trkpt lat="46.531201" lon="12.024778">
        <ele>2472.03</ele>
        <time>2026-09-01T08:32:13.000Z</time>
      </trkpt>
      <trkpt lat="46.531244" lon="12.024767">
        <ele>2472.93</ele>
        <time>2026-09-01T08:32:20.000Z</time>
      </trkpt>
      <trkpt lat="46.531292" lon="12.024756">
        <ele>2473.75</ele>
        <time>2026-09-01T08:32:26.000Z</time>
      </trkpt>
      <trkpt lat="46.531319" lon="12.024745">
        <ele>2474.5</ele>
        <time>2026-09-01T08:32:29.000Z</time>
      </trkpt>
      <trkpt lat="46.531372" lon="12.024735">
        <ele>2474.6</ele>
        <time>2026-09-01T08:32:34.000Z</time>
      </trkpt>
      <trkpt lat="46.53141" lon="12.024724">
        <ele>2474.2</ele>
        <time>2026-09-01T08:32:38.000Z</time>
      </trkpt>
      <trkpt lat="46.53149" lon="12.024724">
        <ele>2474.73</ele>
        <time>2026-09-01T08:32:47.000Z</time>
      </trkpt>
      <trkpt lat="46.531641" lon="12.02467">
        <ele>2474.78</ele>
        <time>2026-09-01T08:33:07.000Z</time>
      </trkpt>
      <trkpt lat="46.531689" lon="12.024649">
        <ele>2474.63</ele>
        <time>2026-09-01T08:33:12.000Z</time>
      </trkpt>
      <trkpt lat="46.531732" lon="12.024627">
        <ele>2473.93</ele>
        <time>2026-09-01T08:33:19.000Z</time>
      </trkpt>
      <trkpt lat="46.531748" lon="12.024595">
        <ele>2473.65</ele>
        <time>2026-09-01T08:33:21.000Z</time>
      </trkpt>
      <trkpt lat="46.531759" lon="12.024606">
        <ele>2472.88</ele>
        <time>2026-09-01T08:33:22.000Z</time>
      </trkpt>
      <trkpt lat="46.531802" lon="12.024595">
        <ele>2472.03</ele>
        <time>2026-09-01T08:33:27.000Z</time>
      </trkpt>
      <trkpt lat="46.531818" lon="12.024584">
        <ele>2471.2</ele>
        <time>2026-09-01T08:33:31.000Z</time>
      </trkpt>
      <trkpt lat="46.531818" lon="12.024563">
        <ele>2470.48</ele>
        <time>2026-09-01T08:33:33.000Z</time>
      </trkpt>
      <trkpt lat="46.531823" lon="12.024531">
        <ele>2470.3</ele>
        <time>2026-09-01T08:33:36.000Z</time>
      </trkpt>
      <trkpt lat="46.531818" lon="12.024488">
        <ele>2469.78</ele>
        <time>2026-09-01T08:33:39.000Z</time>
      </trkpt>
      <trkpt lat="46.531818" lon="12.024381">
        <ele>2470.38</ele>
        <time>2026-09-01T08:33:46.000Z</time>
      </trkpt>
      <trkpt lat="46.531807" lon="12.024284">
        <ele>2471.13</ele>
        <time>2026-09-01T08:33:53.000Z</time>
      </trkpt>
      <trkpt lat="46.531796" lon="12.02423">
        <ele>2471.88</ele>
        <time>2026-09-01T08:33:58.000Z</time>
      </trkpt>
      <trkpt lat="46.531785" lon="12.024177">
        <ele>2472.6</ele>
        <time>2026-09-01T08:34:03.000Z</time>
      </trkpt>
      <trkpt lat="46.531764" lon="12.024123">
        <ele>2472.82</ele>
        <time>2026-09-01T08:34:07.000Z</time>
      </trkpt>
      <trkpt lat="46.531748" lon="12.024005">
        <ele>2473.43</ele>
        <time>2026-09-01T08:34:14.000Z</time>
      </trkpt>
      <trkpt lat="46.531764" lon="12.023908">
        <ele>2472.9</ele>
        <time>2026-09-01T08:34:21.000Z</time>
      </trkpt>
      <trkpt lat="46.531785" lon="12.023833">
        <ele>2472.35</ele>
        <time>2026-09-01T08:34:27.000Z</time>
      </trkpt>
      <trkpt lat="46.531812" lon="12.023748">
        <ele>2472.85</ele>
        <time>2026-09-01T08:34:34.000Z</time>
      </trkpt>
      <trkpt lat="46.531818" lon="12.023705">
        <ele>2472.9</ele>
        <time>2026-09-01T08:34:38.000Z</time>
      </trkpt>
      <trkpt lat="46.531812" lon="12.023619">
        <ele>2472.78</ele>
        <time>2026-09-01T08:34:45.000Z</time>
      </trkpt>
      <trkpt lat="46.531823" lon="12.023565">
        <ele>2472.1</ele>
        <time>2026-09-01T08:34:49.000Z</time>
      </trkpt>
      <trkpt lat="46.531828" lon="12.023522">
        <ele>2471.95</ele>
        <time>2026-09-01T08:34:53.000Z</time>
      </trkpt>
      <trkpt lat="46.531818" lon="12.023415">
        <ele>2471.88</ele>
        <time>2026-09-01T08:35:00.000Z</time>
      </trkpt>
      <trkpt lat="46.531828" lon="12.02334">
        <ele>2471.7</ele>
        <time>2026-09-01T08:35:07.000Z</time>
      </trkpt>
      <trkpt lat="46.53185" lon="12.023286">
        <ele>2470.95</ele>
        <time>2026-09-01T08:35:11.000Z</time>
      </trkpt>
      <trkpt lat="46.531855" lon="12.023275">
        <ele>2470.23</ele>
        <time>2026-09-01T08:35:13.000Z</time>
      </trkpt>
      <trkpt lat="46.531877" lon="12.023243">
        <ele>2470.05</ele>
        <time>2026-09-01T08:35:17.000Z</time>
      </trkpt>
      <trkpt lat="46.531877" lon="12.02319">
        <ele>2469.45</ele>
        <time>2026-09-01T08:35:20.000Z</time>
      </trkpt>
      <trkpt lat="46.531893" lon="12.023082">
        <ele>2469.35</ele>
        <time>2026-09-01T08:35:27.000Z</time>
      </trkpt>
      <trkpt lat="46.531871" lon="12.022975">
        <ele>2469.43</ele>
        <time>2026-09-01T08:35:35.000Z</time>
      </trkpt>
      <trkpt lat="46.531855" lon="12.022653">
        <ele>2470.13</ele>
        <time>2026-09-01T08:35:56.000Z</time>
      </trkpt>
      <trkpt lat="46.53185" lon="12.0226">
        <ele>2470.88</ele>
        <time>2026-09-01T08:36:00.000Z</time>
      </trkpt>
      <trkpt lat="46.531844" lon="12.022535">
        <ele>2471.07</ele>
        <time>2026-09-01T08:36:03.000Z</time>
      </trkpt>
      <trkpt lat="46.53185" lon="12.022439">
        <ele>2471.32</ele>
        <time>2026-09-01T08:36:09.000Z</time>
      </trkpt>
      <trkpt lat="46.531855" lon="12.022364">
        <ele>2472.18</ele>
        <time>2026-09-01T08:36:17.000Z</time>
      </trkpt>
      <trkpt lat="46.531844" lon="12.022321">
        <ele>2473.13</ele>
        <time>2026-09-01T08:36:22.000Z</time>
      </trkpt>
      <trkpt lat="46.531855" lon="12.022299">
        <ele>2474.05</ele>
        <time>2026-09-01T08:36:25.000Z</time>
      </trkpt>
      <trkpt lat="46.531861" lon="12.022224">
        <ele>2474.98</ele>
        <time>2026-09-01T08:36:33.000Z</time>
      </trkpt>
      <trkpt lat="46.531834" lon="12.022149">
        <ele>2475.9</ele>
        <time>2026-09-01T08:36:39.000Z</time>
      </trkpt>
      <trkpt lat="46.531818" lon="12.022117">
        <ele>2476.85</ele>
        <time>2026-09-01T08:36:44.000Z</time>
      </trkpt>
      <trkpt lat="46.531796" lon="12.022074">
        <ele>2477.73</ele>
        <time>2026-09-01T08:36:48.000Z</time>
      </trkpt>
      <trkpt lat="46.531769" lon="12.022031">
        <ele>2478.07</ele>
        <time>2026-09-01T08:36:52.000Z</time>
      </trkpt>
      <trkpt lat="46.531759" lon="12.021999">
        <ele>2478.85</ele>
        <time>2026-09-01T08:36:56.000Z</time>
      </trkpt>
      <trkpt lat="46.531737" lon="12.021945">
        <ele>2479.18</ele>
        <time>2026-09-01T08:37:01.000Z</time>
      </trkpt>
      <trkpt lat="46.531737" lon="12.021902">
        <ele>2480</ele>
        <time>2026-09-01T08:37:05.000Z</time>
      </trkpt>
      <trkpt lat="46.531721" lon="12.021881">
        <ele>2480.8</ele>
        <time>2026-09-01T08:37:08.000Z</time>
      </trkpt>
      <trkpt lat="46.531678" lon="12.021827">
        <ele>2481.1</ele>
        <time>2026-09-01T08:37:13.000Z</time>
      </trkpt>
      <trkpt lat="46.531651" lon="12.021752">
        <ele>2481.85</ele>
        <time>2026-09-01T08:37:17.000Z</time>
      </trkpt>
      <trkpt lat="46.531619" lon="12.021677">
        <ele>2482.15</ele>
        <time>2026-09-01T08:37:23.000Z</time>
      </trkpt>
      <trkpt lat="46.531587" lon="12.021602">
        <ele>2482.9</ele>
        <time>2026-09-01T08:37:29.000Z</time>
      </trkpt>
      <trkpt lat="46.53156" lon="12.021495">
        <ele>2483.2</ele>
        <time>2026-09-01T08:37:37.000Z</time>
      </trkpt>
      <trkpt lat="46.531533" lon="12.021387">
        <ele>2484</ele>
        <time>2026-09-01T08:37:43.000Z</time>
      </trkpt>
      <trkpt lat="46.531528" lon="12.021301">
        <ele>2484.82</ele>
        <time>2026-09-01T08:37:50.000Z</time>
      </trkpt>
      <trkpt lat="46.531523" lon="12.021269">
        <ele>2485.15</ele>
        <time>2026-09-01T08:37:52.000Z</time>
      </trkpt>
      <trkpt lat="46.531523" lon="12.021216">
        <ele>2485.93</ele>
        <time>2026-09-01T08:37:57.000Z</time>
      </trkpt>
      <trkpt lat="46.531512" lon="12.021183">
        <ele>2486.28</ele>
        <time>2026-09-01T08:38:00.000Z</time>
      </trkpt>
      <trkpt lat="46.531501" lon="12.02113">
        <ele>2487.15</ele>
        <time>2026-09-01T08:38:06.000Z</time>
      </trkpt>
      <trkpt lat="46.531485" lon="12.021087">
        <ele>2488.1</ele>
        <time>2026-09-01T08:38:12.000Z</time>
      </trkpt>
      <trkpt lat="46.531474" lon="12.021065">
        <ele>2489.05</ele>
        <time>2026-09-01T08:38:15.000Z</time>
      </trkpt>
      <trkpt lat="46.531469" lon="12.02099">
        <ele>2490.03</ele>
        <time>2026-09-01T08:38:24.000Z</time>
      </trkpt>
      <trkpt lat="46.531464" lon="12.020958">
        <ele>2491</ele>
        <time>2026-09-01T08:38:28.000Z</time>
      </trkpt>
      <trkpt lat="46.531437" lon="12.020872">
        <ele>2492</ele>
        <time>2026-09-01T08:38:35.000Z</time>
      </trkpt>
      <trkpt lat="46.531431" lon="12.020862">
        <ele>2493</ele>
        <time>2026-09-01T08:38:38.000Z</time>
      </trkpt>
      <trkpt lat="46.531388" lon="12.020829">
        <ele>2493.98</ele>
        <time>2026-09-01T08:38:43.000Z</time>
      </trkpt>
      <trkpt lat="46.531356" lon="12.020808">
        <ele>2494.95</ele>
        <time>2026-09-01T08:38:48.000Z</time>
      </trkpt>
      <trkpt lat="46.531313" lon="12.020754">
        <ele>2495.93</ele>
        <time>2026-09-01T08:38:56.000Z</time>
      </trkpt>
      <trkpt lat="46.531281" lon="12.020711">
        <ele>2496.9</ele>
        <time>2026-09-01T08:39:01.000Z</time>
      </trkpt>
      <trkpt lat="46.531254" lon="12.020679">
        <ele>2497.78</ele>
        <time>2026-09-01T08:39:05.000Z</time>
      </trkpt>
      <trkpt lat="46.531228" lon="12.020658">
        <ele>2498.1</ele>
        <time>2026-09-01T08:39:09.000Z</time>
      </trkpt>
      <trkpt lat="46.531206" lon="12.020625">
        <ele>2498.93</ele>
        <time>2026-09-01T08:39:12.000Z</time>
      </trkpt>
      <trkpt lat="46.531152" lon="12.020561">
        <ele>2499.8</ele>
        <time>2026-09-01T08:39:20.000Z</time>
      </trkpt>
      <trkpt lat="46.531136" lon="12.020529">
        <ele>2500.6</ele>
        <time>2026-09-01T08:39:23.000Z</time>
      </trkpt>
      <trkpt lat="46.53112" lon="12.020475">
        <ele>2500.73</ele>
        <time>2026-09-01T08:39:28.000Z</time>
      </trkpt>
      <trkpt lat="46.53111" lon="12.020443">
        <ele>2500.35</ele>
        <time>2026-09-01T08:39:31.000Z</time>
      </trkpt>
      <trkpt lat="46.531088" lon="12.020411">
        <ele>2500.98</ele>
        <time>2026-09-01T08:39:34.000Z</time>
      </trkpt>
      <trkpt lat="46.531061" lon="12.020325">
        <ele>2501.23</ele>
        <time>2026-09-01T08:39:41.000Z</time>
      </trkpt>
      <trkpt lat="46.531056" lon="12.020314">
        <ele>2501.9</ele>
        <time>2026-09-01T08:39:42.000Z</time>
      </trkpt>
      <trkpt lat="46.53104" lon="12.020261">
        <ele>2502.13</ele>
        <time>2026-09-01T08:39:47.000Z</time>
      </trkpt>
      <trkpt lat="46.531024" lon="12.020229">
        <ele>2502.78</ele>
        <time>2026-09-01T08:39:49.000Z</time>
      </trkpt>
      <trkpt lat="46.530932" lon="12.020003">
        <ele>2502.98</ele>
        <time>2026-09-01T08:40:07.000Z</time>
      </trkpt>
      <trkpt lat="46.530911" lon="12.019939">
        <ele>2503.15</ele>
        <time>2026-09-01T08:40:12.000Z</time>
      </trkpt>
      <trkpt lat="46.53089" lon="12.019907">
        <ele>2503.85</ele>
        <time>2026-09-01T08:40:16.000Z</time>
      </trkpt>
      <trkpt lat="46.530879" lon="12.019842">
        <ele>2504.05</ele>
        <time>2026-09-01T08:40:22.000Z</time>
      </trkpt>
      <trkpt lat="46.530884" lon="12.01981">
        <ele>2504.28</ele>
        <time>2026-09-01T08:40:25.000Z</time>
      </trkpt>
      <trkpt lat="46.530884" lon="12.019789">
        <ele>2505</ele>
        <time>2026-09-01T08:40:28.000Z</time>
      </trkpt>
      <trkpt lat="46.530895" lon="12.019767">
        <ele>2505.32</ele>
        <time>2026-09-01T08:40:30.000Z</time>
      </trkpt>
      <trkpt lat="46.530906" lon="12.019756">
        <ele>2506.18</ele>
        <time>2026-09-01T08:40:32.000Z</time>
      </trkpt>
      <trkpt lat="46.530922" lon="12.019746">
        <ele>2507.1</ele>
        <time>2026-09-01T08:40:35.000Z</time>
      </trkpt>
      <trkpt lat="46.530927" lon="12.019692">
        <ele>2508.05</ele>
        <time>2026-09-01T08:40:39.000Z</time>
      </trkpt>
      <trkpt lat="46.530938" lon="12.019638">
        <ele>2509.03</ele>
        <time>2026-09-01T08:40:44.000Z</time>
      </trkpt>
      <trkpt lat="46.530932" lon="12.019617">
        <ele>2510</ele>
        <time>2026-09-01T08:40:47.000Z</time>
      </trkpt>
      <trkpt lat="46.530938" lon="12.019596">
        <ele>2511</ele>
        <time>2026-09-01T08:40:50.000Z</time>
      </trkpt>
      <trkpt lat="46.530943" lon="12.019574">
        <ele>2511.98</ele>
        <time>2026-09-01T08:40:53.000Z</time>
      </trkpt>
      <trkpt lat="46.530943" lon="12.019542">
        <ele>2512.93</ele>
        <time>2026-09-01T08:40:58.000Z</time>
      </trkpt>
      <trkpt lat="46.530922" lon="12.019499">
        <ele>2513.88</ele>
        <time>2026-09-01T08:41:03.000Z</time>
      </trkpt>
      <trkpt lat="46.530932" lon="12.019477">
        <ele>2514.82</ele>
        <time>2026-09-01T08:41:08.000Z</time>
      </trkpt>
      <trkpt lat="46.530965" lon="12.01937">
        <ele>2515.68</ele>
        <time>2026-09-01T08:41:16.000Z</time>
      </trkpt>
      <trkpt lat="46.531002" lon="12.019338">
        <ele>2515.95</ele>
        <time>2026-09-01T08:41:21.000Z</time>
      </trkpt>
      <trkpt lat="46.531034" lon="12.019252">
        <ele>2516.23</ele>
        <time>2026-09-01T08:41:28.000Z</time>
      </trkpt>
      <trkpt lat="46.53104" lon="12.019231">
        <ele>2517.07</ele>
        <time>2026-09-01T08:41:31.000Z</time>
      </trkpt>
      <trkpt lat="46.531056" lon="12.019209">
        <ele>2517.9</ele>
        <time>2026-09-01T08:41:34.000Z</time>
      </trkpt>
      <trkpt lat="46.531072" lon="12.019188">
        <ele>2518.18</ele>
        <time>2026-09-01T08:41:37.000Z</time>
      </trkpt>
      <trkpt lat="46.531104" lon="12.019156">
        <ele>2518.93</ele>
        <time>2026-09-01T08:41:42.000Z</time>
      </trkpt>
      <trkpt lat="46.531131" lon="12.019113">
        <ele>2519.75</ele>
        <time>2026-09-01T08:41:48.000Z</time>
      </trkpt>
      <trkpt lat="46.531136" lon="12.019027">
        <ele>2520.53</ele>
        <time>2026-09-01T08:41:53.000Z</time>
      </trkpt>
      <trkpt lat="46.531152" lon="12.018984">
        <ele>2520.65</ele>
        <time>2026-09-01T08:41:57.000Z</time>
      </trkpt>
      <trkpt lat="46.531174" lon="12.018952">
        <ele>2520.2</ele>
        <time>2026-09-01T08:42:00.000Z</time>
      </trkpt>
      <trkpt lat="46.531195" lon="12.018898">
        <ele>2520.28</ele>
        <time>2026-09-01T08:42:04.000Z</time>
      </trkpt>
      <trkpt lat="46.531211" lon="12.018866">
        <ele>2520.5</ele>
        <time>2026-09-01T08:42:07.000Z</time>
      </trkpt>
      <trkpt lat="46.531297" lon="12.018673">
        <ele>2521.3</ele>
        <time>2026-09-01T08:42:23.000Z</time>
      </trkpt>
      <trkpt lat="46.531308" lon="12.01863">
        <ele>2522.18</ele>
        <time>2026-09-01T08:42:26.000Z</time>
      </trkpt>
      <trkpt lat="46.531319" lon="12.018598">
        <ele>2523.07</ele>
        <time>2026-09-01T08:42:30.000Z</time>
      </trkpt>
      <trkpt lat="46.531329" lon="12.018544">
        <ele>2524.03</ele>
        <time>2026-09-01T08:42:36.000Z</time>
      </trkpt>
      <trkpt lat="46.531346" lon="12.018501">
        <ele>2525</ele>
        <time>2026-09-01T08:42:40.000Z</time>
      </trkpt>
      <trkpt lat="46.531356" lon="12.01848">
        <ele>2526</ele>
        <time>2026-09-01T08:42:44.000Z</time>
      </trkpt>
      <trkpt lat="46.531372" lon="12.018426">
        <ele>2527</ele>
        <time>2026-09-01T08:42:49.000Z</time>
      </trkpt>
      <trkpt lat="46.531378" lon="12.018372">
        <ele>2528</ele>
        <time>2026-09-01T08:42:55.000Z</time>
      </trkpt>
      <trkpt lat="46.531378" lon="12.018308">
        <ele>2529</ele>
        <time>2026-09-01T08:43:00.000Z</time>
      </trkpt>
      <trkpt lat="46.531372" lon="12.018244">
        <ele>2530</ele>
        <time>2026-09-01T08:43:08.000Z</time>
      </trkpt>
      <trkpt lat="46.531362" lon="12.018179">
        <ele>2531</ele>
        <time>2026-09-01T08:43:14.000Z</time>
      </trkpt>
      <trkpt lat="46.531356" lon="12.018147">
        <ele>2532</ele>
        <time>2026-09-01T08:43:17.000Z</time>
      </trkpt>
      <trkpt lat="46.531281" lon="12.017975">
        <ele>2533</ele>
        <time>2026-09-01T08:43:31.000Z</time>
      </trkpt>
      <trkpt lat="46.531276" lon="12.017943">
        <ele>2533.98</ele>
        <time>2026-09-01T08:43:33.000Z</time>
      </trkpt>
      <trkpt lat="46.53126" lon="12.0179">
        <ele>2534.95</ele>
        <time>2026-09-01T08:43:39.000Z</time>
      </trkpt>
      <trkpt lat="46.531238" lon="12.017836">
        <ele>2535.93</ele>
        <time>2026-09-01T08:43:46.000Z</time>
      </trkpt>
      <trkpt lat="46.531222" lon="12.017782">
        <ele>2536.9</ele>
        <time>2026-09-01T08:43:52.000Z</time>
      </trkpt>
      <trkpt lat="46.531206" lon="12.017675">
        <ele>2537.78</ele>
        <time>2026-09-01T08:44:01.000Z</time>
      </trkpt>
      <trkpt lat="46.531185" lon="12.0176">
        <ele>2538.15</ele>
        <time>2026-09-01T08:44:07.000Z</time>
      </trkpt>
      <trkpt lat="46.531152" lon="12.017503">
        <ele>2539.03</ele>
        <time>2026-09-01T08:44:16.000Z</time>
      </trkpt>
      <trkpt lat="46.531142" lon="12.017439">
        <ele>2539.95</ele>
        <time>2026-09-01T08:44:22.000Z</time>
      </trkpt>
      <trkpt lat="46.531115" lon="12.017289">
        <ele>2540.8</ele>
        <time>2026-09-01T08:44:34.000Z</time>
      </trkpt>
      <trkpt lat="46.53111" lon="12.017214">
        <ele>2541.15</ele>
        <time>2026-09-01T08:44:40.000Z</time>
      </trkpt>
      <trkpt lat="46.531104" lon="12.017192">
        <ele>2541.98</ele>
        <time>2026-09-01T08:44:41.000Z</time>
      </trkpt>
      <trkpt lat="46.531099" lon="12.017139">
        <ele>2542.82</ele>
        <time>2026-09-01T08:44:47.000Z</time>
      </trkpt>
      <trkpt lat="46.531093" lon="12.017096">
        <ele>2543.15</ele>
        <time>2026-09-01T08:44:50.000Z</time>
      </trkpt>
      <trkpt lat="46.531093" lon="12.017021">
        <ele>2543.98</ele>
        <time>2026-09-01T08:44:56.000Z</time>
      </trkpt>
      <trkpt lat="46.531083" lon="12.016945">
        <ele>2544.8</ele>
        <time>2026-09-01T08:45:02.000Z</time>
      </trkpt>
      <trkpt lat="46.531077" lon="12.016913">
        <ele>2545.15</ele>
        <time>2026-09-01T08:45:05.000Z</time>
      </trkpt>
      <trkpt lat="46.531045" lon="12.016827">
        <ele>2545.9</ele>
        <time>2026-09-01T08:45:13.000Z</time>
      </trkpt>
      <trkpt lat="46.531018" lon="12.016742">
        <ele>2546.23</ele>
        <time>2026-09-01T08:45:19.000Z</time>
      </trkpt>
      <trkpt lat="46.531002" lon="12.016645">
        <ele>2547.07</ele>
        <time>2026-09-01T08:45:26.000Z</time>
      </trkpt>
      <trkpt lat="46.530986" lon="12.016591">
        <ele>2548</ele>
        <time>2026-09-01T08:45:32.000Z</time>
      </trkpt>
      <trkpt lat="46.530991" lon="12.01657">
        <ele>2548.85</ele>
        <time>2026-09-01T08:45:35.000Z</time>
      </trkpt>
      <trkpt lat="46.530986" lon="12.016538">
        <ele>2549.23</ele>
        <time>2026-09-01T08:45:37.000Z</time>
      </trkpt>
      <trkpt lat="46.530975" lon="12.016484">
        <ele>2550.1</ele>
        <time>2026-09-01T08:45:42.000Z</time>
      </trkpt>
      <trkpt lat="46.530954" lon="12.016388">
        <ele>2551.05</ele>
        <time>2026-09-01T08:45:50.000Z</time>
      </trkpt>
      <trkpt lat="46.530949" lon="12.016334">
        <ele>2552.03</ele>
        <time>2026-09-01T08:45:54.000Z</time>
      </trkpt>
      <trkpt lat="46.530949" lon="12.016323">
        <ele>2552.98</ele>
        <time>2026-09-01T08:45:57.000Z</time>
      </trkpt>
      <trkpt lat="46.530922" lon="12.016259">
        <ele>2553.93</ele>
        <time>2026-09-01T08:46:04.000Z</time>
      </trkpt>
      <trkpt lat="46.530922" lon="12.016237">
        <ele>2554.8</ele>
        <time>2026-09-01T08:46:05.000Z</time>
      </trkpt>
      <trkpt lat="46.530911" lon="12.016216">
        <ele>2555.25</ele>
        <time>2026-09-01T08:46:10.000Z</time>
      </trkpt>
      <trkpt lat="46.530895" lon="12.016162">
        <ele>2556.6</ele>
        <time>2026-09-01T08:46:17.000Z</time>
      </trkpt>
      <trkpt lat="46.530884" lon="12.016098">
        <ele>2557.03</ele>
        <time>2026-09-01T08:46:20.000Z</time>
      </trkpt>
      <trkpt lat="46.530879" lon="12.016076">
        <ele>2557.78</ele>
        <time>2026-09-01T08:46:24.000Z</time>
      </trkpt>
      <trkpt lat="46.530863" lon="12.016034">
        <ele>2558.07</ele>
        <time>2026-09-01T08:46:28.000Z</time>
      </trkpt>
      <trkpt lat="46.530857" lon="12.016001">
        <ele>2558.8</ele>
        <time>2026-09-01T08:46:31.000Z</time>
      </trkpt>
      <trkpt lat="46.530857" lon="12.015969">
        <ele>2559.1</ele>
        <time>2026-09-01T08:46:34.000Z</time>
      </trkpt>
      <trkpt lat="46.530847" lon="12.015948">
        <ele>2559.8</ele>
        <time>2026-09-01T08:46:36.000Z</time>
      </trkpt>
      <trkpt lat="46.53082" lon="12.015905">
        <ele>2560.03</ele>
        <time>2026-09-01T08:46:40.000Z</time>
      </trkpt>
      <trkpt lat="46.530788" lon="12.015873">
        <ele>2560.25</ele>
        <time>2026-09-01T08:46:45.000Z</time>
      </trkpt>
      <trkpt lat="46.530755" lon="12.01583">
        <ele>2560.98</ele>
        <time>2026-09-01T08:46:50.000Z</time>
      </trkpt>
      <trkpt lat="46.530745" lon="12.015808">
        <ele>2561.28</ele>
        <time>2026-09-01T08:46:52.000Z</time>
      </trkpt>
      <trkpt lat="46.530713" lon="12.015733">
        <ele>2562.07</ele>
        <time>2026-09-01T08:46:59.000Z</time>
      </trkpt>
      <trkpt lat="46.530702" lon="12.01569">
        <ele>2562.95</ele>
        <time>2026-09-01T08:47:03.000Z</time>
      </trkpt>
      <trkpt lat="46.530691" lon="12.015637">
        <ele>2563.75</ele>
        <time>2026-09-01T08:47:07.000Z</time>
      </trkpt>
      <trkpt lat="46.53068" lon="12.015594">
        <ele>2564.07</ele>
        <time>2026-09-01T08:47:11.000Z</time>
      </trkpt>
      <trkpt lat="46.530675" lon="12.015529">
        <ele>2564.8</ele>
        <time>2026-09-01T08:47:16.000Z</time>
      </trkpt>
      <trkpt lat="46.530675" lon="12.015497">
        <ele>2565.1</ele>
        <time>2026-09-01T08:47:18.000Z</time>
      </trkpt>
      <trkpt lat="46.530702" lon="12.015401">
        <ele>2565.8</ele>
        <time>2026-09-01T08:47:25.000Z</time>
      </trkpt>
      <trkpt lat="46.530718" lon="12.015347">
        <ele>2566.05</ele>
        <time>2026-09-01T08:47:29.000Z</time>
      </trkpt>
      <trkpt lat="46.530729" lon="12.015283">
        <ele>2566.7</ele>
        <time>2026-09-01T08:47:32.000Z</time>
      </trkpt>
      <trkpt lat="46.530718" lon="12.015218">
        <ele>2566.88</ele>
        <time>2026-09-01T08:47:36.000Z</time>
      </trkpt>
      <trkpt lat="46.530718" lon="12.015186">
        <ele>2566.98</ele>
        <time>2026-09-01T08:47:38.000Z</time>
      </trkpt>
      <trkpt lat="46.530707" lon="12.015036">
        <ele>2567.1</ele>
        <time>2026-09-01T08:47:46.000Z</time>
      </trkpt>
      <trkpt lat="46.530696" lon="12.014971">
        <ele>2567.2</ele>
        <time>2026-09-01T08:47:50.000Z</time>
      </trkpt>
      <trkpt lat="46.530696" lon="12.014896">
        <ele>2567.4</ele>
        <time>2026-09-01T08:47:54.000Z</time>
      </trkpt>
      <trkpt lat="46.530525" lon="12.014499">
        <ele>2568.15</ele>
        <time>2026-09-01T08:48:21.000Z</time>
      </trkpt>
      <trkpt lat="46.530525" lon="12.014467">
        <ele>2568.98</ele>
        <time>2026-09-01T08:48:25.000Z</time>
      </trkpt>
      <trkpt lat="46.530546" lon="12.014371">
        <ele>2569.75</ele>
        <time>2026-09-01T08:48:31.000Z</time>
      </trkpt>
      <trkpt lat="46.530552" lon="12.014338">
        <ele>2570.03</ele>
        <time>2026-09-01T08:48:35.000Z</time>
      </trkpt>
      <trkpt lat="46.530552" lon="12.014306">
        <ele>2570.75</ele>
        <time>2026-09-01T08:48:37.000Z</time>
      </trkpt>
      <trkpt lat="46.530546" lon="12.014274">
        <ele>2571</ele>
        <time>2026-09-01T08:48:39.000Z</time>
      </trkpt>
      <trkpt lat="46.530541" lon="12.01422">
        <ele>2571.23</ele>
        <time>2026-09-01T08:48:43.000Z</time>
      </trkpt>
      <trkpt lat="46.53053" lon="12.014177">
        <ele>2571.95</ele>
        <time>2026-09-01T08:48:46.000Z</time>
      </trkpt>
      <trkpt lat="46.530525" lon="12.014145">
        <ele>2572.23</ele>
        <time>2026-09-01T08:48:48.000Z</time>
      </trkpt>
      <trkpt lat="46.530519" lon="12.014081">
        <ele>2573.03</ele>
        <time>2026-09-01T08:48:53.000Z</time>
      </trkpt>
      <trkpt lat="46.530493" lon="12.013995">
        <ele>2573.8</ele>
        <time>2026-09-01T08:48:59.000Z</time>
      </trkpt>
      <trkpt lat="46.530487" lon="12.013963">
        <ele>2574.1</ele>
        <time>2026-09-01T08:49:01.000Z</time>
      </trkpt>
      <trkpt lat="46.530482" lon="12.013888">
        <ele>2574.82</ele>
        <time>2026-09-01T08:49:05.000Z</time>
      </trkpt>
      <trkpt lat="46.530466" lon="12.013813">
        <ele>2575.1</ele>
        <time>2026-09-01T08:49:11.000Z</time>
      </trkpt>
      <trkpt lat="46.530423" lon="12.013662">
        <ele>2575.78</ele>
        <time>2026-09-01T08:49:20.000Z</time>
      </trkpt>
      <trkpt lat="46.530418" lon="12.01362">
        <ele>2576</ele>
        <time>2026-09-01T08:49:22.000Z</time>
      </trkpt>
      <trkpt lat="46.530412" lon="12.013566">
        <ele>2576.6</ele>
        <time>2026-09-01T08:49:25.000Z</time>
      </trkpt>
      <trkpt lat="46.530412" lon="12.013523">
        <ele>2576.68</ele>
        <time>2026-09-01T08:49:28.000Z</time>
      </trkpt>
      <trkpt lat="46.530396" lon="12.013426">
        <ele>2576.55</ele>
        <time>2026-09-01T08:49:34.000Z</time>
      </trkpt>
      <trkpt lat="46.530412" lon="12.013351">
        <ele>2575.9</ele>
        <time>2026-09-01T08:49:39.000Z</time>
      </trkpt>
      <trkpt lat="46.530418" lon="12.013308">
        <ele>2575.65</ele>
        <time>2026-09-01T08:49:41.000Z</time>
      </trkpt>
      <trkpt lat="46.530423" lon="12.013276">
        <ele>2574.88</ele>
        <time>2026-09-01T08:49:43.000Z</time>
      </trkpt>
      <trkpt lat="46.530428" lon="12.013233">
        <ele>2574</ele>
        <time>2026-09-01T08:49:47.000Z</time>
      </trkpt>
      <trkpt lat="46.530444" lon="12.013169">
        <ele>2573.1</ele>
        <time>2026-09-01T08:49:51.000Z</time>
      </trkpt>
      <trkpt lat="46.530466" lon="12.013126">
        <ele>2572.28</ele>
        <time>2026-09-01T08:49:54.000Z</time>
      </trkpt>
      <trkpt lat="46.530477" lon="12.013083">
        <ele>2572</ele>
        <time>2026-09-01T08:49:57.000Z</time>
      </trkpt>
      <trkpt lat="46.530455" lon="12.01304">
        <ele>2571.32</ele>
        <time>2026-09-01T08:50:00.000Z</time>
      </trkpt>
      <trkpt lat="46.530444" lon="12.013019">
        <ele>2571.13</ele>
        <time>2026-09-01T08:50:02.000Z</time>
      </trkpt>
      <trkpt lat="46.530407" lon="12.012965">
        <ele>2570.55</ele>
        <time>2026-09-01T08:50:06.000Z</time>
      </trkpt>
      <trkpt lat="46.530332" lon="12.012879">
        <ele>2570.6</ele>
        <time>2026-09-01T08:50:14.000Z</time>
      </trkpt>
      <trkpt lat="46.530262" lon="12.012847">
        <ele>2571.35</ele>
        <time>2026-09-01T08:50:20.000Z</time>
      </trkpt>
      <trkpt lat="46.530203" lon="12.012815">
        <ele>2572.2</ele>
        <time>2026-09-01T08:50:26.000Z</time>
      </trkpt>
      <trkpt lat="46.530139" lon="12.012783">
        <ele>2573.1</ele>
        <time>2026-09-01T08:50:32.000Z</time>
      </trkpt>
      <trkpt lat="46.530106" lon="12.012772">
        <ele>2574.03</ele>
        <time>2026-09-01T08:50:35.000Z</time>
      </trkpt>
      <trkpt lat="46.530074" lon="12.01274">
        <ele>2575</ele>
        <time>2026-09-01T08:50:39.000Z</time>
      </trkpt>
      <trkpt lat="46.530063" lon="12.012729">
        <ele>2575.98</ele>
        <time>2026-09-01T08:50:40.000Z</time>
      </trkpt>
      <trkpt lat="46.530053" lon="12.012697">
        <ele>2576.95</ele>
        <time>2026-09-01T08:50:42.000Z</time>
      </trkpt>
      <trkpt lat="46.530058" lon="12.012654">
        <ele>2577.93</ele>
        <time>2026-09-01T08:50:45.000Z</time>
      </trkpt>
      <trkpt lat="46.530085" lon="12.012611">
        <ele>2578.88</ele>
        <time>2026-09-01T08:50:50.000Z</time>
      </trkpt>
      <trkpt lat="46.53009" lon="12.012557">
        <ele>2579.75</ele>
        <time>2026-09-01T08:50:55.000Z</time>
      </trkpt>
      <trkpt lat="46.53009" lon="12.012525">
        <ele>2580.1</ele>
        <time>2026-09-01T08:50:57.000Z</time>
      </trkpt>
      <trkpt lat="46.53009" lon="12.012504">
        <ele>2580.95</ele>
        <time>2026-09-01T08:50:59.000Z</time>
      </trkpt>
      <trkpt lat="46.53008" lon="12.012418">
        <ele>2581.8</ele>
        <time>2026-09-01T08:51:06.000Z</time>
      </trkpt>
      <trkpt lat="46.530063" lon="12.012354">
        <ele>2582.15</ele>
        <time>2026-09-01T08:51:12.000Z</time>
      </trkpt>
      <trkpt lat="46.530063" lon="12.012332">
        <ele>2582.9</ele>
        <time>2026-09-01T08:51:15.000Z</time>
      </trkpt>
      <trkpt lat="46.530053" lon="12.012268">
        <ele>2583.23</ele>
        <time>2026-09-01T08:51:20.000Z</time>
      </trkpt>
      <trkpt lat="46.530069" lon="12.012171">
        <ele>2584.07</ele>
        <time>2026-09-01T08:51:30.000Z</time>
      </trkpt>
      <trkpt lat="46.530058" lon="12.012118">
        <ele>2584.98</ele>
        <time>2026-09-01T08:51:35.000Z</time>
      </trkpt>
      <trkpt lat="46.530053" lon="12.012118">
        <ele>2585.8</ele>
        <time>2026-09-01T08:51:36.000Z</time>
      </trkpt>
      <trkpt lat="46.530021" lon="12.012118">
        <ele>2586.15</ele>
        <time>2026-09-01T08:51:40.000Z</time>
      </trkpt>
      <trkpt lat="46.529999" lon="12.012128">
        <ele>2587</ele>
        <time>2026-09-01T08:51:43.000Z</time>
      </trkpt>
      <trkpt lat="46.529988" lon="12.012139">
        <ele>2587.88</ele>
        <time>2026-09-01T08:51:45.000Z</time>
      </trkpt>
      <trkpt lat="46.529951" lon="12.01216">
        <ele>2588.25</ele>
        <time>2026-09-01T08:51:50.000Z</time>
      </trkpt>
      <trkpt lat="46.529929" lon="12.012128">
        <ele>2589.13</ele>
        <time>2026-09-01T08:51:54.000Z</time>
      </trkpt>
      <trkpt lat="46.529929" lon="12.012085">
        <ele>2590.07</ele>
        <time>2026-09-01T08:51:59.000Z</time>
      </trkpt>
      <trkpt lat="46.52994" lon="12.012032">
        <ele>2591.05</ele>
        <time>2026-09-01T08:52:04.000Z</time>
      </trkpt>
      <trkpt lat="46.529967" lon="12.011957">
        <ele>2592</ele>
        <time>2026-09-01T08:52:10.000Z</time>
      </trkpt>
      <trkpt lat="46.529956" lon="12.011914">
        <ele>2592.95</ele>
        <time>2026-09-01T08:52:15.000Z</time>
      </trkpt>
      <trkpt lat="46.529924" lon="12.011957">
        <ele>2593.9</ele>
        <time>2026-09-01T08:52:21.000Z</time>
      </trkpt>
      <trkpt lat="46.529881" lon="12.011989">
        <ele>2594.85</ele>
        <time>2026-09-01T08:52:27.000Z</time>
      </trkpt>
      <trkpt lat="46.529865" lon="12.011989">
        <ele>2595.73</ele>
        <time>2026-09-01T08:52:29.000Z</time>
      </trkpt>
      <trkpt lat="46.529844" lon="12.012032">
        <ele>2596.1</ele>
        <time>2026-09-01T08:52:35.000Z</time>
      </trkpt>
      <trkpt lat="46.529838" lon="12.012053">
        <ele>2596.9</ele>
        <time>2026-09-01T08:52:37.000Z</time>
      </trkpt>
      <trkpt lat="46.529822" lon="12.012107">
        <ele>2597.28</ele>
        <time>2026-09-01T08:52:43.000Z</time>
      </trkpt>
      <trkpt lat="46.529833" lon="12.01215">
        <ele>2598.15</ele>
        <time>2026-09-01T08:52:48.000Z</time>
      </trkpt>
      <trkpt lat="46.529844" lon="12.01216">
        <ele>2599.07</ele>
        <time>2026-09-01T08:52:49.000Z</time>
      </trkpt>
      <trkpt lat="46.52987" lon="12.012225">
        <ele>2600</ele>
        <time>2026-09-01T08:52:57.000Z</time>
      </trkpt>
      <trkpt lat="46.529838" lon="12.012203">
        <ele>2600.95</ele>
        <time>2026-09-01T08:53:03.000Z</time>
      </trkpt>
      <trkpt lat="46.529811" lon="12.012214">
        <ele>2601.9</ele>
        <time>2026-09-01T08:53:07.000Z</time>
      </trkpt>
      <trkpt lat="46.529795" lon="12.012225">
        <ele>2602.8</ele>
        <time>2026-09-01T08:53:09.000Z</time>
      </trkpt>
      <trkpt lat="46.529774" lon="12.012236">
        <ele>2603.18</ele>
        <time>2026-09-01T08:53:14.000Z</time>
      </trkpt>
      <trkpt lat="46.529731" lon="12.012193">
        <ele>2604.05</ele>
        <time>2026-09-01T08:53:21.000Z</time>
      </trkpt>
      <trkpt lat="46.529731" lon="12.012171">
        <ele>2605</ele>
        <time>2026-09-01T08:53:27.000Z</time>
      </trkpt>
      <trkpt lat="46.529709" lon="12.012139">
        <ele>2605.95</ele>
        <time>2026-09-01T08:53:33.000Z</time>
      </trkpt>
      <trkpt lat="46.529704" lon="12.012128">
        <ele>2606.82</ele>
        <time>2026-09-01T08:53:34.000Z</time>
      </trkpt>
      <trkpt lat="46.529699" lon="12.012085">
        <ele>2607.2</ele>
        <time>2026-09-01T08:53:39.000Z</time>
      </trkpt>
      <trkpt lat="46.529672" lon="12.012053">
        <ele>2608.07</ele>
        <time>2026-09-01T08:53:45.000Z</time>
      </trkpt>
      <trkpt lat="46.529661" lon="12.012053">
        <ele>2609.03</ele>
        <time>2026-09-01T08:53:49.000Z</time>
      </trkpt>
      <trkpt lat="46.529629" lon="12.012021">
        <ele>2609.98</ele>
        <time>2026-09-01T08:53:54.000Z</time>
      </trkpt>
      <trkpt lat="46.529575" lon="12.011967">
        <ele>2610.93</ele>
        <time>2026-09-01T08:54:02.000Z</time>
      </trkpt>
      <trkpt lat="46.529548" lon="12.011946">
        <ele>2611.8</ele>
        <time>2026-09-01T08:54:07.000Z</time>
      </trkpt>
      <trkpt lat="46.529527" lon="12.011892">
        <ele>2612.2</ele>
        <time>2026-09-01T08:54:11.000Z</time>
      </trkpt>
      <trkpt lat="46.529522" lon="12.011828">
        <ele>2613.1</ele>
        <time>2026-09-01T08:54:16.000Z</time>
      </trkpt>
      <trkpt lat="46.529506" lon="12.011763">
        <ele>2614.05</ele>
        <time>2026-09-01T08:54:23.000Z</time>
      </trkpt>
      <trkpt lat="46.529495" lon="12.011721">
        <ele>2615</ele>
        <time>2026-09-01T08:54:30.000Z</time>
      </trkpt>
      <trkpt lat="46.529484" lon="12.011667">
        <ele>2615.98</ele>
        <time>2026-09-01T08:54:36.000Z</time>
      </trkpt>
      <trkpt lat="46.529484" lon="12.011613">
        <ele>2616.95</ele>
        <time>2026-09-01T08:54:41.000Z</time>
      </trkpt>
      <trkpt lat="46.529484" lon="12.011592">
        <ele>2617.88</ele>
        <time>2026-09-01T08:54:43.000Z</time>
      </trkpt>
      <trkpt lat="46.529473" lon="12.01157">
        <ele>2618.28</ele>
        <time>2026-09-01T08:54:46.000Z</time>
      </trkpt>
      <trkpt lat="46.529463" lon="12.011592">
        <ele>2619.25</ele>
        <time>2026-09-01T08:54:49.000Z</time>
      </trkpt>
      <trkpt lat="46.529436" lon="12.011688">
        <ele>2620.8</ele>
        <time>2026-09-01T08:54:56.000Z</time>
      </trkpt>
      <trkpt lat="46.529404" lon="12.011721">
        <ele>2621.85</ele>
        <time>2026-09-01T08:55:01.000Z</time>
      </trkpt>
      <trkpt lat="46.529382" lon="12.011753">
        <ele>2622.75</ele>
        <time>2026-09-01T08:55:07.000Z</time>
      </trkpt>
      <trkpt lat="46.52935" lon="12.011753">
        <ele>2623.15</ele>
        <time>2026-09-01T08:55:10.000Z</time>
      </trkpt>
      <trkpt lat="46.52935" lon="12.011721">
        <ele>2624.08</ele>
        <time>2026-09-01T08:55:12.000Z</time>
      </trkpt>
      <trkpt lat="46.52935" lon="12.011688">
        <ele>2625.08</ele>
        <time>2026-09-01T08:55:15.000Z</time>
      </trkpt>
      <trkpt lat="46.529345" lon="12.011613">
        <ele>2626.05</ele>
        <time>2026-09-01T08:55:23.000Z</time>
      </trkpt>
      <trkpt lat="46.529334" lon="12.01157">
        <ele>2627.03</ele>
        <time>2026-09-01T08:55:27.000Z</time>
      </trkpt>
      <trkpt lat="46.529339" lon="12.011538">
        <ele>2628</ele>
        <time>2026-09-01T08:55:31.000Z</time>
      </trkpt>
      <trkpt lat="46.529334" lon="12.011517">
        <ele>2629</ele>
        <time>2026-09-01T08:55:34.000Z</time>
      </trkpt>
      <trkpt lat="46.529329" lon="12.011485">
        <ele>2629.98</ele>
        <time>2026-09-01T08:55:37.000Z</time>
      </trkpt>
      <trkpt lat="46.529307" lon="12.011485">
        <ele>2630.95</ele>
        <time>2026-09-01T08:55:42.000Z</time>
      </trkpt>
      <trkpt lat="46.529296" lon="12.011517">
        <ele>2631.9</ele>
        <time>2026-09-01T08:55:45.000Z</time>
      </trkpt>
      <trkpt lat="46.529275" lon="12.01157">
        <ele>2632.85</ele>
        <time>2026-09-01T08:55:51.000Z</time>
      </trkpt>
      <trkpt lat="46.529243" lon="12.011549">
        <ele>2633.7</ele>
        <time>2026-09-01T08:55:58.000Z</time>
      </trkpt>
      <trkpt lat="46.529237" lon="12.011517">
        <ele>2634.05</ele>
        <time>2026-09-01T08:56:01.000Z</time>
      </trkpt>
      <trkpt lat="46.529237" lon="12.011463">
        <ele>2634.83</ele>
        <time>2026-09-01T08:56:05.000Z</time>
      </trkpt>
      <trkpt lat="46.529243" lon="12.01142">
        <ele>2635.15</ele>
        <time>2026-09-01T08:56:09.000Z</time>
      </trkpt>
      <trkpt lat="46.529232" lon="12.01142">
        <ele>2635.9</ele>
        <time>2026-09-01T08:56:11.000Z</time>
      </trkpt>
      <trkpt lat="46.529221" lon="12.011399">
        <ele>2636.23</ele>
        <time>2026-09-01T08:56:13.000Z</time>
      </trkpt>
      <trkpt lat="46.529216" lon="12.011377">
        <ele>2637.03</ele>
        <time>2026-09-01T08:56:16.000Z</time>
      </trkpt>
      <trkpt lat="46.529194" lon="12.011431">
        <ele>2637.85</ele>
        <time>2026-09-01T08:56:22.000Z</time>
      </trkpt>
      <trkpt lat="46.529173" lon="12.011474">
        <ele>2638.18</ele>
        <time>2026-09-01T08:56:27.000Z</time>
      </trkpt>
      <trkpt lat="46.529141" lon="12.011517">
        <ele>2639.03</ele>
        <time>2026-09-01T08:56:30.000Z</time>
      </trkpt>
      <trkpt lat="46.529125" lon="12.011527">
        <ele>2639.88</ele>
        <time>2026-09-01T08:56:32.000Z</time>
      </trkpt>
      <trkpt lat="46.529146" lon="12.011527">
        <ele>2640.25</ele>
        <time>2026-09-01T08:56:36.000Z</time>
      </trkpt>
      <trkpt lat="46.529151" lon="12.011517">
        <ele>2641.13</ele>
        <time>2026-09-01T08:56:39.000Z</time>
      </trkpt>
      <trkpt lat="46.52913" lon="12.011549">
        <ele>2642.08</ele>
        <time>2026-09-01T08:56:44.000Z</time>
      </trkpt>
      <trkpt lat="46.529109" lon="12.011603">
        <ele>2643.05</ele>
        <time>2026-09-01T08:56:51.000Z</time>
      </trkpt>
      <trkpt lat="46.529071" lon="12.011635">
        <ele>2644</ele>
        <time>2026-09-01T08:56:59.000Z</time>
      </trkpt>
      <trkpt lat="46.529044" lon="12.011581">
        <ele>2644.95</ele>
        <time>2026-09-01T08:57:05.000Z</time>
      </trkpt>
      <trkpt lat="46.529023" lon="12.011506">
        <ele>2645.93</ele>
        <time>2026-09-01T08:57:11.000Z</time>
      </trkpt>
      <trkpt lat="46.528996" lon="12.011442">
        <ele>2646.9</ele>
        <time>2026-09-01T08:57:18.000Z</time>
      </trkpt>
      <trkpt lat="46.528996" lon="12.011409">
        <ele>2647.78</ele>
        <time>2026-09-01T08:57:21.000Z</time>
      </trkpt>
      <trkpt lat="46.529007" lon="12.011356">
        <ele>2648.15</ele>
        <time>2026-09-01T08:57:26.000Z</time>
      </trkpt>
      <trkpt lat="46.529007" lon="12.011345">
        <ele>2649.03</ele>
        <time>2026-09-01T08:57:28.000Z</time>
      </trkpt>
      <trkpt lat="46.528964" lon="12.011399">
        <ele>2649.98</ele>
        <time>2026-09-01T08:57:34.000Z</time>
      </trkpt>
      <trkpt lat="46.528948" lon="12.011409">
        <ele>2650.85</ele>
        <time>2026-09-01T08:57:36.000Z</time>
      </trkpt>
      <trkpt lat="46.528932" lon="12.011452">
        <ele>2651.23</ele>
        <time>2026-09-01T08:57:40.000Z</time>
      </trkpt>
      <trkpt lat="46.52891" lon="12.011474">
        <ele>2652.1</ele>
        <time>2026-09-01T08:57:45.000Z</time>
      </trkpt>
      <trkpt lat="46.528883" lon="12.011495">
        <ele>2653.05</ele>
        <time>2026-09-01T08:57:50.000Z</time>
      </trkpt>
      <trkpt lat="46.528862" lon="12.011442">
        <ele>2654</ele>
        <time>2026-09-01T08:57:57.000Z</time>
      </trkpt>
      <trkpt lat="46.528846" lon="12.011485">
        <ele>2654.93</ele>
        <time>2026-09-01T08:58:02.000Z</time>
      </trkpt>
      <trkpt lat="46.528819" lon="12.011517">
        <ele>2655.85</ele>
        <time>2026-09-01T08:58:06.000Z</time>
      </trkpt>
      <trkpt lat="46.528797" lon="12.011506">
        <ele>2656.7</ele>
        <time>2026-09-01T08:58:10.000Z</time>
      </trkpt>
      <trkpt lat="46.528797" lon="12.011452">
        <ele>2657.05</ele>
        <time>2026-09-01T08:58:13.000Z</time>
      </trkpt>
      <trkpt lat="46.528792" lon="12.011377">
        <ele>2657.83</ele>
        <time>2026-09-01T08:58:19.000Z</time>
      </trkpt>
      <trkpt lat="46.528792" lon="12.011345">
        <ele>2658.15</ele>
        <time>2026-09-01T08:58:21.000Z</time>
      </trkpt>
      <trkpt lat="46.528803" lon="12.011313">
        <ele>2658.9</ele>
        <time>2026-09-01T08:58:25.000Z</time>
      </trkpt>
      <trkpt lat="46.528797" lon="12.01127">
        <ele>2659.2</ele>
        <time>2026-09-01T08:58:28.000Z</time>
      </trkpt>
      <trkpt lat="46.528797" lon="12.011227">
        <ele>2660</ele>
        <time>2026-09-01T08:58:32.000Z</time>
      </trkpt>
      <trkpt lat="46.528797" lon="12.011206">
        <ele>2660.8</ele>
        <time>2026-09-01T08:58:34.000Z</time>
      </trkpt>
      <trkpt lat="46.528792" lon="12.01113">
        <ele>2661.1</ele>
        <time>2026-09-01T08:58:40.000Z</time>
      </trkpt>
      <trkpt lat="46.528787" lon="12.01112">
        <ele>2661.83</ele>
        <time>2026-09-01T08:58:41.000Z</time>
      </trkpt>
      <trkpt lat="46.528797" lon="12.011045">
        <ele>2662.13</ele>
        <time>2026-09-01T08:58:46.000Z</time>
      </trkpt>
      <trkpt lat="46.528803" lon="12.011002">
        <ele>2662.88</ele>
        <time>2026-09-01T08:58:49.000Z</time>
      </trkpt>
      <trkpt lat="46.528803" lon="12.01097">
        <ele>2663.2</ele>
        <time>2026-09-01T08:58:52.000Z</time>
      </trkpt>
      <trkpt lat="46.528803" lon="12.010937">
        <ele>2663.95</ele>
        <time>2026-09-01T08:58:55.000Z</time>
      </trkpt>
      <trkpt lat="46.528792" lon="12.010905">
        <ele>2664.3</ele>
        <time>2026-09-01T08:58:59.000Z</time>
      </trkpt>
      <trkpt lat="46.528765" lon="12.010862">
        <ele>2665.15</ele>
        <time>2026-09-01T08:59:05.000Z</time>
      </trkpt>
      <trkpt lat="46.528738" lon="12.01083">
        <ele>2666.1</ele>
        <time>2026-09-01T08:59:11.000Z</time>
      </trkpt>
      <trkpt lat="46.528722" lon="12.010852">
        <ele>2667.05</ele>
        <time>2026-09-01T08:59:17.000Z</time>
      </trkpt>
      <trkpt lat="46.52869" lon="12.010884">
        <ele>2668.03</ele>
        <time>2026-09-01T08:59:25.000Z</time>
      </trkpt>
      <trkpt lat="46.528658" lon="12.010862">
        <ele>2668.98</ele>
        <time>2026-09-01T08:59:30.000Z</time>
      </trkpt>
      <trkpt lat="46.528637" lon="12.010862">
        <ele>2669.95</ele>
        <time>2026-09-01T08:59:34.000Z</time>
      </trkpt>
      <trkpt lat="46.528615" lon="12.010852">
        <ele>2670.93</ele>
        <time>2026-09-01T08:59:37.000Z</time>
      </trkpt>
      <trkpt lat="46.528599" lon="12.010841">
        <ele>2671.9</ele>
        <time>2026-09-01T08:59:39.000Z</time>
      </trkpt>
      <trkpt lat="46.528594" lon="12.01083">
        <ele>2672.8</ele>
        <time>2026-09-01T08:59:40.000Z</time>
      </trkpt>
      <trkpt lat="46.528567" lon="12.010787">
        <ele>2673.2</ele>
        <time>2026-09-01T08:59:46.000Z</time>
      </trkpt>
      <trkpt lat="46.528545" lon="12.010744">
        <ele>2674.1</ele>
        <time>2026-09-01T08:59:49.000Z</time>
      </trkpt>
      <trkpt lat="46.528545" lon="12.010701">
        <ele>2675.1</ele>
        <time>2026-09-01T08:59:53.000Z</time>
      </trkpt>
      <trkpt lat="46.52854" lon="12.010615">
        <ele>2676.1</ele>
        <time>2026-09-01T09:00:00.000Z</time>
      </trkpt>
      <trkpt lat="46.528524" lon="12.010573">
        <ele>2677.08</ele>
        <time>2026-09-01T09:00:07.000Z</time>
      </trkpt>
      <trkpt lat="46.528513" lon="12.01053">
        <ele>2678.05</ele>
        <time>2026-09-01T09:00:11.000Z</time>
      </trkpt>
      <trkpt lat="46.528502" lon="12.010497">
        <ele>2679.1</ele>
        <time>2026-09-01T09:00:14.000Z</time>
      </trkpt>
      <trkpt lat="46.52847" lon="12.010497">
        <ele>2680.65</ele>
        <time>2026-09-01T09:00:19.000Z</time>
      </trkpt>
      <trkpt lat="46.528454" lon="12.010519">
        <ele>2681.63</ele>
        <time>2026-09-01T09:00:22.000Z</time>
      </trkpt>
      <trkpt lat="46.528427" lon="12.010551">
        <ele>2682.03</ele>
        <time>2026-09-01T09:00:26.000Z</time>
      </trkpt>
      <trkpt lat="46.528395" lon="12.010583">
        <ele>2682.85</ele>
        <time>2026-09-01T09:00:30.000Z</time>
      </trkpt>
      <trkpt lat="46.528374" lon="12.010605">
        <ele>2683.23</ele>
        <time>2026-09-01T09:00:33.000Z</time>
      </trkpt>
      <trkpt lat="46.528341" lon="12.010637">
        <ele>2684.1</ele>
        <time>2026-09-01T09:00:37.000Z</time>
      </trkpt>
      <trkpt lat="46.528315" lon="12.010648">
        <ele>2685.03</ele>
        <time>2026-09-01T09:00:41.000Z</time>
      </trkpt>
      <trkpt lat="46.528304" lon="12.010669">
        <ele>2685.95</ele>
        <time>2026-09-01T09:00:47.000Z</time>
      </trkpt>
      <trkpt lat="46.528266" lon="12.010648">
        <ele>2686.83</ele>
        <time>2026-09-01T09:00:54.000Z</time>
      </trkpt>
      <trkpt lat="46.528256" lon="12.010626">
        <ele>2687.18</ele>
        <time>2026-09-01T09:00:56.000Z</time>
      </trkpt>
      <trkpt lat="46.52825" lon="12.010573">
        <ele>2688.05</ele>
        <time>2026-09-01T09:01:01.000Z</time>
      </trkpt>
      <trkpt lat="46.52825" lon="12.010551">
        <ele>2689</ele>
        <time>2026-09-01T09:01:02.000Z</time>
      </trkpt>
      <trkpt lat="46.528229" lon="12.01053">
        <ele>2689.95</ele>
        <time>2026-09-01T09:01:07.000Z</time>
      </trkpt>
      <trkpt lat="46.528202" lon="12.010551">
        <ele>2690.83</ele>
        <time>2026-09-01T09:01:11.000Z</time>
      </trkpt>
      <trkpt lat="46.528181" lon="12.010573">
        <ele>2691.2</ele>
        <time>2026-09-01T09:01:14.000Z</time>
      </trkpt>
      <trkpt lat="46.528148" lon="12.010583">
        <ele>2692.1</ele>
        <time>2026-09-01T09:01:19.000Z</time>
      </trkpt>
      <trkpt lat="46.528138" lon="12.010583">
        <ele>2693.08</ele>
        <time>2026-09-01T09:01:22.000Z</time>
      </trkpt>
      <trkpt lat="46.528105" lon="12.010605">
        <ele>2694.05</ele>
        <time>2026-09-01T09:01:28.000Z</time>
      </trkpt>
      <trkpt lat="46.528068" lon="12.010594">
        <ele>2695.03</ele>
        <time>2026-09-01T09:01:33.000Z</time>
      </trkpt>
      <trkpt lat="46.528057" lon="12.010583">
        <ele>2696</ele>
        <time>2026-09-01T09:01:40.000Z</time>
      </trkpt>
      <trkpt lat="46.528036" lon="12.010551">
        <ele>2697</ele>
        <time>2026-09-01T09:01:46.000Z</time>
      </trkpt>
      <trkpt lat="46.528014" lon="12.010508">
        <ele>2698</ele>
        <time>2026-09-01T09:01:51.000Z</time>
      </trkpt>
      <trkpt lat="46.528004" lon="12.010455">
        <ele>2699</ele>
        <time>2026-09-01T09:01:56.000Z</time>
      </trkpt>
      <trkpt lat="46.527982" lon="12.010422">
        <ele>2699.98</ele>
        <time>2026-09-01T09:02:03.000Z</time>
      </trkpt>
      <trkpt lat="46.527966" lon="12.010433">
        <ele>2700.95</ele>
        <time>2026-09-01T09:02:06.000Z</time>
      </trkpt>
      <trkpt lat="46.527928" lon="12.010444">
        <ele>2701.93</ele>
        <time>2026-09-01T09:02:11.000Z</time>
      </trkpt>
      <trkpt lat="46.527896" lon="12.010455">
        <ele>2702.9</ele>
        <time>2026-09-01T09:02:17.000Z</time>
      </trkpt>
      <trkpt lat="46.527869" lon="12.010487">
        <ele>2703.8</ele>
        <time>2026-09-01T09:02:22.000Z</time>
      </trkpt>
      <trkpt lat="46.527848" lon="12.010508">
        <ele>2704.2</ele>
        <time>2026-09-01T09:02:25.000Z</time>
      </trkpt>
      <trkpt lat="46.52781" lon="12.010551">
        <ele>2705.1</ele>
        <time>2026-09-01T09:02:32.000Z</time>
      </trkpt>
      <trkpt lat="46.527773" lon="12.01054">
        <ele>2706.08</ele>
        <time>2026-09-01T09:02:37.000Z</time>
      </trkpt>
      <trkpt lat="46.527778" lon="12.010444">
        <ele>2707.05</ele>
        <time>2026-09-01T09:02:42.000Z</time>
      </trkpt>
      <trkpt lat="46.527762" lon="12.010412">
        <ele>2708.03</ele>
        <time>2026-09-01T09:02:49.000Z</time>
      </trkpt>
      <trkpt lat="46.527762" lon="12.010401">
        <ele>2708.98</ele>
        <time>2026-09-01T09:02:50.000Z</time>
      </trkpt>
      <trkpt lat="46.527762" lon="12.010347">
        <ele>2709.95</ele>
        <time>2026-09-01T09:02:54.000Z</time>
      </trkpt>
      <trkpt lat="46.527757" lon="12.010304">
        <ele>2710.93</ele>
        <time>2026-09-01T09:02:58.000Z</time>
      </trkpt>
      <trkpt lat="46.527751" lon="12.01024">
        <ele>2711.9</ele>
        <time>2026-09-01T09:03:03.000Z</time>
      </trkpt>
      <trkpt lat="46.527735" lon="12.010186">
        <ele>2712.83</ele>
        <time>2026-09-01T09:03:09.000Z</time>
      </trkpt>
      <trkpt lat="46.527719" lon="12.010154">
        <ele>2713.23</ele>
        <time>2026-09-01T09:03:12.000Z</time>
      </trkpt>
      <trkpt lat="46.527714" lon="12.010143">
        <ele>2714.08</ele>
        <time>2026-09-01T09:03:14.000Z</time>
      </trkpt>
      <trkpt lat="46.527687" lon="12.010122">
        <ele>2715.03</ele>
        <time>2026-09-01T09:03:19.000Z</time>
      </trkpt>
      <trkpt lat="46.527666" lon="12.010079">
        <ele>2716.03</ele>
        <time>2026-09-01T09:03:26.000Z</time>
      </trkpt>
      <trkpt lat="46.527655" lon="12.010036">
        <ele>2717.45</ele>
        <time>2026-09-01T09:03:30.000Z</time>
      </trkpt>
      <trkpt lat="46.52766" lon="12.009993">
        <ele>2717.7</ele>
        <time>2026-09-01T09:03:32.000Z</time>
      </trkpt>
      <trkpt lat="46.527666" lon="12.009929">
        <ele>2717.43</ele>
        <time>2026-09-01T09:03:39.000Z</time>
      </trkpt>
      <trkpt lat="46.527666" lon="12.009886">
        <ele>2718.6</ele>
        <time>2026-09-01T09:03:43.000Z</time>
      </trkpt>
      <trkpt lat="46.527671" lon="12.009843">
        <ele>2718.93</ele>
        <time>2026-09-01T09:03:46.000Z</time>
      </trkpt>
      <trkpt lat="46.527682" lon="12.009822">
        <ele>2719.6</ele>
        <time>2026-09-01T09:03:48.000Z</time>
      </trkpt>
      <trkpt lat="46.527698" lon="12.009736">
        <ele>2719.68</ele>
        <time>2026-09-01T09:03:54.000Z</time>
      </trkpt>
      <trkpt lat="46.527714" lon="12.009693">
        <ele>2719.1</ele>
        <time>2026-09-01T09:03:59.000Z</time>
      </trkpt>
      <trkpt lat="46.527708" lon="12.009682">
        <ele>2718.65</ele>
        <time>2026-09-01T09:04:00.000Z</time>
      </trkpt>
      <trkpt lat="46.527692" lon="12.009607">
        <ele>2719.33</ele>
        <time>2026-09-01T09:04:06.000Z</time>
      </trkpt>
      <trkpt lat="46.527682" lon="12.009564">
        <ele>2720.18</ele>
        <time>2026-09-01T09:04:09.000Z</time>
      </trkpt>
      <trkpt lat="46.527671" lon="12.00951">
        <ele>2720.95</ele>
        <time>2026-09-01T09:04:13.000Z</time>
      </trkpt>
      <trkpt lat="46.527644" lon="12.009467">
        <ele>2721.23</ele>
        <time>2026-09-01T09:04:17.000Z</time>
      </trkpt>
      <trkpt lat="46.527633" lon="12.009467">
        <ele>2722.05</ele>
        <time>2026-09-01T09:04:20.000Z</time>
      </trkpt>
      <trkpt lat="46.527596" lon="12.009403">
        <ele>2722.98</ele>
        <time>2026-09-01T09:04:28.000Z</time>
      </trkpt>
      <trkpt lat="46.52758" lon="12.00936">
        <ele>2723.88</ele>
        <time>2026-09-01T09:04:32.000Z</time>
      </trkpt>
      <trkpt lat="46.527564" lon="12.009307">
        <ele>2724.7</ele>
        <time>2026-09-01T09:04:37.000Z</time>
      </trkpt>
      <trkpt lat="46.527558" lon="12.009264">
        <ele>2725</ele>
        <time>2026-09-01T09:04:40.000Z</time>
      </trkpt>
      <trkpt lat="46.527596" lon="12.009242">
        <ele>2725.75</ele>
        <time>2026-09-01T09:04:44.000Z</time>
      </trkpt>
      <trkpt lat="46.527676" lon="12.009199">
        <ele>2726</ele>
        <time>2026-09-01T09:04:51.000Z</time>
      </trkpt>
      <trkpt lat="46.527698" lon="12.009081">
        <ele>2726.25</ele>
        <time>2026-09-01T09:04:57.000Z</time>
      </trkpt>
      <trkpt lat="46.527703" lon="12.009006">
        <ele>2727</ele>
        <time>2026-09-01T09:05:01.000Z</time>
      </trkpt>
      <trkpt lat="46.527714" lon="12.008952">
        <ele>2727.3</ele>
        <time>2026-09-01T09:05:04.000Z</time>
      </trkpt>
      <trkpt lat="46.527714" lon="12.008877">
        <ele>2728.13</ele>
        <time>2026-09-01T09:05:09.000Z</time>
      </trkpt>
      <trkpt lat="46.527698" lon="12.008856">
        <ele>2729.03</ele>
        <time>2026-09-01T09:05:13.000Z</time>
      </trkpt>
      <trkpt lat="46.52766" lon="12.008867">
        <ele>2729.93</ele>
        <time>2026-09-01T09:05:18.000Z</time>
      </trkpt>
      <trkpt lat="46.527655" lon="12.008824">
        <ele>2730.78</ele>
        <time>2026-09-01T09:05:21.000Z</time>
      </trkpt>
      <trkpt lat="46.527708" lon="12.008674">
        <ele>2731.13</ele>
        <time>2026-09-01T09:05:31.000Z</time>
      </trkpt>
      <trkpt lat="46.52773" lon="12.008577">
        <ele>2731.98</ele>
        <time>2026-09-01T09:05:38.000Z</time>
      </trkpt>
      <trkpt lat="46.527746" lon="12.008556">
        <ele>2732.83</ele>
        <time>2026-09-01T09:05:40.000Z</time>
      </trkpt>
      <trkpt lat="46.527805" lon="12.00847">
        <ele>2733.18</ele>
        <time>2026-09-01T09:05:46.000Z</time>
      </trkpt>
      <trkpt lat="46.527821" lon="12.008448">
        <ele>2734</ele>
        <time>2026-09-01T09:05:48.000Z</time>
      </trkpt>
      <trkpt lat="46.527848" lon="12.008362">
        <ele>2734.83</ele>
        <time>2026-09-01T09:05:54.000Z</time>
      </trkpt>
      <trkpt lat="46.527853" lon="12.00833">
        <ele>2735.18</ele>
        <time>2026-09-01T09:05:56.000Z</time>
      </trkpt>
      <trkpt lat="46.527869" lon="12.008244">
        <ele>2736.03</ele>
        <time>2026-09-01T09:06:01.000Z</time>
      </trkpt>
      <trkpt lat="46.527902" lon="12.008105">
        <ele>2736.88</ele>
        <time>2026-09-01T09:06:09.000Z</time>
      </trkpt>
      <trkpt lat="46.527907" lon="12.008062">
        <ele>2737.25</ele>
        <time>2026-09-01T09:06:12.000Z</time>
      </trkpt>
      <trkpt lat="46.527902" lon="12.007987">
        <ele>2738.13</ele>
        <time>2026-09-01T09:06:16.000Z</time>
      </trkpt>
      <trkpt lat="46.527891" lon="12.007955">
        <ele>2739.05</ele>
        <time>2026-09-01T09:06:18.000Z</time>
      </trkpt>
      <trkpt lat="46.527885" lon="12.007944">
        <ele>2739.98</ele>
        <time>2026-09-01T09:06:21.000Z</time>
      </trkpt>
      <trkpt lat="46.527859" lon="12.00788">
        <ele>2740.9</ele>
        <time>2026-09-01T09:06:25.000Z</time>
      </trkpt>
      <trkpt lat="46.527864" lon="12.007815">
        <ele>2741.83</ele>
        <time>2026-09-01T09:06:30.000Z</time>
      </trkpt>
      <trkpt lat="46.527859" lon="12.007772">
        <ele>2742.68</ele>
        <time>2026-09-01T09:06:34.000Z</time>
      </trkpt>
      <trkpt lat="46.527896" lon="12.00774">
        <ele>2742.95</ele>
        <time>2026-09-01T09:06:37.000Z</time>
      </trkpt>
      <trkpt lat="46.527934" lon="12.007719">
        <ele>2743.2</ele>
        <time>2026-09-01T09:06:40.000Z</time>
      </trkpt>
      <trkpt lat="46.527987" lon="12.007708">
        <ele>2744.03</ele>
        <time>2026-09-01T09:06:45.000Z</time>
      </trkpt>
      <trkpt lat="46.528041" lon="12.007676">
        <ele>2744.83</ele>
        <time>2026-09-01T09:06:50.000Z</time>
      </trkpt>
      <trkpt lat="46.528063" lon="12.007676">
        <ele>2745.1</ele>
        <time>2026-09-01T09:06:52.000Z</time>
      </trkpt>
      <trkpt lat="46.528111" lon="12.007665">
        <ele>2745.78</ele>
        <time>2026-09-01T09:06:57.000Z</time>
      </trkpt>
      <trkpt lat="46.528143" lon="12.007633">
        <ele>2746.05</ele>
        <time>2026-09-01T09:07:01.000Z</time>
      </trkpt>
      <trkpt lat="46.52817" lon="12.007568">
        <ele>2746.75</ele>
        <time>2026-09-01T09:07:06.000Z</time>
      </trkpt>
      <trkpt lat="46.528175" lon="12.007536">
        <ele>2746.93</ele>
        <time>2026-09-01T09:07:08.000Z</time>
      </trkpt>
      <trkpt lat="46.528218" lon="12.007397">
        <ele>2747.03</ele>
        <time>2026-09-01T09:07:16.000Z</time>
      </trkpt>
      <trkpt lat="46.528315" lon="12.007332">
        <ele>2747.2</ele>
        <time>2026-09-01T09:07:23.000Z</time>
      </trkpt>
      <trkpt lat="46.528374" lon="12.0073">
        <ele>2747.88</ele>
        <time>2026-09-01T09:07:28.000Z</time>
      </trkpt>
      <trkpt lat="46.52839" lon="12.007279">
        <ele>2748.08</ele>
        <time>2026-09-01T09:07:30.000Z</time>
      </trkpt>
      <trkpt lat="46.528481" lon="12.007247">
        <ele>2748.28</ele>
        <time>2026-09-01T09:07:36.000Z</time>
      </trkpt>
      <trkpt lat="46.528502" lon="12.007214">
        <ele>2748.98</ele>
        <time>2026-09-01T09:07:38.000Z</time>
      </trkpt>
      <trkpt lat="46.528518" lon="12.007193">
        <ele>2749.25</ele>
        <time>2026-09-01T09:07:40.000Z</time>
      </trkpt>
      <trkpt lat="46.528567" lon="12.007182">
        <ele>2750.03</ele>
        <time>2026-09-01T09:07:44.000Z</time>
      </trkpt>
      <trkpt lat="46.528712" lon="12.00715">
        <ele>2750.88</ele>
        <time>2026-09-01T09:07:55.000Z</time>
      </trkpt>
      <trkpt lat="46.528814" lon="12.00715">
        <ele>2751.68</ele>
        <time>2026-09-01T09:08:02.000Z</time>
      </trkpt>
      <trkpt lat="46.528856" lon="12.007118">
        <ele>2751.93</ele>
        <time>2026-09-01T09:08:06.000Z</time>
      </trkpt>
      <trkpt lat="46.52891" lon="12.007107">
        <ele>2752.1</ele>
        <time>2026-09-01T09:08:10.000Z</time>
      </trkpt>
      <trkpt lat="46.528926" lon="12.007064">
        <ele>2752.35</ele>
        <time>2026-09-01T09:08:15.000Z</time>
      </trkpt>
      <trkpt lat="46.528915" lon="12.006946">
        <ele>2753.2</ele>
        <time>2026-09-01T09:08:22.000Z</time>
      </trkpt>
      <trkpt lat="46.528899" lon="12.006871">
        <ele>2754.1</ele>
        <time>2026-09-01T09:08:26.000Z</time>
      </trkpt>
      <trkpt lat="46.528883" lon="12.006807">
        <ele>2755</ele>
        <time>2026-09-01T09:08:30.000Z</time>
      </trkpt>
      <trkpt lat="46.528873" lon="12.006807">
        <ele>2755.83</ele>
        <time>2026-09-01T09:08:31.000Z</time>
      </trkpt>
      <trkpt lat="46.528856" lon="12.006742">
        <ele>2756.23</ele>
        <time>2026-09-01T09:08:36.000Z</time>
      </trkpt>
      <trkpt lat="46.528835" lon="12.006678">
        <ele>2757.58</ele>
        <time>2026-09-01T09:08:40.000Z</time>
      </trkpt>
      <trkpt lat="46.528851" lon="12.006603">
        <ele>2757.95</ele>
        <time>2026-09-01T09:08:44.000Z</time>
      </trkpt>
      <trkpt lat="46.528867" lon="12.006581">
        <ele>2758.65</ele>
        <time>2026-09-01T09:08:46.000Z</time>
      </trkpt>
      <trkpt lat="46.528883" lon="12.006549">
        <ele>2758.8</ele>
        <time>2026-09-01T09:08:48.000Z</time>
      </trkpt>
      <trkpt lat="46.52891" lon="12.006528">
        <ele>2758.9</ele>
        <time>2026-09-01T09:08:50.000Z</time>
      </trkpt>
      <trkpt lat="46.528969" lon="12.006463">
        <ele>2759.4</ele>
        <time>2026-09-01T09:08:57.000Z</time>
      </trkpt>
      <trkpt lat="46.528996" lon="12.006431">
        <ele>2758.85</ele>
        <time>2026-09-01T09:09:00.000Z</time>
      </trkpt>
      <trkpt lat="46.529071" lon="12.006313">
        <ele>2758.65</ele>
        <time>2026-09-01T09:09:09.000Z</time>
      </trkpt>
      <trkpt lat="46.529135" lon="12.006206">
        <ele>2757.93</ele>
        <time>2026-09-01T09:09:17.000Z</time>
      </trkpt>
      <trkpt lat="46.529264" lon="12.006066">
        <ele>2757.1</ele>
        <time>2026-09-01T09:09:30.000Z</time>
      </trkpt>
      <trkpt lat="46.52927" lon="12.006045">
        <ele>2756.35</ele>
        <time>2026-09-01T09:09:31.000Z</time>
      </trkpt>
      <trkpt lat="46.529345" lon="12.005895">
        <ele>2756.13</ele>
        <time>2026-09-01T09:09:40.000Z</time>
      </trkpt>
      <trkpt lat="46.529388" lon="12.005852">
        <ele>2756</ele>
        <time>2026-09-01T09:09:44.000Z</time>
      </trkpt>
      <trkpt lat="46.529441" lon="12.005777">
        <ele>2755.83</ele>
        <time>2026-09-01T09:09:50.000Z</time>
      </trkpt>
      <trkpt lat="46.529522" lon="12.005723">
        <ele>2755.15</ele>
        <time>2026-09-01T09:09:56.000Z</time>
      </trkpt>
      <trkpt lat="46.529548" lon="12.005702">
        <ele>2754.9</ele>
        <time>2026-09-01T09:09:58.000Z</time>
      </trkpt>
      <trkpt lat="46.529591" lon="12.005669">
        <ele>2754.25</ele>
        <time>2026-09-01T09:10:02.000Z</time>
      </trkpt>
      <trkpt lat="46.529634" lon="12.005594">
        <ele>2754.15</ele>
        <time>2026-09-01T09:10:07.000Z</time>
      </trkpt>
      <trkpt lat="46.529624" lon="12.005487">
        <ele>2754.55</ele>
        <time>2026-09-01T09:10:13.000Z</time>
      </trkpt>
      <trkpt lat="46.529597" lon="12.005315">
        <ele>2753.88</ele>
        <time>2026-09-01T09:10:22.000Z</time>
      </trkpt>
      <trkpt lat="46.529565" lon="12.00523">
        <ele>2753.18</ele>
        <time>2026-09-01T09:10:27.000Z</time>
      </trkpt>
      <trkpt lat="46.529554" lon="12.005187">
        <ele>2753</ele>
        <time>2026-09-01T09:10:29.000Z</time>
      </trkpt>
      <trkpt lat="46.529559" lon="12.005133">
        <ele>2752.45</ele>
        <time>2026-09-01T09:10:32.000Z</time>
      </trkpt>
      <trkpt lat="46.52957" lon="12.005079">
        <ele>2752.4</ele>
        <time>2026-09-01T09:10:34.000Z</time>
      </trkpt>
      <trkpt lat="46.529607" lon="12.004972">
        <ele>2752.5</ele>
        <time>2026-09-01T09:10:41.000Z</time>
      </trkpt>
      <trkpt lat="46.529661" lon="12.004833">
        <ele>2753.2</ele>
        <time>2026-09-01T09:10:49.000Z</time>
      </trkpt>
      <trkpt lat="46.529699" lon="12.00479">
        <ele>2754.03</ele>
        <time>2026-09-01T09:10:53.000Z</time>
      </trkpt>
      <trkpt lat="46.52972" lon="12.004768">
        <ele>2754.78</ele>
        <time>2026-09-01T09:10:55.000Z</time>
      </trkpt>
      <trkpt lat="46.529731" lon="12.004747">
        <ele>2755.05</ele>
        <time>2026-09-01T09:10:57.000Z</time>
      </trkpt>
      <trkpt lat="46.529736" lon="12.004704">
        <ele>2755.78</ele>
        <time>2026-09-01T09:11:00.000Z</time>
      </trkpt>
      <trkpt lat="46.529731" lon="12.004672">
        <ele>2756.08</ele>
        <time>2026-09-01T09:11:02.000Z</time>
      </trkpt>
      <trkpt lat="46.529736" lon="12.004586">
        <ele>2756.8</ele>
        <time>2026-09-01T09:11:06.000Z</time>
      </trkpt>
      <trkpt lat="46.529758" lon="12.004543">
        <ele>2757</ele>
        <time>2026-09-01T09:11:09.000Z</time>
      </trkpt>
      <trkpt lat="46.529752" lon="12.004446">
        <ele>2757.2</ele>
        <time>2026-09-01T09:11:15.000Z</time>
      </trkpt>
      <trkpt lat="46.529763" lon="12.004403">
        <ele>2757.93</ele>
        <time>2026-09-01T09:11:18.000Z</time>
      </trkpt>
      <trkpt lat="46.529768" lon="12.004296">
        <ele>2758.23</ele>
        <time>2026-09-01T09:11:24.000Z</time>
      </trkpt>
      <trkpt lat="46.529752" lon="12.004253">
        <ele>2758.95</ele>
        <time>2026-09-01T09:11:28.000Z</time>
      </trkpt>
      <trkpt lat="46.529731" lon="12.004221">
        <ele>2759.25</ele>
        <time>2026-09-01T09:11:31.000Z</time>
      </trkpt>
      <trkpt lat="46.529725" lon="12.004167">
        <ele>2760.05</ele>
        <time>2026-09-01T09:11:34.000Z</time>
      </trkpt>
      <trkpt lat="46.529725" lon="12.004103">
        <ele>2760.95</ele>
        <time>2026-09-01T09:11:38.000Z</time>
      </trkpt>
      <trkpt lat="46.529736" lon="12.004017">
        <ele>2761.78</ele>
        <time>2026-09-01T09:11:45.000Z</time>
      </trkpt>
      <trkpt lat="46.529725" lon="12.003974">
        <ele>2762.1</ele>
        <time>2026-09-01T09:11:49.000Z</time>
      </trkpt>
      <trkpt lat="46.52972" lon="12.003899">
        <ele>2762.85</ele>
        <time>2026-09-01T09:11:53.000Z</time>
      </trkpt>
      <trkpt lat="46.529736" lon="12.003846">
        <ele>2763.2</ele>
        <time>2026-09-01T09:11:56.000Z</time>
      </trkpt>
      <trkpt lat="46.52972" lon="12.00376">
        <ele>2764.03</ele>
        <time>2026-09-01T09:12:02.000Z</time>
      </trkpt>
      <trkpt lat="46.529699" lon="12.003685">
        <ele>2764.85</ele>
        <time>2026-09-01T09:12:08.000Z</time>
      </trkpt>
      <trkpt lat="46.529688" lon="12.003663">
        <ele>2765.15</ele>
        <time>2026-09-01T09:12:10.000Z</time>
      </trkpt>
      <trkpt lat="46.529688" lon="12.003588">
        <ele>2765.9</ele>
        <time>2026-09-01T09:12:15.000Z</time>
      </trkpt>
      <trkpt lat="46.529688" lon="12.003577">
        <ele>2766.53</ele>
        <time>2026-09-01T09:12:16.000Z</time>
      </trkpt>
      <trkpt lat="46.529693" lon="12.003481">
        <ele>2766.6</ele>
        <time>2026-09-01T09:12:23.000Z</time>
      </trkpt>
      <trkpt lat="46.529704" lon="12.003416">
        <ele>2767.05</ele>
        <time>2026-09-01T09:12:28.000Z</time>
      </trkpt>
      <trkpt lat="46.529709" lon="12.003298">
        <ele>2766.83</ele>
        <time>2026-09-01T09:12:38.000Z</time>
      </trkpt>
      <trkpt lat="46.529736" lon="12.003255">
        <ele>2765.2</ele>
        <time>2026-09-01T09:15:17.000Z</time>
      </trkpt>
      <trkpt lat="46.529624" lon="12.003438">
        <ele>2762.4</ele>
        <time>2026-09-01T09:20:38.000Z</time>
      </trkpt>
      <trkpt lat="46.529634" lon="12.003438">
        <ele>2760.63</ele>
        <time>2026-09-01T09:31:58.000Z</time>
      </trkpt>
      <trkpt lat="46.529725" lon="12.003492">
        <ele>2759.65</ele>
        <time>2026-09-01T09:37:10.000Z</time>
      </trkpt>
      <trkpt lat="46.529742" lon="12.003502">
        <ele>2759.23</ele>
        <time>2026-09-01T09:37:12.000Z</time>
      </trkpt>
      <trkpt lat="46.529768" lon="12.003545">
        <ele>2758.38</ele>
        <time>2026-09-01T09:37:18.000Z</time>
      </trkpt>
      <trkpt lat="46.529763" lon="12.003588">
        <ele>2757.98</ele>
        <time>2026-09-01T09:37:21.000Z</time>
      </trkpt>
      <trkpt lat="46.529747" lon="12.003642">
        <ele>2757.25</ele>
        <time>2026-09-01T09:37:24.000Z</time>
      </trkpt>
      <trkpt lat="46.529731" lon="12.003674">
        <ele>2757.05</ele>
        <time>2026-09-01T09:37:29.000Z</time>
      </trkpt>
      <trkpt lat="46.529747" lon="12.003695">
        <ele>2756.95</ele>
        <time>2026-09-01T09:37:32.000Z</time>
      </trkpt>
      <trkpt lat="46.529747" lon="12.003738">
        <ele>2756.75</ele>
        <time>2026-09-01T09:37:35.000Z</time>
      </trkpt>
      <trkpt lat="46.529725" lon="12.003835">
        <ele>2756.08</ele>
        <time>2026-09-01T09:37:42.000Z</time>
      </trkpt>
      <trkpt lat="46.529725" lon="12.003888">
        <ele>2755.8</ele>
        <time>2026-09-01T09:37:46.000Z</time>
      </trkpt>
      <trkpt lat="46.529742" lon="12.003931">
        <ele>2755.13</ele>
        <time>2026-09-01T09:37:50.000Z</time>
      </trkpt>
      <trkpt lat="46.529747" lon="12.003964">
        <ele>2754.85</ele>
        <time>2026-09-01T09:37:52.000Z</time>
      </trkpt>
      <trkpt lat="46.529763" lon="12.004028">
        <ele>2754.15</ele>
        <time>2026-09-01T09:37:57.000Z</time>
      </trkpt>
      <trkpt lat="46.529758" lon="12.00406">
        <ele>2753.85</ele>
        <time>2026-09-01T09:37:59.000Z</time>
      </trkpt>
      <trkpt lat="46.529752" lon="12.004071">
        <ele>2753.15</ele>
        <time>2026-09-01T09:38:00.000Z</time>
      </trkpt>
      <trkpt lat="46.529752" lon="12.004114">
        <ele>2752.85</ele>
        <time>2026-09-01T09:38:03.000Z</time>
      </trkpt>
      <trkpt lat="46.529747" lon="12.004178">
        <ele>2752.15</ele>
        <time>2026-09-01T09:38:07.000Z</time>
      </trkpt>
      <trkpt lat="46.529752" lon="12.00421">
        <ele>2751.85</ele>
        <time>2026-09-01T09:38:10.000Z</time>
      </trkpt>
      <trkpt lat="46.529774" lon="12.004253">
        <ele>2751.15</ele>
        <time>2026-09-01T09:38:13.000Z</time>
      </trkpt>
      <trkpt lat="46.529785" lon="12.004307">
        <ele>2750.85</ele>
        <time>2026-09-01T09:38:17.000Z</time>
      </trkpt>
      <trkpt lat="46.529779" lon="12.004403">
        <ele>2750.15</ele>
        <time>2026-09-01T09:38:23.000Z</time>
      </trkpt>
      <trkpt lat="46.529779" lon="12.004489">
        <ele>2749.85</ele>
        <time>2026-09-01T09:38:29.000Z</time>
      </trkpt>
      <trkpt lat="46.529779" lon="12.004554">
        <ele>2749.15</ele>
        <time>2026-09-01T09:38:33.000Z</time>
      </trkpt>
      <trkpt lat="46.529763" lon="12.004586">
        <ele>2748.88</ele>
        <time>2026-09-01T09:38:35.000Z</time>
      </trkpt>
      <trkpt lat="46.529752" lon="12.00465">
        <ele>2748.2</ele>
        <time>2026-09-01T09:38:40.000Z</time>
      </trkpt>
      <trkpt lat="46.529742" lon="12.004758">
        <ele>2747.93</ele>
        <time>2026-09-01T09:38:46.000Z</time>
      </trkpt>
      <trkpt lat="46.52972" lon="12.00479">
        <ele>2747.25</ele>
        <time>2026-09-01T09:38:49.000Z</time>
      </trkpt>
      <trkpt lat="46.529699" lon="12.0048">
        <ele>2747.05</ele>
        <time>2026-09-01T09:38:51.000Z</time>
      </trkpt>
      <trkpt lat="46.529683" lon="12.004822">
        <ele>2746.93</ele>
        <time>2026-09-01T09:38:53.000Z</time>
      </trkpt>
      <trkpt lat="46.529629" lon="12.004822">
        <ele>2746.75</ele>
        <time>2026-09-01T09:38:58.000Z</time>
      </trkpt>
      <trkpt lat="46.52957" lon="12.004758">
        <ele>2746.1</ele>
        <time>2026-09-01T09:39:04.000Z</time>
      </trkpt>
      <trkpt lat="46.529581" lon="12.004833">
        <ele>2745.88</ele>
        <time>2026-09-01T09:39:10.000Z</time>
      </trkpt>
      <trkpt lat="46.529586" lon="12.004865">
        <ele>2745.2</ele>
        <time>2026-09-01T09:39:13.000Z</time>
      </trkpt>
      <trkpt lat="46.529591" lon="12.004972">
        <ele>2744.63</ele>
        <time>2026-09-01T09:39:18.000Z</time>
      </trkpt>
      <trkpt lat="46.529591" lon="12.00509">
        <ele>2745.13</ele>
        <time>2026-09-01T09:39:24.000Z</time>
      </trkpt>
      <trkpt lat="46.529581" lon="12.005144">
        <ele>2745.2</ele>
        <time>2026-09-01T09:39:27.000Z</time>
      </trkpt>
      <trkpt lat="46.529575" lon="12.00523">
        <ele>2745.3</ele>
        <time>2026-09-01T09:39:32.000Z</time>
      </trkpt>
      <trkpt lat="46.529607" lon="12.005294">
        <ele>2746</ele>
        <time>2026-09-01T09:39:37.000Z</time>
      </trkpt>
      <trkpt lat="46.529618" lon="12.005348">
        <ele>2746.75</ele>
        <time>2026-09-01T09:39:40.000Z</time>
      </trkpt>
      <trkpt lat="46.52965" lon="12.005541">
        <ele>2746.93</ele>
        <time>2026-09-01T09:40:01.000Z</time>
      </trkpt>
      <trkpt lat="46.52964" lon="12.005637">
        <ele>2747.03</ele>
        <time>2026-09-01T09:40:07.000Z</time>
      </trkpt>
      <trkpt lat="46.52957" lon="12.005712">
        <ele>2747.2</ele>
        <time>2026-09-01T09:40:13.000Z</time>
      </trkpt>
      <trkpt lat="46.529473" lon="12.005777">
        <ele>2747.95</ele>
        <time>2026-09-01T09:40:21.000Z</time>
      </trkpt>
      <trkpt lat="46.529436" lon="12.00582">
        <ele>2748.63</ele>
        <time>2026-09-01T09:40:25.000Z</time>
      </trkpt>
      <trkpt lat="46.529414" lon="12.005863">
        <ele>2748.3</ele>
        <time>2026-09-01T09:40:28.000Z</time>
      </trkpt>
      <trkpt lat="46.529339" lon="12.00597">
        <ele>2748.88</ele>
        <time>2026-09-01T09:40:37.000Z</time>
      </trkpt>
      <trkpt lat="46.529312" lon="12.006024">
        <ele>2749.05</ele>
        <time>2026-09-01T09:40:41.000Z</time>
      </trkpt>
      <trkpt lat="46.529296" lon="12.006045">
        <ele>2749.23</ele>
        <time>2026-09-01T09:40:43.000Z</time>
      </trkpt>
      <trkpt lat="46.529178" lon="12.006313">
        <ele>2749.95</ele>
        <time>2026-09-01T09:41:01.000Z</time>
      </trkpt>
      <trkpt lat="46.529162" lon="12.006345">
        <ele>2750.55</ele>
        <time>2026-09-01T09:41:06.000Z</time>
      </trkpt>
      <trkpt lat="46.529146" lon="12.006388">
        <ele>2750.15</ele>
        <time>2026-09-01T09:41:14.000Z</time>
      </trkpt>
      <trkpt lat="46.529087" lon="12.006549">
        <ele>2750.63</ele>
        <time>2026-09-01T09:41:24.000Z</time>
      </trkpt>
      <trkpt lat="46.529028" lon="12.006635">
        <ele>2750.65</ele>
        <time>2026-09-01T09:41:31.000Z</time>
      </trkpt>
      <trkpt lat="46.528932" lon="12.006817">
        <ele>2750.53</ele>
        <time>2026-09-01T09:41:44.000Z</time>
      </trkpt>
      <trkpt lat="46.528942" lon="12.00686">
        <ele>2749.8</ele>
        <time>2026-09-01T09:41:48.000Z</time>
      </trkpt>
      <trkpt lat="46.528932" lon="12.006957">
        <ele>2748.95</ele>
        <time>2026-09-01T09:41:54.000Z</time>
      </trkpt>
      <trkpt lat="46.528953" lon="12.007">
        <ele>2748.15</ele>
        <time>2026-09-01T09:41:58.000Z</time>
      </trkpt>
      <trkpt lat="46.528958" lon="12.007032">
        <ele>2747.38</ele>
        <time>2026-09-01T09:42:00.000Z</time>
      </trkpt>
      <trkpt lat="46.528953" lon="12.007096">
        <ele>2747.15</ele>
        <time>2026-09-01T09:42:03.000Z</time>
      </trkpt>
      <trkpt lat="46.528915" lon="12.007129">
        <ele>2746.93</ele>
        <time>2026-09-01T09:42:06.000Z</time>
      </trkpt>
      <trkpt lat="46.528835" lon="12.007161">
        <ele>2746.28</ele>
        <time>2026-09-01T09:42:11.000Z</time>
      </trkpt>
      <trkpt lat="46.528771" lon="12.007193">
        <ele>2746.6</ele>
        <time>2026-09-01T09:42:17.000Z</time>
      </trkpt>
      <trkpt lat="46.528679" lon="12.007214">
        <ele>2745.95</ele>
        <time>2026-09-01T09:42:24.000Z</time>
      </trkpt>
      <trkpt lat="46.528599" lon="12.007225">
        <ele>2745.23</ele>
        <time>2026-09-01T09:42:31.000Z</time>
      </trkpt>
      <trkpt lat="46.528551" lon="12.007236">
        <ele>2744.98</ele>
        <time>2026-09-01T09:42:35.000Z</time>
      </trkpt>
      <trkpt lat="46.528513" lon="12.007247">
        <ele>2744.38</ele>
        <time>2026-09-01T09:42:39.000Z</time>
      </trkpt>
      <trkpt lat="46.528513" lon="12.007257">
        <ele>2744.78</ele>
        <time>2026-09-01T09:42:52.000Z</time>
      </trkpt>
      <trkpt lat="46.528497" lon="12.007279">
        <ele>2744.65</ele>
        <time>2026-09-01T09:42:54.000Z</time>
      </trkpt>
      <trkpt lat="46.52847" lon="12.007311">
        <ele>2743.9</ele>
        <time>2026-09-01T09:42:57.000Z</time>
      </trkpt>
      <trkpt lat="46.528427" lon="12.007343">
        <ele>2743.18</ele>
        <time>2026-09-01T09:43:01.000Z</time>
      </trkpt>
      <trkpt lat="46.528347" lon="12.007397">
        <ele>2742.95</ele>
        <time>2026-09-01T09:43:07.000Z</time>
      </trkpt>
      <trkpt lat="46.528256" lon="12.007418">
        <ele>2742.28</ele>
        <time>2026-09-01T09:43:14.000Z</time>
      </trkpt>
      <trkpt lat="46.528202" lon="12.007461">
        <ele>2742.08</ele>
        <time>2026-09-01T09:43:20.000Z</time>
      </trkpt>
      <trkpt lat="46.528191" lon="12.007579">
        <ele>2741.93</ele>
        <time>2026-09-01T09:43:27.000Z</time>
      </trkpt>
      <trkpt lat="46.528122" lon="12.007665">
        <ele>2741.8</ele>
        <time>2026-09-01T09:43:34.000Z</time>
      </trkpt>
      <trkpt lat="46.5281" lon="12.007676">
        <ele>2741.55</ele>
        <time>2026-09-01T09:43:36.000Z</time>
      </trkpt>
      <trkpt lat="46.528036" lon="12.007708">
        <ele>2740.3</ele>
        <time>2026-09-01T09:43:42.000Z</time>
      </trkpt>
      <trkpt lat="46.527961" lon="12.007729">
        <ele>2740</ele>
        <time>2026-09-01T09:43:50.000Z</time>
      </trkpt>
      <trkpt lat="46.527945" lon="12.007729">
        <ele>2739.35</ele>
        <time>2026-09-01T09:43:54.000Z</time>
      </trkpt>
      <trkpt lat="46.527875" lon="12.007772">
        <ele>2739.18</ele>
        <time>2026-09-01T09:44:02.000Z</time>
      </trkpt>
      <trkpt lat="46.527789" lon="12.007805">
        <ele>2739.08</ele>
        <time>2026-09-01T09:44:13.000Z</time>
      </trkpt>
      <trkpt lat="46.527741" lon="12.007901">
        <ele>2738.98</ele>
        <time>2026-09-01T09:44:32.000Z</time>
      </trkpt>
      <trkpt lat="46.52766" lon="12.007976">
        <ele>2738.93</ele>
        <time>2026-09-01T09:44:41.000Z</time>
      </trkpt>
      <trkpt lat="46.527639" lon="12.008041">
        <ele>2738.6</ele>
        <time>2026-09-01T09:44:46.000Z</time>
      </trkpt>
      <trkpt lat="46.527633" lon="12.008062">
        <ele>2737.73</ele>
        <time>2026-09-01T09:44:48.000Z</time>
      </trkpt>
      <trkpt lat="46.527633" lon="12.008116">
        <ele>2737.33</ele>
        <time>2026-09-01T09:44:53.000Z</time>
      </trkpt>
      <trkpt lat="46.527655" lon="12.008094">
        <ele>2737</ele>
        <time>2026-09-01T09:45:00.000Z</time>
      </trkpt>
      <trkpt lat="46.527703" lon="12.008137">
        <ele>2736.1</ele>
        <time>2026-09-01T09:45:05.000Z</time>
      </trkpt>
      <trkpt lat="46.527628" lon="12.007976">
        <ele>2730.95</ele>
        <time>2026-09-01T10:13:24.000Z</time>
      </trkpt>
      <trkpt lat="46.527671" lon="12.007965">
        <ele>2728.2</ele>
        <time>2026-09-01T10:14:53.000Z</time>
      </trkpt>
      <trkpt lat="46.527735" lon="12.007923">
        <ele>2727.08</ele>
        <time>2026-09-01T10:14:59.000Z</time>
      </trkpt>
      <trkpt lat="46.527767" lon="12.007847">
        <ele>2726.75</ele>
        <time>2026-09-01T10:15:05.000Z</time>
      </trkpt>
      <trkpt lat="46.527826" lon="12.007815">
        <ele>2726.9</ele>
        <time>2026-09-01T10:15:12.000Z</time>
      </trkpt>
      <trkpt lat="46.527885" lon="12.007794">
        <ele>2725.98</ele>
        <time>2026-09-01T10:15:19.000Z</time>
      </trkpt>
      <trkpt lat="46.527923" lon="12.007772">
        <ele>2725.15</ele>
        <time>2026-09-01T10:15:22.000Z</time>
      </trkpt>
      <trkpt lat="46.527939" lon="12.007805">
        <ele>2724.98</ele>
        <time>2026-09-01T10:15:25.000Z</time>
      </trkpt>
      <trkpt lat="46.52788" lon="12.007901">
        <ele>2724.83</ele>
        <time>2026-09-01T10:15:32.000Z</time>
      </trkpt>
      <trkpt lat="46.527864" lon="12.007976">
        <ele>2724.18</ele>
        <time>2026-09-01T10:15:37.000Z</time>
      </trkpt>
      <trkpt lat="46.527875" lon="12.007955">
        <ele>2723.9</ele>
        <time>2026-09-01T10:15:39.000Z</time>
      </trkpt>
      <trkpt lat="46.52795" lon="12.007858">
        <ele>2723.23</ele>
        <time>2026-09-01T10:15:47.000Z</time>
      </trkpt>
      <trkpt lat="46.527998" lon="12.007794">
        <ele>2723.05</ele>
        <time>2026-09-01T10:15:52.000Z</time>
      </trkpt>
      <trkpt lat="46.528014" lon="12.007826">
        <ele>2722.93</ele>
        <time>2026-09-01T10:15:54.000Z</time>
      </trkpt>
      <trkpt lat="46.527971" lon="12.007923">
        <ele>2722.73</ele>
        <time>2026-09-01T10:16:00.000Z</time>
      </trkpt>
      <trkpt lat="46.52795" lon="12.007976">
        <ele>2722.05</ele>
        <time>2026-09-01T10:16:03.000Z</time>
      </trkpt>
      <trkpt lat="46.527934" lon="12.008019">
        <ele>2721.8</ele>
        <time>2026-09-01T10:16:06.000Z</time>
      </trkpt>
      <trkpt lat="46.527896" lon="12.008126">
        <ele>2721.08</ele>
        <time>2026-09-01T10:16:13.000Z</time>
      </trkpt>
      <trkpt lat="46.527853" lon="12.008319">
        <ele>2720.33</ele>
        <time>2026-09-01T10:16:24.000Z</time>
      </trkpt>
      <trkpt lat="46.52781" lon="12.00847">
        <ele>2720.13</ele>
        <time>2026-09-01T10:16:34.000Z</time>
      </trkpt>
      <trkpt lat="46.527767" lon="12.008513">
        <ele>2720</ele>
        <time>2026-09-01T10:16:41.000Z</time>
      </trkpt>
      <trkpt lat="46.527735" lon="12.008566">
        <ele>2719.9</ele>
        <time>2026-09-01T10:16:45.000Z</time>
      </trkpt>
      <trkpt lat="46.527725" lon="12.008598">
        <ele>2719.7</ele>
        <time>2026-09-01T10:16:47.000Z</time>
      </trkpt>
      <trkpt lat="46.527692" lon="12.008716">
        <ele>2718.95</ele>
        <time>2026-09-01T10:16:54.000Z</time>
      </trkpt>
      <trkpt lat="46.52766" lon="12.008813">
        <ele>2718.2</ele>
        <time>2026-09-01T10:17:00.000Z</time>
      </trkpt>
      <trkpt lat="46.527666" lon="12.008856">
        <ele>2718</ele>
        <time>2026-09-01T10:17:06.000Z</time>
      </trkpt>
      <trkpt lat="46.527692" lon="12.008867">
        <ele>2717.78</ele>
        <time>2026-09-01T10:17:09.000Z</time>
      </trkpt>
      <trkpt lat="46.527703" lon="12.008899">
        <ele>2717.08</ele>
        <time>2026-09-01T10:17:11.000Z</time>
      </trkpt>
      <trkpt lat="46.527703" lon="12.008931">
        <ele>2716.8</ele>
        <time>2026-09-01T10:17:13.000Z</time>
      </trkpt>
      <trkpt lat="46.527687" lon="12.009038">
        <ele>2716.05</ele>
        <time>2026-09-01T10:17:19.000Z</time>
      </trkpt>
      <trkpt lat="46.527671" lon="12.009146">
        <ele>2715.28</ele>
        <time>2026-09-01T10:17:25.000Z</time>
      </trkpt>
      <trkpt lat="46.527676" lon="12.009178">
        <ele>2714.63</ele>
        <time>2026-09-01T10:17:27.000Z</time>
      </trkpt>
      <trkpt lat="46.527649" lon="12.00921">
        <ele>2715.03</ele>
        <time>2026-09-01T10:17:30.000Z</time>
      </trkpt>
      <trkpt lat="46.527612" lon="12.009221">
        <ele>2715</ele>
        <time>2026-09-01T10:17:33.000Z</time>
      </trkpt>
      <trkpt lat="46.527564" lon="12.00921">
        <ele>2714.98</ele>
        <time>2026-09-01T10:17:40.000Z</time>
      </trkpt>
      <trkpt lat="46.527558" lon="12.009178">
        <ele>2715.35</ele>
        <time>2026-09-01T10:17:45.000Z</time>
      </trkpt>
      <trkpt lat="46.527548" lon="12.009146">
        <ele>2714.63</ele>
        <time>2026-09-01T10:17:54.000Z</time>
      </trkpt>
      <trkpt lat="46.527542" lon="12.009124">
        <ele>2713.75</ele>
        <time>2026-09-01T10:17:58.000Z</time>
      </trkpt>
      <trkpt lat="46.527537" lon="12.009135">
        <ele>2712.9</ele>
        <time>2026-09-01T10:18:02.000Z</time>
      </trkpt>
      <trkpt lat="46.527521" lon="12.009178">
        <ele>2712.45</ele>
        <time>2026-09-01T10:18:07.000Z</time>
      </trkpt>
      <trkpt lat="46.527526" lon="12.009178">
        <ele>2710.9</ele>
        <time>2026-09-01T10:18:11.000Z</time>
      </trkpt>
      <trkpt lat="46.527499" lon="12.009199">
        <ele>2709.23</ele>
        <time>2026-09-01T10:18:17.000Z</time>
      </trkpt>
      <trkpt lat="46.527478" lon="12.009199">
        <ele>2708.13</ele>
        <time>2026-09-01T10:18:22.000Z</time>
      </trkpt>
      <trkpt lat="46.527446" lon="12.009189">
        <ele>2707.1</ele>
        <time>2026-09-01T10:18:28.000Z</time>
      </trkpt>
      <trkpt lat="46.527424" lon="12.009199">
        <ele>2706.1</ele>
        <time>2026-09-01T10:18:39.000Z</time>
      </trkpt>
      <trkpt lat="46.527424" lon="12.009253">
        <ele>2705.05</ele>
        <time>2026-09-01T10:18:46.000Z</time>
      </trkpt>
      <trkpt lat="46.527435" lon="12.009296">
        <ele>2704.03</ele>
        <time>2026-09-01T10:18:50.000Z</time>
      </trkpt>
      <trkpt lat="46.527419" lon="12.009328">
        <ele>2703.03</ele>
        <time>2026-09-01T10:18:55.000Z</time>
      </trkpt>
      <trkpt lat="46.527419" lon="12.009317">
        <ele>2702.13</ele>
        <time>2026-09-01T10:18:56.000Z</time>
      </trkpt>
      <trkpt lat="46.527408" lon="12.009296">
        <ele>2701.65</ele>
        <time>2026-09-01T10:18:59.000Z</time>
      </trkpt>
      <trkpt lat="46.527397" lon="12.009242">
        <ele>2700.18</ele>
        <time>2026-09-01T10:19:11.000Z</time>
      </trkpt>
      <trkpt lat="46.527376" lon="12.009242">
        <ele>2699.1</ele>
        <time>2026-09-01T10:19:15.000Z</time>
      </trkpt>
      <trkpt lat="46.527387" lon="12.009296">
        <ele>2698.18</ele>
        <time>2026-09-01T10:19:20.000Z</time>
      </trkpt>
      <trkpt lat="46.527403" lon="12.009339">
        <ele>2697.75</ele>
        <time>2026-09-01T10:19:23.000Z</time>
      </trkpt>
      <trkpt lat="46.527435" lon="12.009414">
        <ele>2696.83</ele>
        <time>2026-09-01T10:19:28.000Z</time>
      </trkpt>
      <trkpt lat="46.527446" lon="12.009457">
        <ele>2695.73</ele>
        <time>2026-09-01T10:19:31.000Z</time>
      </trkpt>
      <trkpt lat="46.527489" lon="12.00951">
        <ele>2694.15</ele>
        <time>2026-09-01T10:19:36.000Z</time>
      </trkpt>
      <trkpt lat="46.527505" lon="12.009564">
        <ele>2693.08</ele>
        <time>2026-09-01T10:19:39.000Z</time>
      </trkpt>
      <trkpt lat="46.527515" lon="12.00965">
        <ele>2692.08</ele>
        <time>2026-09-01T10:19:44.000Z</time>
      </trkpt>
      <trkpt lat="46.527515" lon="12.009693">
        <ele>2691.08</ele>
        <time>2026-09-01T10:19:49.000Z</time>
      </trkpt>
      <trkpt lat="46.52751" lon="12.009736">
        <ele>2690.08</ele>
        <time>2026-09-01T10:19:53.000Z</time>
      </trkpt>
      <trkpt lat="46.527515" lon="12.009789">
        <ele>2689.08</ele>
        <time>2026-09-01T10:19:57.000Z</time>
      </trkpt>
      <trkpt lat="46.527521" lon="12.009875">
        <ele>2688.13</ele>
        <time>2026-09-01T10:20:02.000Z</time>
      </trkpt>
      <trkpt lat="46.527526" lon="12.009907">
        <ele>2687.28</ele>
        <time>2026-09-01T10:20:04.000Z</time>
      </trkpt>
      <trkpt lat="46.527526" lon="12.00994">
        <ele>2686.93</ele>
        <time>2026-09-01T10:20:07.000Z</time>
      </trkpt>
      <trkpt lat="46.527526" lon="12.00995">
        <ele>2686.08</ele>
        <time>2026-09-01T10:20:09.000Z</time>
      </trkpt>
      <trkpt lat="46.527521" lon="12.009972">
        <ele>2685.25</ele>
        <time>2026-09-01T10:20:11.000Z</time>
      </trkpt>
      <trkpt lat="46.527515" lon="12.010025">
        <ele>2685</ele>
        <time>2026-09-01T10:20:15.000Z</time>
      </trkpt>
      <trkpt lat="46.527515" lon="12.01009">
        <ele>2684.75</ele>
        <time>2026-09-01T10:20:31.000Z</time>
      </trkpt>
      <trkpt lat="46.527521" lon="12.010176">
        <ele>2683.95</ele>
        <time>2026-09-01T10:20:37.000Z</time>
      </trkpt>
      <trkpt lat="46.527564" lon="12.010229">
        <ele>2683.13</ele>
        <time>2026-09-01T10:20:42.000Z</time>
      </trkpt>
      <trkpt lat="46.527574" lon="12.010261">
        <ele>2682.83</ele>
        <time>2026-09-01T10:20:44.000Z</time>
      </trkpt>
      <trkpt lat="46.52759" lon="12.010304">
        <ele>2682.03</ele>
        <time>2026-09-01T10:20:51.000Z</time>
      </trkpt>
      <trkpt lat="46.527601" lon="12.010347">
        <ele>2681.2</ele>
        <time>2026-09-01T10:20:56.000Z</time>
      </trkpt>
      <trkpt lat="46.527633" lon="12.01039">
        <ele>2680.85</ele>
        <time>2026-09-01T10:21:00.000Z</time>
      </trkpt>
      <trkpt lat="46.527676" lon="12.010455">
        <ele>2680.13</ele>
        <time>2026-09-01T10:21:05.000Z</time>
      </trkpt>
      <trkpt lat="46.527692" lon="12.010476">
        <ele>2679.83</ele>
        <time>2026-09-01T10:21:07.000Z</time>
      </trkpt>
      <trkpt lat="46.527692" lon="12.010615">
        <ele>2679.03</ele>
        <time>2026-09-01T10:21:15.000Z</time>
      </trkpt>
      <trkpt lat="46.527687" lon="12.01068">
        <ele>2678.18</ele>
        <time>2026-09-01T10:21:20.000Z</time>
      </trkpt>
      <trkpt lat="46.527676" lon="12.010701">
        <ele>2677.48</ele>
        <time>2026-09-01T10:21:28.000Z</time>
      </trkpt>
      <trkpt lat="46.527703" lon="12.010691">
        <ele>2677.73</ele>
        <time>2026-09-01T10:21:36.000Z</time>
      </trkpt>
      <trkpt lat="46.52773" lon="12.010776">
        <ele>2677.08</ele>
        <time>2026-09-01T10:21:43.000Z</time>
      </trkpt>
      <trkpt lat="46.527725" lon="12.010819">
        <ele>2676.83</ele>
        <time>2026-09-01T10:21:45.000Z</time>
      </trkpt>
      <trkpt lat="46.527708" lon="12.010841">
        <ele>2676.58</ele>
        <time>2026-09-01T10:21:48.000Z</time>
      </trkpt>
      <trkpt lat="46.527703" lon="12.010873">
        <ele>2675.68</ele>
        <time>2026-09-01T10:21:56.000Z</time>
      </trkpt>
      <trkpt lat="46.527725" lon="12.010905">
        <ele>2674.3</ele>
        <time>2026-09-01T10:22:01.000Z</time>
      </trkpt>
      <trkpt lat="46.527714" lon="12.010927">
        <ele>2673.88</ele>
        <time>2026-09-01T10:22:04.000Z</time>
      </trkpt>
      <trkpt lat="46.527692" lon="12.010937">
        <ele>2673.03</ele>
        <time>2026-09-01T10:22:08.000Z</time>
      </trkpt>
      <trkpt lat="46.527671" lon="12.010937">
        <ele>2672.1</ele>
        <time>2026-09-01T10:22:13.000Z</time>
      </trkpt>
      <trkpt lat="46.527671" lon="12.01098">
        <ele>2671.23</ele>
        <time>2026-09-01T10:22:16.000Z</time>
      </trkpt>
      <trkpt lat="46.527676" lon="12.011034">
        <ele>2670.85</ele>
        <time>2026-09-01T10:22:23.000Z</time>
      </trkpt>
      <trkpt lat="46.527676" lon="12.011055">
        <ele>2670</ele>
        <time>2026-09-01T10:22:26.000Z</time>
      </trkpt>
      <trkpt lat="46.527676" lon="12.011066">
        <ele>2669.15</ele>
        <time>2026-09-01T10:22:30.000Z</time>
      </trkpt>
      <trkpt lat="46.527698" lon="12.01113">
        <ele>2668.8</ele>
        <time>2026-09-01T10:22:36.000Z</time>
      </trkpt>
      <trkpt lat="46.527746" lon="12.011152">
        <ele>2667.95</ele>
        <time>2026-09-01T10:22:42.000Z</time>
      </trkpt>
      <trkpt lat="46.527751" lon="12.011141">
        <ele>2667.05</ele>
        <time>2026-09-01T10:22:43.000Z</time>
      </trkpt>
      <trkpt lat="46.527767" lon="12.011152">
        <ele>2666.2</ele>
        <time>2026-09-01T10:22:45.000Z</time>
      </trkpt>
      <trkpt lat="46.527762" lon="12.011195">
        <ele>2665.88</ele>
        <time>2026-09-01T10:22:48.000Z</time>
      </trkpt>
      <trkpt lat="46.527746" lon="12.011248">
        <ele>2665.05</ele>
        <time>2026-09-01T10:22:54.000Z</time>
      </trkpt>
      <trkpt lat="46.527751" lon="12.011313">
        <ele>2664.2</ele>
        <time>2026-09-01T10:23:01.000Z</time>
      </trkpt>
      <trkpt lat="46.527741" lon="12.011345">
        <ele>2663.85</ele>
        <time>2026-09-01T10:23:03.000Z</time>
      </trkpt>
      <trkpt lat="46.527757" lon="12.011366">
        <ele>2663.13</ele>
        <time>2026-09-01T10:23:12.000Z</time>
      </trkpt>
      <trkpt lat="46.527784" lon="12.011377">
        <ele>2662.85</ele>
        <time>2026-09-01T10:23:16.000Z</time>
      </trkpt>
      <trkpt lat="46.5278" lon="12.011388">
        <ele>2662.08</ele>
        <time>2026-09-01T10:23:18.000Z</time>
      </trkpt>
      <trkpt lat="46.527837" lon="12.011431">
        <ele>2661.23</ele>
        <time>2026-09-01T10:23:22.000Z</time>
      </trkpt>
      <trkpt lat="46.5278" lon="12.011474">
        <ele>2660.53</ele>
        <time>2026-09-01T10:23:27.000Z</time>
      </trkpt>
      <trkpt lat="46.527773" lon="12.011506">
        <ele>2660.88</ele>
        <time>2026-09-01T10:23:34.000Z</time>
      </trkpt>
      <trkpt lat="46.527741" lon="12.011538">
        <ele>2660.83</ele>
        <time>2026-09-01T10:23:41.000Z</time>
      </trkpt>
      <trkpt lat="46.527698" lon="12.01156">
        <ele>2660.6</ele>
        <time>2026-09-01T10:23:48.000Z</time>
      </trkpt>
      <trkpt lat="46.527676" lon="12.011581">
        <ele>2659.8</ele>
        <time>2026-09-01T10:23:53.000Z</time>
      </trkpt>
      <trkpt lat="46.527644" lon="12.011613">
        <ele>2658.93</ele>
        <time>2026-09-01T10:23:58.000Z</time>
      </trkpt>
      <trkpt lat="46.527617" lon="12.011624">
        <ele>2658.18</ele>
        <time>2026-09-01T10:24:00.000Z</time>
      </trkpt>
      <trkpt lat="46.527596" lon="12.011645">
        <ele>2657.9</ele>
        <time>2026-09-01T10:24:02.000Z</time>
      </trkpt>
      <trkpt lat="46.527564" lon="12.011656">
        <ele>2657.15</ele>
        <time>2026-09-01T10:24:07.000Z</time>
      </trkpt>
      <trkpt lat="46.527553" lon="12.011678">
        <ele>2656.33</ele>
        <time>2026-09-01T10:24:09.000Z</time>
      </trkpt>
      <trkpt lat="46.527499" lon="12.01171">
        <ele>2655.68</ele>
        <time>2026-09-01T10:24:14.000Z</time>
      </trkpt>
      <trkpt lat="46.527456" lon="12.011731">
        <ele>2656.13</ele>
        <time>2026-09-01T10:24:19.000Z</time>
      </trkpt>
      <trkpt lat="46.527419" lon="12.011742">
        <ele>2656.28</ele>
        <time>2026-09-01T10:24:23.000Z</time>
      </trkpt>
      <trkpt lat="46.527397" lon="12.011753">
        <ele>2656.85</ele>
        <time>2026-09-01T10:24:25.000Z</time>
      </trkpt>
      <trkpt lat="46.527333" lon="12.011817">
        <ele>2656.98</ele>
        <time>2026-09-01T10:24:32.000Z</time>
      </trkpt>
      <trkpt lat="46.527306" lon="12.011828">
        <ele>2657.05</ele>
        <time>2026-09-01T10:24:34.000Z</time>
      </trkpt>
      <trkpt lat="46.52721" lon="12.011828">
        <ele>2657.23</ele>
        <time>2026-09-01T10:24:56.000Z</time>
      </trkpt>
      <trkpt lat="46.527161" lon="12.011849">
        <ele>2657.9</ele>
        <time>2026-09-01T10:25:00.000Z</time>
      </trkpt>
      <trkpt lat="46.527065" lon="12.011881">
        <ele>2658.15</ele>
        <time>2026-09-01T10:25:07.000Z</time>
      </trkpt>
      <trkpt lat="46.527054" lon="12.011881">
        <ele>2658.83</ele>
        <time>2026-09-01T10:25:08.000Z</time>
      </trkpt>
      <trkpt lat="46.526941" lon="12.011978">
        <ele>2652.75</ele>
        <time>2026-09-01T10:25:18.000Z</time>
      </trkpt>
      <trkpt lat="46.526915" lon="12.011946">
        <ele>2646.65</ele>
        <time>2026-09-01T10:25:21.000Z</time>
      </trkpt>
      <trkpt lat="46.526898" lon="12.011924">
        <ele>2641.05</ele>
        <time>2026-09-01T10:25:23.000Z</time>
      </trkpt>
      <trkpt lat="46.526866" lon="12.011914">
        <ele>2634.98</ele>
        <time>2026-09-01T10:25:27.000Z</time>
      </trkpt>
      <trkpt lat="46.526861" lon="12.011914">
        <ele>2610.55</ele>
        <time>2026-09-01T10:25:32.000Z</time>
      </trkpt>
      <trkpt lat="46.526105" lon="12.013652">
        <ele>2460.5</ele>
        <time>2026-09-01T10:51:53.000Z</time>
      </trkpt>
      <trkpt lat="46.52611" lon="12.013652">
        <ele>2434.6</ele>
        <time>2026-09-01T10:51:55.000Z</time>
      </trkpt>
      <trkpt lat="46.526142" lon="12.013662">
        <ele>2427.88</ele>
        <time>2026-09-01T10:51:59.000Z</time>
      </trkpt>
      <trkpt lat="46.526142" lon="12.013684">
        <ele>2420.63</ele>
        <time>2026-09-01T10:52:00.000Z</time>
      </trkpt>
      <trkpt lat="46.526153" lon="12.013705">
        <ele>2413.3</ele>
        <time>2026-09-01T10:52:03.000Z</time>
      </trkpt>
      <trkpt lat="46.526153" lon="12.013727">
        <ele>2405.3</ele>
        <time>2026-09-01T10:52:07.000Z</time>
      </trkpt>
      <trkpt lat="46.526341" lon="12.013823">
        <ele>2398.6</ele>
        <time>2026-09-01T10:52:49.000Z</time>
      </trkpt>
      <trkpt lat="46.5264" lon="12.013888">
        <ele>2397.48</ele>
        <time>2026-09-01T10:52:56.000Z</time>
      </trkpt>
      <trkpt lat="46.52641" lon="12.013984">
        <ele>2397.18</ele>
        <time>2026-09-01T10:53:02.000Z</time>
      </trkpt>
      <trkpt lat="46.52648" lon="12.013888">
        <ele>2397.18</ele>
        <time>2026-09-01T10:53:07.000Z</time>
      </trkpt>
      <trkpt lat="46.526437" lon="12.014295">
        <ele>2399.1</ele>
        <time>2026-09-01T10:54:53.000Z</time>
      </trkpt>
      <trkpt lat="46.526432" lon="12.014295">
        <ele>2398.48</ele>
        <time>2026-09-01T10:54:54.000Z</time>
      </trkpt>
      <trkpt lat="46.526416" lon="12.014328">
        <ele>2397.82</ele>
        <time>2026-09-01T10:54:57.000Z</time>
      </trkpt>
      <trkpt lat="46.526405" lon="12.01436">
        <ele>2397.65</ele>
        <time>2026-09-01T10:55:00.000Z</time>
      </trkpt>
      <trkpt lat="46.526378" lon="12.014413">
        <ele>2396.95</ele>
        <time>2026-09-01T10:55:04.000Z</time>
      </trkpt>
      <trkpt lat="46.526373" lon="12.014456">
        <ele>2396.23</ele>
        <time>2026-09-01T10:55:09.000Z</time>
      </trkpt>
      <trkpt lat="46.526383" lon="12.014489">
        <ele>2395.95</ele>
        <time>2026-09-01T10:55:16.000Z</time>
      </trkpt>
      <trkpt lat="46.526378" lon="12.014521">
        <ele>2395.68</ele>
        <time>2026-09-01T10:55:25.000Z</time>
      </trkpt>
      <trkpt lat="46.526378" lon="12.014531">
        <ele>2394.82</ele>
        <time>2026-09-01T10:55:31.000Z</time>
      </trkpt>
      <trkpt lat="46.5264" lon="12.014542">
        <ele>2393.9</ele>
        <time>2026-09-01T10:55:37.000Z</time>
      </trkpt>
      <trkpt lat="46.526421" lon="12.014574">
        <ele>2392.98</ele>
        <time>2026-09-01T10:55:45.000Z</time>
      </trkpt>
      <trkpt lat="46.526416" lon="12.014585">
        <ele>2392.07</ele>
        <time>2026-09-01T10:55:53.000Z</time>
      </trkpt>
      <trkpt lat="46.526426" lon="12.014628">
        <ele>2391.13</ele>
        <time>2026-09-01T10:55:58.000Z</time>
      </trkpt>
      <trkpt lat="46.526432" lon="12.014639">
        <ele>2390.23</ele>
        <time>2026-09-01T10:56:04.000Z</time>
      </trkpt>
      <trkpt lat="46.526442" lon="12.014671">
        <ele>2389.82</ele>
        <time>2026-09-01T10:56:10.000Z</time>
      </trkpt>
      <trkpt lat="46.526448" lon="12.014682">
        <ele>2389</ele>
        <time>2026-09-01T10:56:12.000Z</time>
      </trkpt>
      <trkpt lat="46.526442" lon="12.014757">
        <ele>2388.55</ele>
        <time>2026-09-01T10:56:20.000Z</time>
      </trkpt>
      <trkpt lat="46.526416" lon="12.014778">
        <ele>2387.1</ele>
        <time>2026-09-01T10:56:24.000Z</time>
      </trkpt>
      <trkpt lat="46.5264" lon="12.014789">
        <ele>2386.07</ele>
        <time>2026-09-01T10:56:27.000Z</time>
      </trkpt>
      <trkpt lat="46.526394" lon="12.014864">
        <ele>2385.15</ele>
        <time>2026-09-01T10:56:34.000Z</time>
      </trkpt>
      <trkpt lat="46.52641" lon="12.014939">
        <ele>2384.28</ele>
        <time>2026-09-01T10:56:41.000Z</time>
      </trkpt>
      <trkpt lat="46.526432" lon="12.014982">
        <ele>2383.9</ele>
        <time>2026-09-01T10:56:44.000Z</time>
      </trkpt>
      <trkpt lat="46.526437" lon="12.015036">
        <ele>2383.03</ele>
        <time>2026-09-01T10:56:47.000Z</time>
      </trkpt>
      <trkpt lat="46.526442" lon="12.015122">
        <ele>2382.18</ele>
        <time>2026-09-01T10:56:52.000Z</time>
      </trkpt>
      <trkpt lat="46.526453" lon="12.015154">
        <ele>2381.85</ele>
        <time>2026-09-01T10:56:54.000Z</time>
      </trkpt>
      <trkpt lat="46.526453" lon="12.015164">
        <ele>2381.03</ele>
        <time>2026-09-01T10:56:55.000Z</time>
      </trkpt>
      <trkpt lat="46.526459" lon="12.01524">
        <ele>2380.23</ele>
        <time>2026-09-01T10:57:00.000Z</time>
      </trkpt>
      <trkpt lat="46.526448" lon="12.015261">
        <ele>2379.9</ele>
        <time>2026-09-01T10:57:03.000Z</time>
      </trkpt>
      <trkpt lat="46.526442" lon="12.01524">
        <ele>2379.15</ele>
        <time>2026-09-01T10:57:04.000Z</time>
      </trkpt>
      <trkpt lat="46.526426" lon="12.015175">
        <ele>2378.82</ele>
        <time>2026-09-01T10:57:08.000Z</time>
      </trkpt>
      <trkpt lat="46.526416" lon="12.015186">
        <ele>2378.05</ele>
        <time>2026-09-01T10:57:13.000Z</time>
      </trkpt>
      <trkpt lat="46.526416" lon="12.01525">
        <ele>2377.7</ele>
        <time>2026-09-01T10:57:30.000Z</time>
      </trkpt>
      <trkpt lat="46.526416" lon="12.015293">
        <ele>2376.88</ele>
        <time>2026-09-01T10:57:32.000Z</time>
      </trkpt>
      <trkpt lat="46.526426" lon="12.015358">
        <ele>2375.95</ele>
        <time>2026-09-01T10:57:36.000Z</time>
      </trkpt>
      <trkpt lat="46.526442" lon="12.015433">
        <ele>2375.03</ele>
        <time>2026-09-01T10:57:42.000Z</time>
      </trkpt>
      <trkpt lat="46.526459" lon="12.015486">
        <ele>2374.1</ele>
        <time>2026-09-01T10:57:46.000Z</time>
      </trkpt>
      <trkpt lat="46.526475" lon="12.015572">
        <ele>2373.25</ele>
        <time>2026-09-01T10:57:51.000Z</time>
      </trkpt>
      <trkpt lat="46.526518" lon="12.015658">
        <ele>2372.9</ele>
        <time>2026-09-01T10:57:57.000Z</time>
      </trkpt>
      <trkpt lat="46.526539" lon="12.015722">
        <ele>2372.05</ele>
        <time>2026-09-01T10:58:01.000Z</time>
      </trkpt>
      <trkpt lat="46.52655" lon="12.015733">
        <ele>2371.23</ele>
        <time>2026-09-01T10:58:03.000Z</time>
      </trkpt>
      <trkpt lat="46.526566" lon="12.015765">
        <ele>2370.9</ele>
        <time>2026-09-01T10:58:05.000Z</time>
      </trkpt>
      <trkpt lat="46.526544" lon="12.015776">
        <ele>2370.13</ele>
        <time>2026-09-01T10:58:07.000Z</time>
      </trkpt>
      <trkpt lat="46.526528" lon="12.015755">
        <ele>2369.8</ele>
        <time>2026-09-01T10:58:09.000Z</time>
      </trkpt>
      <trkpt lat="46.526518" lon="12.015755">
        <ele>2369.03</ele>
        <time>2026-09-01T10:58:10.000Z</time>
      </trkpt>
      <trkpt lat="46.526485" lon="12.015733">
        <ele>2368.68</ele>
        <time>2026-09-01T10:58:13.000Z</time>
      </trkpt>
      <trkpt lat="46.526448" lon="12.015701">
        <ele>2367.75</ele>
        <time>2026-09-01T10:58:17.000Z</time>
      </trkpt>
      <trkpt lat="46.526405" lon="12.015658">
        <ele>2366.3</ele>
        <time>2026-09-01T10:58:22.000Z</time>
      </trkpt>
      <trkpt lat="46.526389" lon="12.015637">
        <ele>2365.85</ele>
        <time>2026-09-01T10:58:25.000Z</time>
      </trkpt>
      <trkpt lat="46.526378" lon="12.015615">
        <ele>2364.98</ele>
        <time>2026-09-01T10:58:27.000Z</time>
      </trkpt>
      <trkpt lat="46.526351" lon="12.015583">
        <ele>2364.03</ele>
        <time>2026-09-01T10:58:31.000Z</time>
      </trkpt>
      <trkpt lat="46.526314" lon="12.015572">
        <ele>2363.05</ele>
        <time>2026-09-01T10:58:35.000Z</time>
      </trkpt>
      <trkpt lat="46.526276" lon="12.015454">
        <ele>2362.1</ele>
        <time>2026-09-01T10:58:43.000Z</time>
      </trkpt>
      <trkpt lat="46.526228" lon="12.015336">
        <ele>2361.25</ele>
        <time>2026-09-01T10:58:51.000Z</time>
      </trkpt>
      <trkpt lat="46.526185" lon="12.015229">
        <ele>2360.9</ele>
        <time>2026-09-01T10:58:58.000Z</time>
      </trkpt>
      <trkpt lat="46.526099" lon="12.015057">
        <ele>2360.05</ele>
        <time>2026-09-01T10:59:11.000Z</time>
      </trkpt>
      <trkpt lat="46.526094" lon="12.015014">
        <ele>2359.2</ele>
        <time>2026-09-01T10:59:13.000Z</time>
      </trkpt>
      <trkpt lat="46.526078" lon="12.014928">
        <ele>2358.85</ele>
        <time>2026-09-01T10:59:18.000Z</time>
      </trkpt>
      <trkpt lat="46.526067" lon="12.014928">
        <ele>2358.07</ele>
        <time>2026-09-01T10:59:20.000Z</time>
      </trkpt>
      <trkpt lat="46.526062" lon="12.014961">
        <ele>2357.73</ele>
        <time>2026-09-01T10:59:22.000Z</time>
      </trkpt>
      <trkpt lat="46.526062" lon="12.015014">
        <ele>2356.85</ele>
        <time>2026-09-01T10:59:26.000Z</time>
      </trkpt>
      <trkpt lat="46.526056" lon="12.015068">
        <ele>2355.93</ele>
        <time>2026-09-01T10:59:30.000Z</time>
      </trkpt>
      <trkpt lat="46.526062" lon="12.015089">
        <ele>2355</ele>
        <time>2026-09-01T10:59:32.000Z</time>
      </trkpt>
      <trkpt lat="46.526046" lon="12.015122">
        <ele>2354.05</ele>
        <time>2026-09-01T10:59:36.000Z</time>
      </trkpt>
      <trkpt lat="46.526019" lon="12.015111">
        <ele>2353.13</ele>
        <time>2026-09-01T10:59:39.000Z</time>
      </trkpt>
      <trkpt lat="46.526008" lon="12.015079">
        <ele>2352.23</ele>
        <time>2026-09-01T10:59:41.000Z</time>
      </trkpt>
      <trkpt lat="46.525992" lon="12.015046">
        <ele>2351.85</ele>
        <time>2026-09-01T10:59:43.000Z</time>
      </trkpt>
      <trkpt lat="46.525965" lon="12.014993">
        <ele>2350.98</ele>
        <time>2026-09-01T10:59:48.000Z</time>
      </trkpt>
      <trkpt lat="46.525965" lon="12.015068">
        <ele>2350.1</ele>
        <time>2026-09-01T10:59:54.000Z</time>
      </trkpt>
      <trkpt lat="46.525976" lon="12.015111">
        <ele>2349.65</ele>
        <time>2026-09-01T10:59:57.000Z</time>
      </trkpt>
      <trkpt lat="46.525997" lon="12.015164">
        <ele>2348.28</ele>
        <time>2026-09-01T11:00:01.000Z</time>
      </trkpt>
      <trkpt lat="46.526003" lon="12.015207">
        <ele>2347.82</ele>
        <time>2026-09-01T11:00:03.000Z</time>
      </trkpt>
      <trkpt lat="46.525992" lon="12.015207">
        <ele>2346.93</ele>
        <time>2026-09-01T11:00:05.000Z</time>
      </trkpt>
      <trkpt lat="46.525981" lon="12.015175">
        <ele>2345.95</ele>
        <time>2026-09-01T11:00:08.000Z</time>
      </trkpt>
      <trkpt lat="46.525965" lon="12.015218">
        <ele>2345</ele>
        <time>2026-09-01T11:00:15.000Z</time>
      </trkpt>
      <trkpt lat="46.52596" lon="12.015261">
        <ele>2344.03</ele>
        <time>2026-09-01T11:00:18.000Z</time>
      </trkpt>
      <trkpt lat="46.52596" lon="12.015315">
        <ele>2343.07</ele>
        <time>2026-09-01T11:00:21.000Z</time>
      </trkpt>
      <trkpt lat="46.525965" lon="12.015379">
        <ele>2342.1</ele>
        <time>2026-09-01T11:00:25.000Z</time>
      </trkpt>
      <trkpt lat="46.52597" lon="12.015422">
        <ele>2341.2</ele>
        <time>2026-09-01T11:00:28.000Z</time>
      </trkpt>
      <trkpt lat="46.525981" lon="12.015476">
        <ele>2340.8</ele>
        <time>2026-09-01T11:00:30.000Z</time>
      </trkpt>
      <trkpt lat="46.525997" lon="12.015529">
        <ele>2339.93</ele>
        <time>2026-09-01T11:00:34.000Z</time>
      </trkpt>
      <trkpt lat="46.526019" lon="12.015604">
        <ele>2338.98</ele>
        <time>2026-09-01T11:00:39.000Z</time>
      </trkpt>
      <trkpt lat="46.526024" lon="12.015637">
        <ele>2338.03</ele>
        <time>2026-09-01T11:00:41.000Z</time>
      </trkpt>
      <trkpt lat="46.526035" lon="12.015647">
        <ele>2337.07</ele>
        <time>2026-09-01T11:00:43.000Z</time>
      </trkpt>
      <trkpt lat="46.526046" lon="12.015733">
        <ele>2336.2</ele>
        <time>2026-09-01T11:00:47.000Z</time>
      </trkpt>
      <trkpt lat="46.526029" lon="12.015744">
        <ele>2335.8</ele>
        <time>2026-09-01T11:00:48.000Z</time>
      </trkpt>
      <trkpt lat="46.526003" lon="12.015712">
        <ele>2334.9</ele>
        <time>2026-09-01T11:00:51.000Z</time>
      </trkpt>
      <trkpt lat="46.525976" lon="12.015679">
        <ele>2333.93</ele>
        <time>2026-09-01T11:00:54.000Z</time>
      </trkpt>
      <trkpt lat="46.525927" lon="12.015626">
        <ele>2332.95</ele>
        <time>2026-09-01T11:01:00.000Z</time>
      </trkpt>
      <trkpt lat="46.525901" lon="12.015604">
        <ele>2331.98</ele>
        <time>2026-09-01T11:01:03.000Z</time>
      </trkpt>
      <trkpt lat="46.52589" lon="12.015626">
        <ele>2331</ele>
        <time>2026-09-01T11:01:07.000Z</time>
      </trkpt>
      <trkpt lat="46.525911" lon="12.015658">
        <ele>2330</ele>
        <time>2026-09-01T11:01:10.000Z</time>
      </trkpt>
      <trkpt lat="46.525917" lon="12.01569">
        <ele>2329.03</ele>
        <time>2026-09-01T11:01:24.000Z</time>
      </trkpt>
      <trkpt lat="46.525933" lon="12.015744">
        <ele>2328.05</ele>
        <time>2026-09-01T11:01:29.000Z</time>
      </trkpt>
      <trkpt lat="46.525895" lon="12.015755">
        <ele>2327.1</ele>
        <time>2026-09-01T11:01:33.000Z</time>
      </trkpt>
      <trkpt lat="46.525879" lon="12.015744">
        <ele>2326.15</ele>
        <time>2026-09-01T11:01:34.000Z</time>
      </trkpt>
      <trkpt lat="46.525874" lon="12.015722">
        <ele>2325.28</ele>
        <time>2026-09-01T11:01:36.000Z</time>
      </trkpt>
      <trkpt lat="46.525836" lon="12.01569">
        <ele>2324.9</ele>
        <time>2026-09-01T11:01:40.000Z</time>
      </trkpt>
      <trkpt lat="46.525836" lon="12.015722">
        <ele>2324.1</ele>
        <time>2026-09-01T11:01:43.000Z</time>
      </trkpt>
      <trkpt lat="46.525842" lon="12.015776">
        <ele>2323.73</ele>
        <time>2026-09-01T11:01:46.000Z</time>
      </trkpt>
      <trkpt lat="46.525847" lon="12.015787">
        <ele>2322.88</ele>
        <time>2026-09-01T11:01:47.000Z</time>
      </trkpt>
      <trkpt lat="46.525863" lon="12.01583">
        <ele>2321.93</ele>
        <time>2026-09-01T11:01:51.000Z</time>
      </trkpt>
      <trkpt lat="46.525885" lon="12.015883">
        <ele>2320.98</ele>
        <time>2026-09-01T11:01:54.000Z</time>
      </trkpt>
      <trkpt lat="46.525917" lon="12.015937">
        <ele>2320</ele>
        <time>2026-09-01T11:01:59.000Z</time>
      </trkpt>
      <trkpt lat="46.525911" lon="12.015969">
        <ele>2319.1</ele>
        <time>2026-09-01T11:02:01.000Z</time>
      </trkpt>
      <trkpt lat="46.525885" lon="12.015969">
        <ele>2318.6</ele>
        <time>2026-09-01T11:02:03.000Z</time>
      </trkpt>
      <trkpt lat="46.525858" lon="12.015948">
        <ele>2317.1</ele>
        <time>2026-09-01T11:02:07.000Z</time>
      </trkpt>
      <trkpt lat="46.525836" lon="12.015937">
        <ele>2316.05</ele>
        <time>2026-09-01T11:02:10.000Z</time>
      </trkpt>
      <trkpt lat="46.525804" lon="12.015926">
        <ele>2315.05</ele>
        <time>2026-09-01T11:02:14.000Z</time>
      </trkpt>
      <trkpt lat="46.525767" lon="12.015894">
        <ele>2314.05</ele>
        <time>2026-09-01T11:02:19.000Z</time>
      </trkpt>
      <trkpt lat="46.52575" lon="12.015883">
        <ele>2313.07</ele>
        <time>2026-09-01T11:02:21.000Z</time>
      </trkpt>
      <trkpt lat="46.525697" lon="12.015851">
        <ele>2312.15</ele>
        <time>2026-09-01T11:02:27.000Z</time>
      </trkpt>
      <trkpt lat="46.525675" lon="12.01583">
        <ele>2311.68</ele>
        <time>2026-09-01T11:02:29.000Z</time>
      </trkpt>
      <trkpt lat="46.525643" lon="12.015797">
        <ele>2310.2</ele>
        <time>2026-09-01T11:02:33.000Z</time>
      </trkpt>
      <trkpt lat="46.525611" lon="12.015765">
        <ele>2309.25</ele>
        <time>2026-09-01T11:02:37.000Z</time>
      </trkpt>
      <trkpt lat="46.52559" lon="12.015744">
        <ele>2308.88</ele>
        <time>2026-09-01T11:02:39.000Z</time>
      </trkpt>
      <trkpt lat="46.525579" lon="12.015712">
        <ele>2308</ele>
        <time>2026-09-01T11:02:41.000Z</time>
      </trkpt>
      <trkpt lat="46.525547" lon="12.015669">
        <ele>2307.05</ele>
        <time>2026-09-01T11:02:45.000Z</time>
      </trkpt>
      <trkpt lat="46.525536" lon="12.015658">
        <ele>2306.15</ele>
        <time>2026-09-01T11:02:46.000Z</time>
      </trkpt>
      <trkpt lat="46.525514" lon="12.015626">
        <ele>2305.78</ele>
        <time>2026-09-01T11:02:50.000Z</time>
      </trkpt>
      <trkpt lat="46.525493" lon="12.015604">
        <ele>2304.9</ele>
        <time>2026-09-01T11:02:53.000Z</time>
      </trkpt>
      <trkpt lat="46.525466" lon="12.015583">
        <ele>2303.9</ele>
        <time>2026-09-01T11:02:56.000Z</time>
      </trkpt>
      <trkpt lat="46.52545" lon="12.015572">
        <ele>2302.9</ele>
        <time>2026-09-01T11:02:59.000Z</time>
      </trkpt>
      <trkpt lat="46.525429" lon="12.01554">
        <ele>2301.9</ele>
        <time>2026-09-01T11:03:02.000Z</time>
      </trkpt>
      <trkpt lat="46.525407" lon="12.015529">
        <ele>2300.93</ele>
        <time>2026-09-01T11:03:05.000Z</time>
      </trkpt>
      <trkpt lat="46.525391" lon="12.015529">
        <ele>2299.85</ele>
        <time>2026-09-01T11:03:08.000Z</time>
      </trkpt>
      <trkpt lat="46.525364" lon="12.015519">
        <ele>2298.28</ele>
        <time>2026-09-01T11:03:11.000Z</time>
      </trkpt>
      <trkpt lat="46.525337" lon="12.015508">
        <ele>2297.2</ele>
        <time>2026-09-01T11:03:14.000Z</time>
      </trkpt>
      <trkpt lat="46.525311" lon="12.015497">
        <ele>2296.28</ele>
        <time>2026-09-01T11:03:18.000Z</time>
      </trkpt>
      <trkpt lat="46.525305" lon="12.015465">
        <ele>2295.85</ele>
        <time>2026-09-01T11:03:20.000Z</time>
      </trkpt>
      <trkpt lat="46.525273" lon="12.015433">
        <ele>2294.93</ele>
        <time>2026-09-01T11:03:23.000Z</time>
      </trkpt>
      <trkpt lat="46.525252" lon="12.015422">
        <ele>2293.93</ele>
        <time>2026-09-01T11:03:25.000Z</time>
      </trkpt>
      <trkpt lat="46.525214" lon="12.015411">
        <ele>2292.95</ele>
        <time>2026-09-01T11:03:30.000Z</time>
      </trkpt>
      <trkpt lat="46.525187" lon="12.015401">
        <ele>2292</ele>
        <time>2026-09-01T11:03:33.000Z</time>
      </trkpt>
      <trkpt lat="46.525155" lon="12.015379">
        <ele>2291.05</ele>
        <time>2026-09-01T11:03:37.000Z</time>
      </trkpt>
      <trkpt lat="46.525134" lon="12.015336">
        <ele>2290.07</ele>
        <time>2026-09-01T11:03:40.000Z</time>
      </trkpt>
      <trkpt lat="46.525117" lon="12.015315">
        <ele>2289.1</ele>
        <time>2026-09-01T11:03:42.000Z</time>
      </trkpt>
      <trkpt lat="46.525091" lon="12.015283">
        <ele>2288.2</ele>
        <time>2026-09-01T11:03:46.000Z</time>
      </trkpt>
      <trkpt lat="46.525069" lon="12.015229">
        <ele>2287.8</ele>
        <time>2026-09-01T11:03:50.000Z</time>
      </trkpt>
      <trkpt lat="46.525053" lon="12.015197">
        <ele>2286.9</ele>
        <time>2026-09-01T11:03:52.000Z</time>
      </trkpt>
      <trkpt lat="46.525026" lon="12.015154">
        <ele>2285.93</ele>
        <time>2026-09-01T11:03:56.000Z</time>
      </trkpt>
      <trkpt lat="46.524994" lon="12.0151">
        <ele>2284.98</ele>
        <time>2026-09-01T11:04:00.000Z</time>
      </trkpt>
      <trkpt lat="46.524967" lon="12.015068">
        <ele>2284.03</ele>
        <time>2026-09-01T11:04:04.000Z</time>
      </trkpt>
      <trkpt lat="46.524919" lon="12.015036">
        <ele>2283.1</ele>
        <time>2026-09-01T11:04:09.000Z</time>
      </trkpt>
      <trkpt lat="46.524887" lon="12.015014">
        <ele>2282.15</ele>
        <time>2026-09-01T11:04:12.000Z</time>
      </trkpt>
      <trkpt lat="46.524865" lon="12.014993">
        <ele>2281.28</ele>
        <time>2026-09-01T11:04:14.000Z</time>
      </trkpt>
      <trkpt lat="46.524844" lon="12.014939">
        <ele>2280.9</ele>
        <time>2026-09-01T11:04:18.000Z</time>
      </trkpt>
      <trkpt lat="46.524833" lon="12.014907">
        <ele>2280.13</ele>
        <time>2026-09-01T11:04:20.000Z</time>
      </trkpt>
      <trkpt lat="46.524801" lon="12.014832">
        <ele>2279.78</ele>
        <time>2026-09-01T11:04:25.000Z</time>
      </trkpt>
      <trkpt lat="46.524796" lon="12.014821">
        <ele>2278.93</ele>
        <time>2026-09-01T11:04:26.000Z</time>
      </trkpt>
      <trkpt lat="46.524785" lon="12.014768">
        <ele>2278</ele>
        <time>2026-09-01T11:04:30.000Z</time>
      </trkpt>
      <trkpt lat="46.524774" lon="12.014714">
        <ele>2277.15</ele>
        <time>2026-09-01T11:04:33.000Z</time>
      </trkpt>
      <trkpt lat="46.524763" lon="12.014692">
        <ele>2276.78</ele>
        <time>2026-09-01T11:04:35.000Z</time>
      </trkpt>
      <trkpt lat="46.524747" lon="12.014639">
        <ele>2275.9</ele>
        <time>2026-09-01T11:04:38.000Z</time>
      </trkpt>
      <trkpt lat="46.52471" lon="12.014564">
        <ele>2274.93</ele>
        <time>2026-09-01T11:04:44.000Z</time>
      </trkpt>
      <trkpt lat="46.524678" lon="12.014521">
        <ele>2273.95</ele>
        <time>2026-09-01T11:04:48.000Z</time>
      </trkpt>
      <trkpt lat="46.524651" lon="12.014478">
        <ele>2272.98</ele>
        <time>2026-09-01T11:04:52.000Z</time>
      </trkpt>
      <trkpt lat="46.524635" lon="12.014446">
        <ele>2272.03</ele>
        <time>2026-09-01T11:04:56.000Z</time>
      </trkpt>
      <trkpt lat="46.524635" lon="12.014435">
        <ele>2271.05</ele>
        <time>2026-09-01T11:04:57.000Z</time>
      </trkpt>
      <trkpt lat="46.524619" lon="12.014413">
        <ele>2270.07</ele>
        <time>2026-09-01T11:05:00.000Z</time>
      </trkpt>
      <trkpt lat="46.524597" lon="12.014381">
        <ele>2269.1</ele>
        <time>2026-09-01T11:05:04.000Z</time>
      </trkpt>
      <trkpt lat="46.52457" lon="12.014349">
        <ele>2268.2</ele>
        <time>2026-09-01T11:05:07.000Z</time>
      </trkpt>
      <trkpt lat="46.524549" lon="12.014381">
        <ele>2267.8</ele>
        <time>2026-09-01T11:05:10.000Z</time>
      </trkpt>
      <trkpt lat="46.524543" lon="12.014403">
        <ele>2266.9</ele>
        <time>2026-09-01T11:05:12.000Z</time>
      </trkpt>
      <trkpt lat="46.524538" lon="12.014467">
        <ele>2265.95</ele>
        <time>2026-09-01T11:05:16.000Z</time>
      </trkpt>
      <trkpt lat="46.524533" lon="12.014531">
        <ele>2265</ele>
        <time>2026-09-01T11:05:22.000Z</time>
      </trkpt>
      <trkpt lat="46.524533" lon="12.014564">
        <ele>2264.05</ele>
        <time>2026-09-01T11:05:25.000Z</time>
      </trkpt>
      <trkpt lat="46.524533" lon="12.014596">
        <ele>2263.1</ele>
        <time>2026-09-01T11:05:27.000Z</time>
      </trkpt>
      <trkpt lat="46.524527" lon="12.014628">
        <ele>2262.2</ele>
        <time>2026-09-01T11:05:30.000Z</time>
      </trkpt>
      <trkpt lat="46.524517" lon="12.01466">
        <ele>2261.8</ele>
        <time>2026-09-01T11:05:32.000Z</time>
      </trkpt>
      <trkpt lat="46.52449" lon="12.014703">
        <ele>2260.9</ele>
        <time>2026-09-01T11:05:35.000Z</time>
      </trkpt>
      <trkpt lat="46.524463" lon="12.014768">
        <ele>2259.93</ele>
        <time>2026-09-01T11:05:39.000Z</time>
      </trkpt>
      <trkpt lat="46.524463" lon="12.014875">
        <ele>2258.93</ele>
        <time>2026-09-01T11:05:46.000Z</time>
      </trkpt>
      <trkpt lat="46.524474" lon="12.015004">
        <ele>2257.93</ele>
        <time>2026-09-01T11:05:53.000Z</time>
      </trkpt>
      <trkpt lat="46.524458" lon="12.015111">
        <ele>2256.93</ele>
        <time>2026-09-01T11:06:00.000Z</time>
      </trkpt>
      <trkpt lat="46.524442" lon="12.015175">
        <ele>2255.9</ele>
        <time>2026-09-01T11:06:05.000Z</time>
      </trkpt>
      <trkpt lat="46.52442" lon="12.015122">
        <ele>2254.82</ele>
        <time>2026-09-01T11:06:09.000Z</time>
      </trkpt>
      <trkpt lat="46.524404" lon="12.015089">
        <ele>2253.28</ele>
        <time>2026-09-01T11:06:12.000Z</time>
      </trkpt>
      <trkpt lat="46.524377" lon="12.015014">
        <ele>2252.23</ele>
        <time>2026-09-01T11:06:18.000Z</time>
      </trkpt>
      <trkpt lat="46.524366" lon="12.014961">
        <ele>2251.25</ele>
        <time>2026-09-01T11:06:21.000Z</time>
      </trkpt>
      <trkpt lat="46.524356" lon="12.014939">
        <ele>2250.35</ele>
        <time>2026-09-01T11:06:24.000Z</time>
      </trkpt>
      <trkpt lat="46.524334" lon="12.01495">
        <ele>2250.03</ele>
        <time>2026-09-01T11:06:26.000Z</time>
      </trkpt>
      <trkpt lat="46.524324" lon="12.014918">
        <ele>2249.73</ele>
        <time>2026-09-01T11:06:28.000Z</time>
      </trkpt>
      <trkpt lat="46.524307" lon="12.014886">
        <ele>2248.88</ele>
        <time>2026-09-01T11:06:30.000Z</time>
      </trkpt>
      <trkpt lat="46.52427" lon="12.01481">
        <ele>2247.98</ele>
        <time>2026-09-01T11:06:36.000Z</time>
      </trkpt>
      <trkpt lat="46.524248" lon="12.014757">
        <ele>2247.05</ele>
        <time>2026-09-01T11:06:41.000Z</time>
      </trkpt>
      <trkpt lat="46.524238" lon="12.014746">
        <ele>2246.2</ele>
        <time>2026-09-01T11:06:43.000Z</time>
      </trkpt>
      <trkpt lat="46.524222" lon="12.014725">
        <ele>2245.85</ele>
        <time>2026-09-01T11:06:45.000Z</time>
      </trkpt>
      <trkpt lat="46.524211" lon="12.014692">
        <ele>2245.05</ele>
        <time>2026-09-01T11:06:48.000Z</time>
      </trkpt>
      <trkpt lat="46.5242" lon="12.014671">
        <ele>2244.63</ele>
        <time>2026-09-01T11:06:50.000Z</time>
      </trkpt>
      <trkpt lat="46.524189" lon="12.014628">
        <ele>2243.2</ele>
        <time>2026-09-01T11:06:54.000Z</time>
      </trkpt>
      <trkpt lat="46.524173" lon="12.014564">
        <ele>2242.28</ele>
        <time>2026-09-01T11:06:59.000Z</time>
      </trkpt>
      <trkpt lat="46.524163" lon="12.014607">
        <ele>2241.93</ele>
        <time>2026-09-01T11:07:02.000Z</time>
      </trkpt>
      <trkpt lat="46.524141" lon="12.014607">
        <ele>2241.15</ele>
        <time>2026-09-01T11:07:04.000Z</time>
      </trkpt>
      <trkpt lat="46.52413" lon="12.014585">
        <ele>2240.82</ele>
        <time>2026-09-01T11:07:06.000Z</time>
      </trkpt>
      <trkpt lat="46.524125" lon="12.014553">
        <ele>2239.98</ele>
        <time>2026-09-01T11:07:08.000Z</time>
      </trkpt>
      <trkpt lat="46.524098" lon="12.014521">
        <ele>2239.07</ele>
        <time>2026-09-01T11:07:12.000Z</time>
      </trkpt>
      <trkpt lat="46.524071" lon="12.014456">
        <ele>2238.28</ele>
        <time>2026-09-01T11:07:16.000Z</time>
      </trkpt>
      <trkpt lat="46.524082" lon="12.014435">
        <ele>2238.03</ele>
        <time>2026-09-01T11:07:18.000Z</time>
      </trkpt>
      <trkpt lat="46.524071" lon="12.014349">
        <ele>2237.78</ele>
        <time>2026-09-01T11:07:24.000Z</time>
      </trkpt>
      <trkpt lat="46.52405" lon="12.014328">
        <ele>2236.95</ele>
        <time>2026-09-01T11:07:28.000Z</time>
      </trkpt>
      <trkpt lat="46.524045" lon="12.014295">
        <ele>2236.13</ele>
        <time>2026-09-01T11:07:31.000Z</time>
      </trkpt>
      <trkpt lat="46.524045" lon="12.014263">
        <ele>2235.8</ele>
        <time>2026-09-01T11:07:32.000Z</time>
      </trkpt>
      <trkpt lat="46.524023" lon="12.014242">
        <ele>2235</ele>
        <time>2026-09-01T11:07:35.000Z</time>
      </trkpt>
      <trkpt lat="46.524018" lon="12.014253">
        <ele>2234.18</ele>
        <time>2026-09-01T11:07:36.000Z</time>
      </trkpt>
      <trkpt lat="46.524002" lon="12.014295">
        <ele>2233.82</ele>
        <time>2026-09-01T11:07:39.000Z</time>
      </trkpt>
      <trkpt lat="46.52398" lon="12.014295">
        <ele>2232.98</ele>
        <time>2026-09-01T11:07:41.000Z</time>
      </trkpt>
      <trkpt lat="46.523948" lon="12.014274">
        <ele>2232.13</ele>
        <time>2026-09-01T11:07:45.000Z</time>
      </trkpt>
      <trkpt lat="46.523921" lon="12.014253">
        <ele>2231.75</ele>
        <time>2026-09-01T11:07:49.000Z</time>
      </trkpt>
      <trkpt lat="46.523916" lon="12.01422">
        <ele>2230.9</ele>
        <time>2026-09-01T11:07:51.000Z</time>
      </trkpt>
      <trkpt lat="46.52391" lon="12.014145">
        <ele>2229.98</ele>
        <time>2026-09-01T11:07:56.000Z</time>
      </trkpt>
      <trkpt lat="46.523894" lon="12.014081">
        <ele>2229.03</ele>
        <time>2026-09-01T11:08:01.000Z</time>
      </trkpt>
      <trkpt lat="46.523894" lon="12.014059">
        <ele>2228.07</ele>
        <time>2026-09-01T11:08:05.000Z</time>
      </trkpt>
      <trkpt lat="46.523868" lon="12.013984">
        <ele>2227.2</ele>
        <time>2026-09-01T11:08:08.000Z</time>
      </trkpt>
      <trkpt lat="46.523846" lon="12.013963">
        <ele>2226.82</ele>
        <time>2026-09-01T11:08:11.000Z</time>
      </trkpt>
      <trkpt lat="46.523835" lon="12.013931">
        <ele>2225.95</ele>
        <time>2026-09-01T11:08:14.000Z</time>
      </trkpt>
      <trkpt lat="46.52383" lon="12.013909">
        <ele>2225.03</ele>
        <time>2026-09-01T11:08:16.000Z</time>
      </trkpt>
      <trkpt lat="46.523814" lon="12.013856">
        <ele>2224.1</ele>
        <time>2026-09-01T11:08:20.000Z</time>
      </trkpt>
      <trkpt lat="46.523798" lon="12.013898">
        <ele>2223.25</ele>
        <time>2026-09-01T11:08:25.000Z</time>
      </trkpt>
      <trkpt lat="46.523766" lon="12.013888">
        <ele>2222.9</ele>
        <time>2026-09-01T11:08:28.000Z</time>
      </trkpt>
      <trkpt lat="46.52375" lon="12.013877">
        <ele>2222.1</ele>
        <time>2026-09-01T11:08:30.000Z</time>
      </trkpt>
      <trkpt lat="46.523733" lon="12.013856">
        <ele>2221.73</ele>
        <time>2026-09-01T11:08:32.000Z</time>
      </trkpt>
      <trkpt lat="46.523739" lon="12.013813">
        <ele>2220.85</ele>
        <time>2026-09-01T11:08:36.000Z</time>
      </trkpt>
      <trkpt lat="46.523733" lon="12.013748">
        <ele>2219.9</ele>
        <time>2026-09-01T11:08:41.000Z</time>
      </trkpt>
      <trkpt lat="46.523733" lon="12.013727">
        <ele>2218.98</ele>
        <time>2026-09-01T11:08:43.000Z</time>
      </trkpt>
      <trkpt lat="46.523723" lon="12.013695">
        <ele>2218.03</ele>
        <time>2026-09-01T11:08:46.000Z</time>
      </trkpt>
      <trkpt lat="46.523717" lon="12.013662">
        <ele>2217.07</ele>
        <time>2026-09-01T11:08:49.000Z</time>
      </trkpt>
      <trkpt lat="46.523712" lon="12.01362">
        <ele>2216.07</ele>
        <time>2026-09-01T11:08:53.000Z</time>
      </trkpt>
      <trkpt lat="46.523707" lon="12.013577">
        <ele>2215.15</ele>
        <time>2026-09-01T11:08:56.000Z</time>
      </trkpt>
      <trkpt lat="46.523696" lon="12.013555">
        <ele>2214.73</ele>
        <time>2026-09-01T11:08:57.000Z</time>
      </trkpt>
      <trkpt lat="46.52368" lon="12.013523">
        <ele>2213.82</ele>
        <time>2026-09-01T11:09:01.000Z</time>
      </trkpt>
      <trkpt lat="46.523664" lon="12.013459">
        <ele>2212.78</ele>
        <time>2026-09-01T11:09:06.000Z</time>
      </trkpt>
      <trkpt lat="46.523642" lon="12.013362">
        <ele>2211.23</ele>
        <time>2026-09-01T11:09:12.000Z</time>
      </trkpt>
      <trkpt lat="46.523615" lon="12.013405">
        <ele>2210.18</ele>
        <time>2026-09-01T11:09:17.000Z</time>
      </trkpt>
      <trkpt lat="46.523594" lon="12.013416">
        <ele>2209.28</ele>
        <time>2026-09-01T11:09:20.000Z</time>
      </trkpt>
      <trkpt lat="46.523546" lon="12.013384">
        <ele>2208.85</ele>
        <time>2026-09-01T11:09:23.000Z</time>
      </trkpt>
      <trkpt lat="46.523535" lon="12.013384">
        <ele>2207.93</ele>
        <time>2026-09-01T11:09:24.000Z</time>
      </trkpt>
      <trkpt lat="46.523524" lon="12.013394">
        <ele>2206.95</ele>
        <time>2026-09-01T11:09:27.000Z</time>
      </trkpt>
      <trkpt lat="46.523497" lon="12.013426">
        <ele>2205.98</ele>
        <time>2026-09-01T11:09:32.000Z</time>
      </trkpt>
      <trkpt lat="46.523487" lon="12.013459">
        <ele>2205</ele>
        <time>2026-09-01T11:09:34.000Z</time>
      </trkpt>
      <trkpt lat="46.523433" lon="12.013469">
        <ele>2204.03</ele>
        <time>2026-09-01T11:09:40.000Z</time>
      </trkpt>
      <trkpt lat="46.523422" lon="12.013459">
        <ele>2203.1</ele>
        <time>2026-09-01T11:09:41.000Z</time>
      </trkpt>
      <trkpt lat="46.523406" lon="12.013426">
        <ele>2202.6</ele>
        <time>2026-09-01T11:09:43.000Z</time>
      </trkpt>
      <trkpt lat="46.523385" lon="12.013416">
        <ele>2201.07</ele>
        <time>2026-09-01T11:09:46.000Z</time>
      </trkpt>
      <trkpt lat="46.523363" lon="12.013373">
        <ele>2200</ele>
        <time>2026-09-01T11:09:49.000Z</time>
      </trkpt>
      <trkpt lat="46.523353" lon="12.01333">
        <ele>2199</ele>
        <time>2026-09-01T11:09:53.000Z</time>
      </trkpt>
      <trkpt lat="46.523331" lon="12.013308">
        <ele>2198.03</ele>
        <time>2026-09-01T11:09:57.000Z</time>
      </trkpt>
      <trkpt lat="46.523304" lon="12.013276">
        <ele>2197</ele>
        <time>2026-09-01T11:10:00.000Z</time>
      </trkpt>
      <trkpt lat="46.523267" lon="12.013223">
        <ele>2195.53</ele>
        <time>2026-09-01T11:10:05.000Z</time>
      </trkpt>
      <trkpt lat="46.523229" lon="12.013233">
        <ele>2195.07</ele>
        <time>2026-09-01T11:10:08.000Z</time>
      </trkpt>
      <trkpt lat="46.523202" lon="12.013244">
        <ele>2194.28</ele>
        <time>2026-09-01T11:10:10.000Z</time>
      </trkpt>
      <trkpt lat="46.52317" lon="12.013244">
        <ele>2194</ele>
        <time>2026-09-01T11:10:12.000Z</time>
      </trkpt>
      <trkpt lat="46.523143" lon="12.013212">
        <ele>2193.73</ele>
        <time>2026-09-01T11:10:15.000Z</time>
      </trkpt>
      <trkpt lat="46.523111" lon="12.013158">
        <ele>2192.88</ele>
        <time>2026-09-01T11:10:19.000Z</time>
      </trkpt>
      <trkpt lat="46.523047" lon="12.013062">
        <ele>2192</ele>
        <time>2026-09-01T11:10:26.000Z</time>
      </trkpt>
      <trkpt lat="46.522966" lon="12.012954">
        <ele>2191.18</ele>
        <time>2026-09-01T11:10:34.000Z</time>
      </trkpt>
      <trkpt lat="46.52294" lon="12.012901">
        <ele>2189.39</ele>
        <time>2026-09-01T11:10:38.000Z</time>
      </trkpt>
      <trkpt lat="46.522907" lon="12.012826">
        <ele>2186.05</ele>
        <time>2026-09-01T11:10:43.000Z</time>
      </trkpt>
      <trkpt lat="46.522891" lon="12.012783">
        <ele>2182.37</ele>
        <time>2026-09-01T11:10:46.000Z</time>
      </trkpt>
      <trkpt lat="46.522859" lon="12.012793">
        <ele>2179.22</ele>
        <time>2026-09-01T11:10:49.000Z</time>
      </trkpt>
      <trkpt lat="46.522838" lon="12.012815">
        <ele>2170.98</ele>
        <time>2026-09-01T11:10:51.000Z</time>
      </trkpt>
      <trkpt lat="46.521828" lon="12.0141778">
        <ele>2130.04</ele>
        <time>2026-09-01T11:10:52.000Z</time>
      </trkpt>
      <trkpt lat="46.5211969" lon="12.0161406">
        <ele>2097.89</ele>
        <time>2026-09-01T11:10:56.000Z</time>
      </trkpt>
      <trkpt lat="46.520803" lon="12.016677">
        <ele>2084.13</ele>
        <time>2026-09-01T11:10:57.000Z</time>
      </trkpt>
      <trkpt lat="46.5210073" lon="12.0172884">
        <ele>2079.47</ele>
        <time>2026-09-01T11:11:00.000Z</time>
      </trkpt>
      <trkpt lat="46.520712" lon="12.0180295">
        <ele>2069.34</ele>
        <time>2026-09-01T11:11:03.000Z</time>
      </trkpt>
      <trkpt lat="46.5202445" lon="12.0188873">
        <ele>2056.66</ele>
        <time>2026-09-01T11:11:04.000Z</time>
      </trkpt>
    </trkseg>
  </trk>
</gpx>
